<?xml version="1.0" encoding="UTF-8" standalone="no" ?>
<gpx xmlns="http://www.topografix.com/GPX/1/1" xmlns:xsi="http://www.w3.org/2001/XMLSchema-instance" xsi:schemaLocation="http://www.topografix.com/GPX/1/1 http://www.topografix.com/GPX/1/1/gpx.xsd" version="1.1" creator="VisuGPX - https://www.visugpx.com">
  <metadata>
    <name>2019-09-09 14:45:27</name>
    <desc><![CDATA[

]]></desc>
  </metadata>
  <trk>
    <name><![CDATA[2019-09-09 14:45:27]]></name>
    <trkseg>
      <trkpt lat="43.0568" lon="0.50986">
        <ele>464.47</ele>
        <time>2019-09-09T06:23:23Z</time>
      </trkpt>
      <trkpt lat="43.0567" lon="0.50975">
        <ele>464.5</ele>
        <time>2019-09-09T06:23:24Z</time>
      </trkpt>
      <trkpt lat="43.05686" lon="0.50954">
        <ele>467.69</ele>
        <time>2019-09-09T06:23:40Z</time>
      </trkpt>
      <trkpt lat="43.05687" lon="0.50945">
        <ele>470.74</ele>
        <time>2019-09-09T06:23:48Z</time>
      </trkpt>
      <trkpt lat="43.05684" lon="0.50941">
        <ele>471.63</ele>
        <time>2019-09-09T06:23:51Z</time>
      </trkpt>
      <trkpt lat="43.05675" lon="0.50928">
        <ele>474.76</ele>
        <time>2019-09-09T06:24:04Z</time>
      </trkpt>
      <trkpt lat="43.05664" lon="0.50901">
        <ele>475.69</ele>
        <time>2019-09-09T06:24:24Z</time>
      </trkpt>
      <trkpt lat="43.05669" lon="0.50883">
        <ele>477.3</ele>
        <time>2019-09-09T06:24:41Z</time>
      </trkpt>
      <trkpt lat="43.05675" lon="0.50876">
        <ele>478.22</ele>
        <time>2019-09-09T06:25:06Z</time>
      </trkpt>
      <trkpt lat="43.05679" lon="0.50876">
        <ele>478.36</ele>
        <time>2019-09-09T06:25:09Z</time>
      </trkpt>
      <trkpt lat="43.05697" lon="0.50875">
        <ele>480.91</ele>
        <time>2019-09-09T06:25:26Z</time>
      </trkpt>
      <trkpt lat="43.05701" lon="0.50875">
        <ele>481.52</ele>
        <time>2019-09-09T06:25:30Z</time>
      </trkpt>
      <trkpt lat="43.05709" lon="0.50879">
        <ele>482.51</ele>
        <time>2019-09-09T06:25:37Z</time>
      </trkpt>
      <trkpt lat="43.05712" lon="0.50878">
        <ele>483.67</ele>
        <time>2019-09-09T06:25:51Z</time>
      </trkpt>
      <trkpt lat="43.05714" lon="0.50871">
        <ele>484.34</ele>
        <time>2019-09-09T06:26:08Z</time>
      </trkpt>
      <trkpt lat="43.0571" lon="0.50872">
        <ele>484.3</ele>
        <time>2019-09-09T06:26:15Z</time>
      </trkpt>
      <trkpt lat="43.05709" lon="0.50872">
        <ele>484.23</ele>
        <time>2019-09-09T06:26:16Z</time>
      </trkpt>
      <trkpt lat="43.05705" lon="0.50871">
        <ele>483.88</ele>
        <time>2019-09-09T06:26:19Z</time>
      </trkpt>
      <trkpt lat="43.05703" lon="0.50871">
        <ele>483.72</ele>
        <time>2019-09-09T06:26:20Z</time>
      </trkpt>
      <trkpt lat="43.05684" lon="0.50874">
        <ele>480.65</ele>
        <time>2019-09-09T06:26:37Z</time>
      </trkpt>
      <trkpt lat="43.05666" lon="0.50884">
        <ele>477.67</ele>
        <time>2019-09-09T06:26:56Z</time>
      </trkpt>
      <trkpt lat="43.05666" lon="0.50885">
        <ele>477.48</ele>
        <time>2019-09-09T06:26:57Z</time>
      </trkpt>
      <trkpt lat="43.05665" lon="0.50887">
        <ele>477.3</ele>
        <time>2019-09-09T06:26:58Z</time>
      </trkpt>
      <trkpt lat="43.05665" lon="0.50888">
        <ele>477.12</ele>
        <time>2019-09-09T06:26:59Z</time>
      </trkpt>
      <trkpt lat="43.05664" lon="0.50894">
        <ele>476.21</ele>
        <time>2019-09-09T06:27:03Z</time>
      </trkpt>
      <trkpt lat="43.05677" lon="0.50927">
        <ele>473.92</ele>
        <time>2019-09-09T06:27:24Z</time>
      </trkpt>
      <trkpt lat="43.05688" lon="0.50946">
        <ele>473.19</ele>
        <time>2019-09-09T06:27:41Z</time>
      </trkpt>
      <trkpt lat="43.05697" lon="0.50957">
        <ele>472.91</ele>
        <time>2019-09-09T06:27:48Z</time>
      </trkpt>
      <trkpt lat="43.05698" lon="0.50959">
        <ele>472.9</ele>
        <time>2019-09-09T06:27:49Z</time>
      </trkpt>
      <trkpt lat="43.057" lon="0.5096">
        <ele>472.89</ele>
        <time>2019-09-09T06:27:50Z</time>
      </trkpt>
      <trkpt lat="43.05701" lon="0.50962">
        <ele>472.88</ele>
        <time>2019-09-09T06:27:51Z</time>
      </trkpt>
      <trkpt lat="43.05702" lon="0.50963">
        <ele>472.86</ele>
        <time>2019-09-09T06:27:52Z</time>
      </trkpt>
      <trkpt lat="43.05704" lon="0.50965">
        <ele>472.83</ele>
        <time>2019-09-09T06:27:53Z</time>
      </trkpt>
      <trkpt lat="43.05722" lon="0.50992">
        <ele>472.25</ele>
        <time>2019-09-09T06:28:14Z</time>
      </trkpt>
      <trkpt lat="43.05739" lon="0.51015">
        <ele>471.64</ele>
        <time>2019-09-09T06:28:35Z</time>
      </trkpt>
      <trkpt lat="43.05756" lon="0.51037">
        <ele>471</ele>
        <time>2019-09-09T06:28:53Z</time>
      </trkpt>
      <trkpt lat="43.05773" lon="0.51044">
        <ele>471.03</ele>
        <time>2019-09-09T06:29:07Z</time>
      </trkpt>
      <trkpt lat="43.05783" lon="0.51044">
        <ele>471.5</ele>
        <time>2019-09-09T06:29:16Z</time>
      </trkpt>
      <trkpt lat="43.05807" lon="0.51041">
        <ele>472.5</ele>
        <time>2019-09-09T06:29:35Z</time>
      </trkpt>
      <trkpt lat="43.05817" lon="0.51032">
        <ele>473.66</ele>
        <time>2019-09-09T06:29:50Z</time>
      </trkpt>
      <trkpt lat="43.0582" lon="0.51022">
        <ele>475.03</ele>
        <time>2019-09-09T06:30:13Z</time>
      </trkpt>
      <trkpt lat="43.05825" lon="0.51002">
        <ele>476.26</ele>
        <time>2019-09-09T06:30:30Z</time>
      </trkpt>
      <trkpt lat="43.0583" lon="0.50985">
        <ele>478.46</ele>
        <time>2019-09-09T06:30:50Z</time>
      </trkpt>
      <trkpt lat="43.05835" lon="0.50969">
        <ele>480.06</ele>
        <time>2019-09-09T06:31:04Z</time>
      </trkpt>
      <trkpt lat="43.05846" lon="0.5095">
        <ele>481.79</ele>
        <time>2019-09-09T06:31:24Z</time>
      </trkpt>
      <trkpt lat="43.05857" lon="0.50933">
        <ele>483.37</ele>
        <time>2019-09-09T06:31:44Z</time>
      </trkpt>
      <trkpt lat="43.05873" lon="0.50918">
        <ele>485.43</ele>
        <time>2019-09-09T06:32:05Z</time>
      </trkpt>
      <trkpt lat="43.05897" lon="0.5089">
        <ele>488.45</ele>
        <time>2019-09-09T06:32:27Z</time>
      </trkpt>
      <trkpt lat="43.05902" lon="0.50871">
        <ele>491.68</ele>
        <time>2019-09-09T06:32:49Z</time>
      </trkpt>
      <trkpt lat="43.05908" lon="0.5085">
        <ele>494.68</ele>
        <time>2019-09-09T06:33:10Z</time>
      </trkpt>
      <trkpt lat="43.05923" lon="0.50837">
        <ele>496.65</ele>
        <time>2019-09-09T06:33:31Z</time>
      </trkpt>
      <trkpt lat="43.0594" lon="0.50821">
        <ele>498.38</ele>
        <time>2019-09-09T06:33:51Z</time>
      </trkpt>
      <trkpt lat="43.05955" lon="0.5081">
        <ele>499.29</ele>
        <time>2019-09-09T06:34:09Z</time>
      </trkpt>
      <trkpt lat="43.05975" lon="0.50799">
        <ele>500.52</ele>
        <time>2019-09-09T06:34:27Z</time>
      </trkpt>
      <trkpt lat="43.05991" lon="0.50795">
        <ele>501.11</ele>
        <time>2019-09-09T06:34:43Z</time>
      </trkpt>
      <trkpt lat="43.06006" lon="0.50789">
        <ele>502.43</ele>
        <time>2019-09-09T06:34:57Z</time>
      </trkpt>
      <trkpt lat="43.06014" lon="0.50785">
        <ele>502</ele>
        <time>2019-09-09T06:35:03Z</time>
      </trkpt>
      <trkpt lat="43.06038" lon="0.50774">
        <ele>502.46</ele>
        <time>2019-09-09T06:35:23Z</time>
      </trkpt>
      <trkpt lat="43.06043" lon="0.5077">
        <ele>502.6</ele>
        <time>2019-09-09T06:35:29Z</time>
      </trkpt>
      <trkpt lat="43.06045" lon="0.5077">
        <ele>502.64</ele>
        <time>2019-09-09T06:35:30Z</time>
      </trkpt>
      <trkpt lat="43.06053" lon="0.50764">
        <ele>502.96</ele>
        <time>2019-09-09T06:35:38Z</time>
      </trkpt>
      <trkpt lat="43.06069" lon="0.50746">
        <ele>504.06</ele>
        <time>2019-09-09T06:35:57Z</time>
      </trkpt>
      <trkpt lat="43.0607" lon="0.50745">
        <ele>504.14</ele>
        <time>2019-09-09T06:35:58Z</time>
      </trkpt>
      <trkpt lat="43.06073" lon="0.50743">
        <ele>504.31</ele>
        <time>2019-09-09T06:36:01Z</time>
      </trkpt>
      <trkpt lat="43.06089" lon="0.50729">
        <ele>505.86</ele>
        <time>2019-09-09T06:36:19Z</time>
      </trkpt>
      <trkpt lat="43.06105" lon="0.50717">
        <ele>507.55</ele>
        <time>2019-09-09T06:36:36Z</time>
      </trkpt>
      <trkpt lat="43.06125" lon="0.50701">
        <ele>508.44</ele>
        <time>2019-09-09T06:36:54Z</time>
      </trkpt>
      <trkpt lat="43.06147" lon="0.50682">
        <ele>508.79</ele>
        <time>2019-09-09T06:37:16Z</time>
      </trkpt>
      <trkpt lat="43.06159" lon="0.50671">
        <ele>508.51</ele>
        <time>2019-09-09T06:37:29Z</time>
      </trkpt>
      <trkpt lat="43.06161" lon="0.50669">
        <ele>508.49</ele>
        <time>2019-09-09T06:37:31Z</time>
      </trkpt>
      <trkpt lat="43.06177" lon="0.50654">
        <ele>508.32</ele>
        <time>2019-09-09T06:37:45Z</time>
      </trkpt>
      <trkpt lat="43.06191" lon="0.50637">
        <ele>508</ele>
        <time>2019-09-09T06:38:02Z</time>
      </trkpt>
      <trkpt lat="43.062" lon="0.50624">
        <ele>507.57</ele>
        <time>2019-09-09T06:38:13Z</time>
      </trkpt>
      <trkpt lat="43.0621" lon="0.506">
        <ele>506.86</ele>
        <time>2019-09-09T06:38:29Z</time>
      </trkpt>
      <trkpt lat="43.06205" lon="0.50582">
        <ele>506.36</ele>
        <time>2019-09-09T06:38:46Z</time>
      </trkpt>
      <trkpt lat="43.06186" lon="0.50575">
        <ele>508.22</ele>
        <time>2019-09-09T06:39:05Z</time>
      </trkpt>
      <trkpt lat="43.06179" lon="0.5057">
        <ele>509.03</ele>
        <time>2019-09-09T06:39:12Z</time>
      </trkpt>
      <trkpt lat="43.06165" lon="0.50557">
        <ele>511.2</ele>
        <time>2019-09-09T06:39:32Z</time>
      </trkpt>
      <trkpt lat="43.06154" lon="0.50527">
        <ele>512.58</ele>
        <time>2019-09-09T06:39:50Z</time>
      </trkpt>
      <trkpt lat="43.06147" lon="0.505">
        <ele>514.74</ele>
        <time>2019-09-09T06:40:12Z</time>
      </trkpt>
      <trkpt lat="43.06146" lon="0.50487">
        <ele>516.6</ele>
        <time>2019-09-09T06:40:20Z</time>
      </trkpt>
      <trkpt lat="43.06135" lon="0.50468">
        <ele>519.39</ele>
        <time>2019-09-09T06:40:42Z</time>
      </trkpt>
      <trkpt lat="43.06119" lon="0.50443">
        <ele>522.42</ele>
        <time>2019-09-09T06:41:02Z</time>
      </trkpt>
      <trkpt lat="43.06106" lon="0.50424">
        <ele>525.01</ele>
        <time>2019-09-09T06:41:24Z</time>
      </trkpt>
      <trkpt lat="43.06085" lon="0.50401">
        <ele>527.02</ele>
        <time>2019-09-09T06:41:45Z</time>
      </trkpt>
      <trkpt lat="43.06067" lon="0.50387">
        <ele>527.72</ele>
        <time>2019-09-09T06:42:04Z</time>
      </trkpt>
      <trkpt lat="43.06049" lon="0.5037">
        <ele>528.2</ele>
        <time>2019-09-09T06:42:21Z</time>
      </trkpt>
      <trkpt lat="43.06033" lon="0.50357">
        <ele>528.42</ele>
        <time>2019-09-09T06:42:36Z</time>
      </trkpt>
      <trkpt lat="43.06026" lon="0.50352">
        <ele>528.57</ele>
        <time>2019-09-09T06:42:40Z</time>
      </trkpt>
      <trkpt lat="43.05988" lon="0.50316">
        <ele>529.11</ele>
        <time>2019-09-09T06:43:08Z</time>
      </trkpt>
      <trkpt lat="43.05967" lon="0.50298">
        <ele>529.82</ele>
        <time>2019-09-09T06:43:28Z</time>
      </trkpt>
      <trkpt lat="43.05944" lon="0.50278">
        <ele>530.68</ele>
        <time>2019-09-09T06:43:51Z</time>
      </trkpt>
      <trkpt lat="43.05929" lon="0.50264">
        <ele>531.94</ele>
        <time>2019-09-09T06:44:09Z</time>
      </trkpt>
      <trkpt lat="43.05916" lon="0.50244">
        <ele>533.25</ele>
        <time>2019-09-09T06:44:26Z</time>
      </trkpt>
      <trkpt lat="43.05901" lon="0.50216">
        <ele>534.33</ele>
        <time>2019-09-09T06:44:46Z</time>
      </trkpt>
      <trkpt lat="43.05885" lon="0.50192">
        <ele>535.92</ele>
        <time>2019-09-09T06:45:08Z</time>
      </trkpt>
      <trkpt lat="43.0587" lon="0.50173">
        <ele>537.14</ele>
        <time>2019-09-09T06:45:24Z</time>
      </trkpt>
      <trkpt lat="43.05866" lon="0.50172">
        <ele>537.93</ele>
        <time>2019-09-09T06:45:42Z</time>
      </trkpt>
      <trkpt lat="43.05858" lon="0.50162">
        <ele>537.92</ele>
        <time>2019-09-09T06:45:58Z</time>
      </trkpt>
      <trkpt lat="43.05846" lon="0.50143">
        <ele>539.29</ele>
        <time>2019-09-09T06:46:15Z</time>
      </trkpt>
      <trkpt lat="43.05835" lon="0.50124">
        <ele>540.32</ele>
        <time>2019-09-09T06:46:29Z</time>
      </trkpt>
      <trkpt lat="43.05821" lon="0.50105">
        <ele>541.5</ele>
        <time>2019-09-09T06:46:46Z</time>
      </trkpt>
      <trkpt lat="43.05808" lon="0.50086">
        <ele>542.17</ele>
        <time>2019-09-09T06:47:02Z</time>
      </trkpt>
      <trkpt lat="43.05805" lon="0.50082">
        <ele>542.3</ele>
        <time>2019-09-09T06:47:05Z</time>
      </trkpt>
      <trkpt lat="43.05804" lon="0.50081">
        <ele>542.34</ele>
        <time>2019-09-09T06:47:06Z</time>
      </trkpt>
      <trkpt lat="43.05796" lon="0.50071">
        <ele>542.71</ele>
        <time>2019-09-09T06:47:17Z</time>
      </trkpt>
      <trkpt lat="43.0579" lon="0.50061">
        <ele>542.95</ele>
        <time>2019-09-09T06:47:24Z</time>
      </trkpt>
      <trkpt lat="43.0579" lon="0.50059">
        <ele>542.99</ele>
        <time>2019-09-09T06:47:25Z</time>
      </trkpt>
      <trkpt lat="43.05789" lon="0.50058">
        <ele>543.04</ele>
        <time>2019-09-09T06:47:26Z</time>
      </trkpt>
      <trkpt lat="43.05771" lon="0.50032">
        <ele>543.96</ele>
        <time>2019-09-09T06:47:46Z</time>
      </trkpt>
      <trkpt lat="43.05765" lon="0.50009">
        <ele>544.59</ele>
        <time>2019-09-09T06:48:03Z</time>
      </trkpt>
      <trkpt lat="43.05766" lon="0.49982">
        <ele>545.9</ele>
        <time>2019-09-09T06:48:19Z</time>
      </trkpt>
      <trkpt lat="43.05762" lon="0.49944">
        <ele>546.75</ele>
        <time>2019-09-09T06:48:40Z</time>
      </trkpt>
      <trkpt lat="43.05753" lon="0.49918">
        <ele>546.13</ele>
        <time>2019-09-09T06:48:57Z</time>
      </trkpt>
      <trkpt lat="43.05735" lon="0.49891">
        <ele>545.21</ele>
        <time>2019-09-09T06:49:16Z</time>
      </trkpt>
      <trkpt lat="43.05713" lon="0.49876">
        <ele>544.24</ele>
        <time>2019-09-09T06:49:33Z</time>
      </trkpt>
      <trkpt lat="43.05705" lon="0.49866">
        <ele>544.09</ele>
        <time>2019-09-09T06:49:41Z</time>
      </trkpt>
      <trkpt lat="43.05701" lon="0.4986">
        <ele>544.06</ele>
        <time>2019-09-09T06:49:46Z</time>
      </trkpt>
      <trkpt lat="43.05695" lon="0.49848">
        <ele>543.96</ele>
        <time>2019-09-09T06:49:54Z</time>
      </trkpt>
      <trkpt lat="43.0569" lon="0.49832">
        <ele>544.09</ele>
        <time>2019-09-09T06:50:08Z</time>
      </trkpt>
      <trkpt lat="43.05683" lon="0.49817">
        <ele>544.27</ele>
        <time>2019-09-09T06:50:20Z</time>
      </trkpt>
      <trkpt lat="43.05677" lon="0.49807">
        <ele>544.09</ele>
        <time>2019-09-09T06:50:27Z</time>
      </trkpt>
      <trkpt lat="43.05663" lon="0.49778">
        <ele>544.92</ele>
        <time>2019-09-09T06:50:46Z</time>
      </trkpt>
      <trkpt lat="43.0565" lon="0.49756">
        <ele>546.73</ele>
        <time>2019-09-09T06:51:04Z</time>
      </trkpt>
      <trkpt lat="43.05637" lon="0.4973">
        <ele>548.84</ele>
        <time>2019-09-09T06:51:25Z</time>
      </trkpt>
      <trkpt lat="43.05625" lon="0.49705">
        <ele>550.91</ele>
        <time>2019-09-09T06:51:44Z</time>
      </trkpt>
      <trkpt lat="43.05614" lon="0.49673">
        <ele>553.37</ele>
        <time>2019-09-09T06:52:06Z</time>
      </trkpt>
      <trkpt lat="43.05603" lon="0.49647">
        <ele>555.14</ele>
        <time>2019-09-09T06:52:23Z</time>
      </trkpt>
      <trkpt lat="43.05601" lon="0.49641">
        <ele>555.49</ele>
        <time>2019-09-09T06:52:27Z</time>
      </trkpt>
      <trkpt lat="43.05591" lon="0.49622">
        <ele>556.46</ele>
        <time>2019-09-09T06:52:42Z</time>
      </trkpt>
      <trkpt lat="43.05578" lon="0.49601">
        <ele>557.13</ele>
        <time>2019-09-09T06:52:58Z</time>
      </trkpt>
      <trkpt lat="43.05577" lon="0.496">
        <ele>557.17</ele>
        <time>2019-09-09T06:52:59Z</time>
      </trkpt>
      <trkpt lat="43.05576" lon="0.49598">
        <ele>557.2</ele>
        <time>2019-09-09T06:53:00Z</time>
      </trkpt>
      <trkpt lat="43.05575" lon="0.49597">
        <ele>557.23</ele>
        <time>2019-09-09T06:53:01Z</time>
      </trkpt>
      <trkpt lat="43.05573" lon="0.49596">
        <ele>557.27</ele>
        <time>2019-09-09T06:53:02Z</time>
      </trkpt>
      <trkpt lat="43.05572" lon="0.49594">
        <ele>557.31</ele>
        <time>2019-09-09T06:53:03Z</time>
      </trkpt>
      <trkpt lat="43.05545" lon="0.49561">
        <ele>558.4</ele>
        <time>2019-09-09T06:53:29Z</time>
      </trkpt>
      <trkpt lat="43.05517" lon="0.49529">
        <ele>559.25</ele>
        <time>2019-09-09T06:53:58Z</time>
      </trkpt>
      <trkpt lat="43.05516" lon="0.49528">
        <ele>559.59</ele>
        <time>2019-09-09T06:54:14Z</time>
      </trkpt>
      <trkpt lat="43.05501" lon="0.49513">
        <ele>559.46</ele>
        <time>2019-09-09T06:54:28Z</time>
      </trkpt>
      <trkpt lat="43.05497" lon="0.4951">
        <ele>559.65</ele>
        <time>2019-09-09T06:54:32Z</time>
      </trkpt>
      <trkpt lat="43.05484" lon="0.49495">
        <ele>559.87</ele>
        <time>2019-09-09T06:54:46Z</time>
      </trkpt>
      <trkpt lat="43.05467" lon="0.49477">
        <ele>560.14</ele>
        <time>2019-09-09T06:55:00Z</time>
      </trkpt>
      <trkpt lat="43.05447" lon="0.49449">
        <ele>560.21</ele>
        <time>2019-09-09T06:55:19Z</time>
      </trkpt>
      <trkpt lat="43.05434" lon="0.49432">
        <ele>560.26</ele>
        <time>2019-09-09T06:55:34Z</time>
      </trkpt>
      <trkpt lat="43.05422" lon="0.49416">
        <ele>560.56</ele>
        <time>2019-09-09T06:55:49Z</time>
      </trkpt>
      <trkpt lat="43.05401" lon="0.494">
        <ele>560.9</ele>
        <time>2019-09-09T06:56:07Z</time>
      </trkpt>
      <trkpt lat="43.05384" lon="0.49389">
        <ele>561.32</ele>
        <time>2019-09-09T06:56:21Z</time>
      </trkpt>
      <trkpt lat="43.05369" lon="0.49381">
        <ele>561.81</ele>
        <time>2019-09-09T06:56:35Z</time>
      </trkpt>
      <trkpt lat="43.05354" lon="0.49373">
        <ele>563.13</ele>
        <time>2019-09-09T06:56:50Z</time>
      </trkpt>
      <trkpt lat="43.05337" lon="0.49377">
        <ele>565.43</ele>
        <time>2019-09-09T06:57:07Z</time>
      </trkpt>
      <trkpt lat="43.05319" lon="0.49376">
        <ele>568.38</ele>
        <time>2019-09-09T06:57:26Z</time>
      </trkpt>
      <trkpt lat="43.05307" lon="0.49371">
        <ele>571.44</ele>
        <time>2019-09-09T06:57:43Z</time>
      </trkpt>
      <trkpt lat="43.05297" lon="0.49356">
        <ele>573.98</ele>
        <time>2019-09-09T06:58:01Z</time>
      </trkpt>
      <trkpt lat="43.05289" lon="0.49324">
        <ele>576.89</ele>
        <time>2019-09-09T06:58:24Z</time>
      </trkpt>
      <trkpt lat="43.0528" lon="0.49299">
        <ele>578.4</ele>
        <time>2019-09-09T06:58:41Z</time>
      </trkpt>
      <trkpt lat="43.05267" lon="0.49283">
        <ele>579.51</ele>
        <time>2019-09-09T06:58:59Z</time>
      </trkpt>
      <trkpt lat="43.0527" lon="0.4927">
        <ele>580.08</ele>
        <time>2019-09-09T06:59:27Z</time>
      </trkpt>
      <trkpt lat="43.05269" lon="0.49263">
        <ele>580.54</ele>
        <time>2019-09-09T06:59:31Z</time>
      </trkpt>
      <trkpt lat="43.05253" lon="0.49234">
        <ele>580.21</ele>
        <time>2019-09-09T06:59:51Z</time>
      </trkpt>
      <trkpt lat="43.05251" lon="0.49228">
        <ele>579.81</ele>
        <time>2019-09-09T06:59:56Z</time>
      </trkpt>
      <trkpt lat="43.05249" lon="0.49224">
        <ele>579.69</ele>
        <time>2019-09-09T06:59:59Z</time>
      </trkpt>
      <trkpt lat="43.0524" lon="0.49205">
        <ele>578.94</ele>
        <time>2019-09-09T07:00:13Z</time>
      </trkpt>
      <trkpt lat="43.05228" lon="0.49182">
        <ele>577.86</ele>
        <time>2019-09-09T07:00:27Z</time>
      </trkpt>
      <trkpt lat="43.05224" lon="0.49174">
        <ele>577.65</ele>
        <time>2019-09-09T07:00:32Z</time>
      </trkpt>
      <trkpt lat="43.05214" lon="0.49155">
        <ele>577.16</ele>
        <time>2019-09-09T07:00:45Z</time>
      </trkpt>
      <trkpt lat="43.05206" lon="0.49133">
        <ele>576.95</ele>
        <time>2019-09-09T07:01:02Z</time>
      </trkpt>
      <trkpt lat="43.0519" lon="0.49106">
        <ele>576.79</ele>
        <time>2019-09-09T07:01:20Z</time>
      </trkpt>
      <trkpt lat="43.0518" lon="0.49088">
        <ele>576.68</ele>
        <time>2019-09-09T07:01:33Z</time>
      </trkpt>
      <trkpt lat="43.05172" lon="0.49073">
        <ele>576.58</ele>
        <time>2019-09-09T07:01:44Z</time>
      </trkpt>
      <trkpt lat="43.05161" lon="0.49051">
        <ele>576.76</ele>
        <time>2019-09-09T07:01:59Z</time>
      </trkpt>
      <trkpt lat="43.05155" lon="0.49043">
        <ele>576.77</ele>
        <time>2019-09-09T07:02:05Z</time>
      </trkpt>
      <trkpt lat="43.05138" lon="0.49014">
        <ele>576.46</ele>
        <time>2019-09-09T07:02:24Z</time>
      </trkpt>
      <trkpt lat="43.05134" lon="0.49005">
        <ele>576.38</ele>
        <time>2019-09-09T07:02:33Z</time>
      </trkpt>
      <trkpt lat="43.05125" lon="0.48992">
        <ele>576.22</ele>
        <time>2019-09-09T07:02:42Z</time>
      </trkpt>
      <trkpt lat="43.05112" lon="0.48967">
        <ele>576.31</ele>
        <time>2019-09-09T07:02:57Z</time>
      </trkpt>
      <trkpt lat="43.05094" lon="0.48929">
        <ele>576.11</ele>
        <time>2019-09-09T07:03:22Z</time>
      </trkpt>
      <trkpt lat="43.05074" lon="0.48895">
        <ele>575.48</ele>
        <time>2019-09-09T07:03:47Z</time>
      </trkpt>
      <trkpt lat="43.05064" lon="0.48875">
        <ele>575.39</ele>
        <time>2019-09-09T07:04:03Z</time>
      </trkpt>
      <trkpt lat="43.05051" lon="0.48852">
        <ele>575.44</ele>
        <time>2019-09-09T07:04:20Z</time>
      </trkpt>
      <trkpt lat="43.0504" lon="0.4883">
        <ele>575.62</ele>
        <time>2019-09-09T07:04:34Z</time>
      </trkpt>
      <trkpt lat="43.05029" lon="0.4881">
        <ele>576</ele>
        <time>2019-09-09T07:04:49Z</time>
      </trkpt>
      <trkpt lat="43.05028" lon="0.48809">
        <ele>576.03</ele>
        <time>2019-09-09T07:04:50Z</time>
      </trkpt>
      <trkpt lat="43.05027" lon="0.48805">
        <ele>576.05</ele>
        <time>2019-09-09T07:04:52Z</time>
      </trkpt>
      <trkpt lat="43.05026" lon="0.48803">
        <ele>576.05</ele>
        <time>2019-09-09T07:04:53Z</time>
      </trkpt>
      <trkpt lat="43.05013" lon="0.48782">
        <ele>576.61</ele>
        <time>2019-09-09T07:05:11Z</time>
      </trkpt>
      <trkpt lat="43.05014" lon="0.48776">
        <ele>576.83</ele>
        <time>2019-09-09T07:05:16Z</time>
      </trkpt>
      <trkpt lat="43.05036" lon="0.48757">
        <ele>575</ele>
        <time>2019-09-09T07:05:36Z</time>
      </trkpt>
      <trkpt lat="43.05057" lon="0.48745">
        <ele>572.89</ele>
        <time>2019-09-09T07:05:54Z</time>
      </trkpt>
      <trkpt lat="43.05079" lon="0.48738">
        <ele>570.19</ele>
        <time>2019-09-09T07:06:12Z</time>
      </trkpt>
      <trkpt lat="43.05082" lon="0.48738">
        <ele>569.89</ele>
        <time>2019-09-09T07:06:14Z</time>
      </trkpt>
      <trkpt lat="43.05101" lon="0.48738">
        <ele>567.54</ele>
        <time>2019-09-09T07:06:29Z</time>
      </trkpt>
      <trkpt lat="43.05113" lon="0.48742">
        <ele>564.97</ele>
        <time>2019-09-09T07:06:44Z</time>
      </trkpt>
      <trkpt lat="43.05128" lon="0.48744">
        <ele>561.74</ele>
        <time>2019-09-09T07:06:58Z</time>
      </trkpt>
      <trkpt lat="43.05148" lon="0.48751">
        <ele>558.46</ele>
        <time>2019-09-09T07:07:13Z</time>
      </trkpt>
      <trkpt lat="43.05152" lon="0.48753">
        <ele>557.94</ele>
        <time>2019-09-09T07:07:16Z</time>
      </trkpt>
      <trkpt lat="43.0517" lon="0.48766">
        <ele>555.33</ele>
        <time>2019-09-09T07:07:33Z</time>
      </trkpt>
      <trkpt lat="43.05188" lon="0.48779">
        <ele>552.62</ele>
        <time>2019-09-09T07:07:50Z</time>
      </trkpt>
      <trkpt lat="43.05212" lon="0.48791">
        <ele>549.52</ele>
        <time>2019-09-09T07:08:10Z</time>
      </trkpt>
      <trkpt lat="43.05235" lon="0.48801">
        <ele>546.88</ele>
        <time>2019-09-09T07:08:27Z</time>
      </trkpt>
      <trkpt lat="43.05252" lon="0.48813">
        <ele>544.66</ele>
        <time>2019-09-09T07:08:42Z</time>
      </trkpt>
      <trkpt lat="43.0527" lon="0.48825">
        <ele>542.31</ele>
        <time>2019-09-09T07:08:58Z</time>
      </trkpt>
      <trkpt lat="43.05289" lon="0.48845">
        <ele>539.43</ele>
        <time>2019-09-09T07:09:17Z</time>
      </trkpt>
      <trkpt lat="43.05305" lon="0.48865">
        <ele>537.34</ele>
        <time>2019-09-09T07:09:35Z</time>
      </trkpt>
      <trkpt lat="43.05312" lon="0.48868">
        <ele>536.33</ele>
        <time>2019-09-09T07:09:43Z</time>
      </trkpt>
      <trkpt lat="43.05328" lon="0.48849">
        <ele>534.73</ele>
        <time>2019-09-09T07:10:00Z</time>
      </trkpt>
      <trkpt lat="43.05344" lon="0.48823">
        <ele>531.73</ele>
        <time>2019-09-09T07:10:21Z</time>
      </trkpt>
      <trkpt lat="43.0536" lon="0.48799">
        <ele>528.95</ele>
        <time>2019-09-09T07:10:41Z</time>
      </trkpt>
      <trkpt lat="43.05378" lon="0.48785">
        <ele>526.54</ele>
        <time>2019-09-09T07:10:59Z</time>
      </trkpt>
      <trkpt lat="43.05396" lon="0.48773">
        <ele>524.23</ele>
        <time>2019-09-09T07:11:15Z</time>
      </trkpt>
      <trkpt lat="43.05399" lon="0.4877">
        <ele>523.18</ele>
        <time>2019-09-09T07:11:19Z</time>
      </trkpt>
      <trkpt lat="43.05408" lon="0.48757">
        <ele>519.91</ele>
        <time>2019-09-09T07:11:33Z</time>
      </trkpt>
      <trkpt lat="43.05422" lon="0.48744">
        <ele>516.78</ele>
        <time>2019-09-09T07:11:47Z</time>
      </trkpt>
      <trkpt lat="43.05433" lon="0.48737">
        <ele>513.6</ele>
        <time>2019-09-09T07:12:01Z</time>
      </trkpt>
      <trkpt lat="43.05456" lon="0.48722">
        <ele>510.39</ele>
        <time>2019-09-09T07:12:15Z</time>
      </trkpt>
      <trkpt lat="43.05478" lon="0.48709">
        <ele>507.34</ele>
        <time>2019-09-09T07:12:32Z</time>
      </trkpt>
      <trkpt lat="43.05496" lon="0.48693">
        <ele>504.37</ele>
        <time>2019-09-09T07:12:51Z</time>
      </trkpt>
      <trkpt lat="43.05513" lon="0.48682">
        <ele>502.5</ele>
        <time>2019-09-09T07:13:08Z</time>
      </trkpt>
      <trkpt lat="43.05533" lon="0.48661">
        <ele>499.37</ele>
        <time>2019-09-09T07:13:27Z</time>
      </trkpt>
      <trkpt lat="43.05545" lon="0.48645">
        <ele>496.22</ele>
        <time>2019-09-09T07:13:42Z</time>
      </trkpt>
      <trkpt lat="43.05563" lon="0.48621">
        <ele>493.12</ele>
        <time>2019-09-09T07:13:59Z</time>
      </trkpt>
      <trkpt lat="43.05576" lon="0.48596">
        <ele>490.62</ele>
        <time>2019-09-09T07:14:18Z</time>
      </trkpt>
      <trkpt lat="43.05588" lon="0.4857">
        <ele>487.91</ele>
        <time>2019-09-09T07:14:36Z</time>
      </trkpt>
      <trkpt lat="43.05601" lon="0.48542">
        <ele>485.91</ele>
        <time>2019-09-09T07:14:53Z</time>
      </trkpt>
      <trkpt lat="43.0562" lon="0.48533">
        <ele>483.32</ele>
        <time>2019-09-09T07:15:09Z</time>
      </trkpt>
      <trkpt lat="43.05629" lon="0.48528">
        <ele>481.72</ele>
        <time>2019-09-09T07:15:20Z</time>
      </trkpt>
      <trkpt lat="43.05651" lon="0.48521">
        <ele>479.61</ele>
        <time>2019-09-09T07:15:36Z</time>
      </trkpt>
      <trkpt lat="43.05669" lon="0.48505">
        <ele>478.22</ele>
        <time>2019-09-09T07:15:53Z</time>
      </trkpt>
      <trkpt lat="43.05687" lon="0.48486">
        <ele>477.05</ele>
        <time>2019-09-09T07:16:12Z</time>
      </trkpt>
      <trkpt lat="43.05705" lon="0.48472">
        <ele>476.3</ele>
        <time>2019-09-09T07:16:31Z</time>
      </trkpt>
      <trkpt lat="43.05729" lon="0.4846">
        <ele>476.1</ele>
        <time>2019-09-09T07:16:48Z</time>
      </trkpt>
      <trkpt lat="43.05745" lon="0.48456">
        <ele>476.09</ele>
        <time>2019-09-09T07:17:05Z</time>
      </trkpt>
      <trkpt lat="43.05772" lon="0.48451">
        <ele>476.44</ele>
        <time>2019-09-09T07:17:22Z</time>
      </trkpt>
      <trkpt lat="43.05792" lon="0.48453">
        <ele>477.42</ele>
        <time>2019-09-09T07:17:38Z</time>
      </trkpt>
      <trkpt lat="43.05809" lon="0.48451">
        <ele>478.9</ele>
        <time>2019-09-09T07:17:55Z</time>
      </trkpt>
      <trkpt lat="43.05826" lon="0.48453">
        <ele>479.68</ele>
        <time>2019-09-09T07:18:09Z</time>
      </trkpt>
      <trkpt lat="43.05848" lon="0.48455">
        <ele>480.39</ele>
        <time>2019-09-09T07:18:25Z</time>
      </trkpt>
      <trkpt lat="43.05868" lon="0.48457">
        <ele>481.23</ele>
        <time>2019-09-09T07:18:38Z</time>
      </trkpt>
      <trkpt lat="43.05869" lon="0.48458">
        <ele>481.3</ele>
        <time>2019-09-09T07:18:39Z</time>
      </trkpt>
      <trkpt lat="43.05887" lon="0.48474">
        <ele>481.38</ele>
        <time>2019-09-09T07:18:55Z</time>
      </trkpt>
      <trkpt lat="43.05904" lon="0.48478">
        <ele>481.32</ele>
        <time>2019-09-09T07:19:09Z</time>
      </trkpt>
      <trkpt lat="43.05911" lon="0.48468">
        <ele>483.05</ele>
        <time>2019-09-09T07:19:27Z</time>
      </trkpt>
      <trkpt lat="43.05917" lon="0.48457">
        <ele>486.12</ele>
        <time>2019-09-09T07:19:42Z</time>
      </trkpt>
      <trkpt lat="43.05924" lon="0.48448">
        <ele>489.21</ele>
        <time>2019-09-09T07:19:58Z</time>
      </trkpt>
      <trkpt lat="43.05942" lon="0.48447">
        <ele>491.79</ele>
        <time>2019-09-09T07:20:17Z</time>
      </trkpt>
      <trkpt lat="43.05963" lon="0.4845">
        <ele>495.01</ele>
        <time>2019-09-09T07:20:39Z</time>
      </trkpt>
      <trkpt lat="43.05967" lon="0.48449">
        <ele>495.52</ele>
        <time>2019-09-09T07:20:43Z</time>
      </trkpt>
      <trkpt lat="43.05983" lon="0.48438">
        <ele>496.41</ele>
        <time>2019-09-09T07:21:02Z</time>
      </trkpt>
      <trkpt lat="43.06002" lon="0.48415">
        <ele>495.89</ele>
        <time>2019-09-09T07:21:22Z</time>
      </trkpt>
      <trkpt lat="43.06019" lon="0.48392">
        <ele>496.69</ele>
        <time>2019-09-09T07:21:42Z</time>
      </trkpt>
      <trkpt lat="43.06036" lon="0.48372">
        <ele>497.44</ele>
        <time>2019-09-09T07:22:00Z</time>
      </trkpt>
      <trkpt lat="43.06039" lon="0.48369">
        <ele>497.33</ele>
        <time>2019-09-09T07:22:03Z</time>
      </trkpt>
      <trkpt lat="43.06047" lon="0.48348">
        <ele>496.6</ele>
        <time>2019-09-09T07:22:20Z</time>
      </trkpt>
      <trkpt lat="43.06055" lon="0.48326">
        <ele>496.48</ele>
        <time>2019-09-09T07:22:37Z</time>
      </trkpt>
      <trkpt lat="43.06063" lon="0.48296">
        <ele>495.96</ele>
        <time>2019-09-09T07:22:56Z</time>
      </trkpt>
      <trkpt lat="43.06074" lon="0.48264">
        <ele>494.5</ele>
        <time>2019-09-09T07:23:14Z</time>
      </trkpt>
      <trkpt lat="43.06078" lon="0.48245">
        <ele>494.01</ele>
        <time>2019-09-09T07:23:23Z</time>
      </trkpt>
      <trkpt lat="43.06085" lon="0.48214">
        <ele>492.27</ele>
        <time>2019-09-09T07:23:40Z</time>
      </trkpt>
      <trkpt lat="43.06092" lon="0.48188">
        <ele>491.32</ele>
        <time>2019-09-09T07:23:57Z</time>
      </trkpt>
      <trkpt lat="43.06094" lon="0.48164">
        <ele>489.16</ele>
        <time>2019-09-09T07:24:16Z</time>
      </trkpt>
      <trkpt lat="43.06098" lon="0.48142">
        <ele>488.15</ele>
        <time>2019-09-09T07:24:32Z</time>
      </trkpt>
      <trkpt lat="43.061" lon="0.48095">
        <ele>487.33</ele>
        <time>2019-09-09T07:24:52Z</time>
      </trkpt>
      <trkpt lat="43.061" lon="0.48064">
        <ele>486.13</ele>
        <time>2019-09-09T07:25:12Z</time>
      </trkpt>
      <trkpt lat="43.06103" lon="0.48039">
        <ele>485.77</ele>
        <time>2019-09-09T07:25:29Z</time>
      </trkpt>
      <trkpt lat="43.06095" lon="0.48006">
        <ele>484.2</ele>
        <time>2019-09-09T07:25:47Z</time>
      </trkpt>
      <trkpt lat="43.0611" lon="0.47986">
        <ele>483.05</ele>
        <time>2019-09-09T07:26:03Z</time>
      </trkpt>
      <trkpt lat="43.06116" lon="0.47977">
        <ele>484.72</ele>
        <time>2019-09-09T07:26:22Z</time>
      </trkpt>
      <trkpt lat="43.06128" lon="0.47972">
        <ele>487.9</ele>
        <time>2019-09-09T07:26:39Z</time>
      </trkpt>
      <trkpt lat="43.06132" lon="0.47972">
        <ele>488.66</ele>
        <time>2019-09-09T07:26:43Z</time>
      </trkpt>
      <trkpt lat="43.06145" lon="0.4797">
        <ele>491.98</ele>
        <time>2019-09-09T07:27:00Z</time>
      </trkpt>
      <trkpt lat="43.06157" lon="0.47963">
        <ele>495</ele>
        <time>2019-09-09T07:27:15Z</time>
      </trkpt>
      <trkpt lat="43.06164" lon="0.47952">
        <ele>498.05</ele>
        <time>2019-09-09T07:27:32Z</time>
      </trkpt>
      <trkpt lat="43.06177" lon="0.47937">
        <ele>501.1</ele>
        <time>2019-09-09T07:27:51Z</time>
      </trkpt>
      <trkpt lat="43.06172" lon="0.47919">
        <ele>502.5</ele>
        <time>2019-09-09T07:28:06Z</time>
      </trkpt>
      <trkpt lat="43.06172" lon="0.4792">
        <ele>503.12</ele>
        <time>2019-09-09T07:28:24Z</time>
      </trkpt>
      <trkpt lat="43.06182" lon="0.47932">
        <ele>502.3</ele>
        <time>2019-09-09T07:28:49Z</time>
      </trkpt>
      <trkpt lat="43.06198" lon="0.47943">
        <ele>501.53</ele>
        <time>2019-09-09T07:29:07Z</time>
      </trkpt>
      <trkpt lat="43.06199" lon="0.47938">
        <ele>501.45</ele>
        <time>2019-09-09T07:29:22Z</time>
      </trkpt>
      <trkpt lat="43.06197" lon="0.47938">
        <ele>502.9</ele>
        <time>2019-09-09T07:29:29Z</time>
      </trkpt>
      <trkpt lat="43.06199" lon="0.47935">
        <ele>503.12</ele>
        <time>2019-09-09T07:29:37Z</time>
      </trkpt>
      <trkpt lat="43.062" lon="0.47934">
        <ele>503.12</ele>
        <time>2019-09-09T07:29:38Z</time>
      </trkpt>
      <trkpt lat="43.06206" lon="0.47913">
        <ele>503.06</ele>
        <time>2019-09-09T07:29:53Z</time>
      </trkpt>
      <trkpt lat="43.06209" lon="0.47895">
        <ele>503.52</ele>
        <time>2019-09-09T07:30:07Z</time>
      </trkpt>
      <trkpt lat="43.06216" lon="0.47879">
        <ele>504.09</ele>
        <time>2019-09-09T07:30:19Z</time>
      </trkpt>
      <trkpt lat="43.06222" lon="0.47863">
        <ele>504.7</ele>
        <time>2019-09-09T07:30:32Z</time>
      </trkpt>
      <trkpt lat="43.06223" lon="0.47862">
        <ele>504.85</ele>
        <time>2019-09-09T07:30:33Z</time>
      </trkpt>
      <trkpt lat="43.06224" lon="0.4786">
        <ele>505.22</ele>
        <time>2019-09-09T07:30:34Z</time>
      </trkpt>
      <trkpt lat="43.06232" lon="0.47844">
        <ele>506.48</ele>
        <time>2019-09-09T07:30:48Z</time>
      </trkpt>
      <trkpt lat="43.06244" lon="0.47828">
        <ele>507.84</ele>
        <time>2019-09-09T07:31:03Z</time>
      </trkpt>
      <trkpt lat="43.06245" lon="0.47827">
        <ele>507.94</ele>
        <time>2019-09-09T07:31:04Z</time>
      </trkpt>
      <trkpt lat="43.06254" lon="0.47815">
        <ele>509.24</ele>
        <time>2019-09-09T07:31:17Z</time>
      </trkpt>
      <trkpt lat="43.0627" lon="0.47805">
        <ele>510.54</ele>
        <time>2019-09-09T07:31:35Z</time>
      </trkpt>
      <trkpt lat="43.06292" lon="0.47797">
        <ele>510.46</ele>
        <time>2019-09-09T07:31:52Z</time>
      </trkpt>
      <trkpt lat="43.06304" lon="0.47798">
        <ele>510.21</ele>
        <time>2019-09-09T07:32:00Z</time>
      </trkpt>
      <trkpt lat="43.06305" lon="0.47798">
        <ele>510.14</ele>
        <time>2019-09-09T07:32:01Z</time>
      </trkpt>
      <trkpt lat="43.06321" lon="0.47798">
        <ele>509.77</ele>
        <time>2019-09-09T07:32:13Z</time>
      </trkpt>
      <trkpt lat="43.06339" lon="0.47792">
        <ele>509.72</ele>
        <time>2019-09-09T07:32:30Z</time>
      </trkpt>
      <trkpt lat="43.06341" lon="0.47789">
        <ele>509.74</ele>
        <time>2019-09-09T07:32:32Z</time>
      </trkpt>
      <trkpt lat="43.06341" lon="0.47788">
        <ele>509.75</ele>
        <time>2019-09-09T07:32:33Z</time>
      </trkpt>
      <trkpt lat="43.06343" lon="0.47781">
        <ele>509.78</ele>
        <time>2019-09-09T07:32:37Z</time>
      </trkpt>
      <trkpt lat="43.06344" lon="0.47761">
        <ele>510.6</ele>
        <time>2019-09-09T07:32:52Z</time>
      </trkpt>
      <trkpt lat="43.06342" lon="0.47741">
        <ele>511.67</ele>
        <time>2019-09-09T07:33:06Z</time>
      </trkpt>
      <trkpt lat="43.06341" lon="0.47721">
        <ele>512.74</ele>
        <time>2019-09-09T07:33:18Z</time>
      </trkpt>
      <trkpt lat="43.06341" lon="0.47704">
        <ele>513.21</ele>
        <time>2019-09-09T07:33:27Z</time>
      </trkpt>
      <trkpt lat="43.06342" lon="0.47676">
        <ele>513.55</ele>
        <time>2019-09-09T07:33:43Z</time>
      </trkpt>
      <trkpt lat="43.06345" lon="0.47658">
        <ele>513.98</ele>
        <time>2019-09-09T07:33:56Z</time>
      </trkpt>
      <trkpt lat="43.06347" lon="0.47645">
        <ele>514.21</ele>
        <time>2019-09-09T07:34:04Z</time>
      </trkpt>
      <trkpt lat="43.0635" lon="0.47614">
        <ele>514.39</ele>
        <time>2019-09-09T07:34:19Z</time>
      </trkpt>
      <trkpt lat="43.06349" lon="0.4759">
        <ele>514.56</ele>
        <time>2019-09-09T07:34:34Z</time>
      </trkpt>
      <trkpt lat="43.06353" lon="0.47564">
        <ele>514.86</ele>
        <time>2019-09-09T07:34:51Z</time>
      </trkpt>
      <trkpt lat="43.06355" lon="0.47553">
        <ele>515.06</ele>
        <time>2019-09-09T07:34:57Z</time>
      </trkpt>
      <trkpt lat="43.06356" lon="0.47548">
        <ele>515.08</ele>
        <time>2019-09-09T07:35:00Z</time>
      </trkpt>
      <trkpt lat="43.06356" lon="0.47546">
        <ele>515.08</ele>
        <time>2019-09-09T07:35:01Z</time>
      </trkpt>
      <trkpt lat="43.06357" lon="0.47544">
        <ele>515.09</ele>
        <time>2019-09-09T07:35:02Z</time>
      </trkpt>
      <trkpt lat="43.06357" lon="0.47542">
        <ele>515.09</ele>
        <time>2019-09-09T07:35:03Z</time>
      </trkpt>
      <trkpt lat="43.06364" lon="0.47511">
        <ele>515.11</ele>
        <time>2019-09-09T07:35:22Z</time>
      </trkpt>
      <trkpt lat="43.06375" lon="0.47476">
        <ele>515.4</ele>
        <time>2019-09-09T07:35:44Z</time>
      </trkpt>
      <trkpt lat="43.06388" lon="0.4744">
        <ele>515.34</ele>
        <time>2019-09-09T07:36:05Z</time>
      </trkpt>
      <trkpt lat="43.06396" lon="0.4741">
        <ele>515.11</ele>
        <time>2019-09-09T07:36:24Z</time>
      </trkpt>
      <trkpt lat="43.06401" lon="0.47383">
        <ele>514.93</ele>
        <time>2019-09-09T07:36:40Z</time>
      </trkpt>
      <trkpt lat="43.06405" lon="0.47353">
        <ele>514.86</ele>
        <time>2019-09-09T07:36:57Z</time>
      </trkpt>
      <trkpt lat="43.0641" lon="0.47321">
        <ele>514.45</ele>
        <time>2019-09-09T07:37:16Z</time>
      </trkpt>
      <trkpt lat="43.06415" lon="0.4728">
        <ele>514.15</ele>
        <time>2019-09-09T07:37:39Z</time>
      </trkpt>
      <trkpt lat="43.06421" lon="0.47246">
        <ele>513.82</ele>
        <time>2019-09-09T07:37:59Z</time>
      </trkpt>
      <trkpt lat="43.06422" lon="0.47243">
        <ele>513.81</ele>
        <time>2019-09-09T07:38:01Z</time>
      </trkpt>
      <trkpt lat="43.06423" lon="0.47241">
        <ele>513.78</ele>
        <time>2019-09-09T07:38:02Z</time>
      </trkpt>
      <trkpt lat="43.06423" lon="0.47239">
        <ele>513.76</ele>
        <time>2019-09-09T07:38:03Z</time>
      </trkpt>
      <trkpt lat="43.06424" lon="0.47238">
        <ele>513.73</ele>
        <time>2019-09-09T07:38:04Z</time>
      </trkpt>
      <trkpt lat="43.06424" lon="0.47236">
        <ele>513.69</ele>
        <time>2019-09-09T07:38:05Z</time>
      </trkpt>
      <trkpt lat="43.06432" lon="0.47199">
        <ele>512.79</ele>
        <time>2019-09-09T07:38:25Z</time>
      </trkpt>
      <trkpt lat="43.06434" lon="0.4719">
        <ele>512.47</ele>
        <time>2019-09-09T07:38:31Z</time>
      </trkpt>
      <trkpt lat="43.06436" lon="0.47167">
        <ele>511.96</ele>
        <time>2019-09-09T07:38:46Z</time>
      </trkpt>
      <trkpt lat="43.06438" lon="0.4714">
        <ele>510.46</ele>
        <time>2019-09-09T07:39:03Z</time>
      </trkpt>
      <trkpt lat="43.06442" lon="0.4711">
        <ele>509.2</ele>
        <time>2019-09-09T07:39:18Z</time>
      </trkpt>
      <trkpt lat="43.06449" lon="0.47075">
        <ele>507.86</ele>
        <time>2019-09-09T07:39:36Z</time>
      </trkpt>
      <trkpt lat="43.0645" lon="0.47073">
        <ele>507.8</ele>
        <time>2019-09-09T07:39:37Z</time>
      </trkpt>
      <trkpt lat="43.06452" lon="0.47045">
        <ele>506</ele>
        <time>2019-09-09T07:39:54Z</time>
      </trkpt>
      <trkpt lat="43.06451" lon="0.47032">
        <ele>505.33</ele>
        <time>2019-09-09T07:40:01Z</time>
      </trkpt>
      <trkpt lat="43.06446" lon="0.47011">
        <ele>504.12</ele>
        <time>2019-09-09T07:40:14Z</time>
      </trkpt>
      <trkpt lat="43.06445" lon="0.47003">
        <ele>503.89</ele>
        <time>2019-09-09T07:40:18Z</time>
      </trkpt>
      <trkpt lat="43.06445" lon="0.47001">
        <ele>503.82</ele>
        <time>2019-09-09T07:40:19Z</time>
      </trkpt>
      <trkpt lat="43.06442" lon="0.46973">
        <ele>502.44</ele>
        <time>2019-09-09T07:40:35Z</time>
      </trkpt>
      <trkpt lat="43.06444" lon="0.46945">
        <ele>501.43</ele>
        <time>2019-09-09T07:40:51Z</time>
      </trkpt>
      <trkpt lat="43.06444" lon="0.46925">
        <ele>500.46</ele>
        <time>2019-09-09T07:41:02Z</time>
      </trkpt>
      <trkpt lat="43.06443" lon="0.46894">
        <ele>499.93</ele>
        <time>2019-09-09T07:41:18Z</time>
      </trkpt>
      <trkpt lat="43.06439" lon="0.4687">
        <ele>500.18</ele>
        <time>2019-09-09T07:41:36Z</time>
      </trkpt>
      <trkpt lat="43.0644" lon="0.46845">
        <ele>500.5</ele>
        <time>2019-09-09T07:41:50Z</time>
      </trkpt>
      <trkpt lat="43.06437" lon="0.46825">
        <ele>500.65</ele>
        <time>2019-09-09T07:42:02Z</time>
      </trkpt>
      <trkpt lat="43.06437" lon="0.46815">
        <ele>500.71</ele>
        <time>2019-09-09T07:42:06Z</time>
      </trkpt>
      <trkpt lat="43.06437" lon="0.46812">
        <ele>500.72</ele>
        <time>2019-09-09T07:42:07Z</time>
      </trkpt>
      <trkpt lat="43.06433" lon="0.46778">
        <ele>500.35</ele>
        <time>2019-09-09T07:42:25Z</time>
      </trkpt>
      <trkpt lat="43.06432" lon="0.4676">
        <ele>500.14</ele>
        <time>2019-09-09T07:42:34Z</time>
      </trkpt>
      <trkpt lat="43.06427" lon="0.46726">
        <ele>499.56</ele>
        <time>2019-09-09T07:42:52Z</time>
      </trkpt>
      <trkpt lat="43.06425" lon="0.467">
        <ele>499.08</ele>
        <time>2019-09-09T07:43:07Z</time>
      </trkpt>
      <trkpt lat="43.0642" lon="0.46663">
        <ele>498.87</ele>
        <time>2019-09-09T07:43:27Z</time>
      </trkpt>
      <trkpt lat="43.06419" lon="0.4664">
        <ele>499.94</ele>
        <time>2019-09-09T07:43:44Z</time>
      </trkpt>
      <trkpt lat="43.06419" lon="0.46636">
        <ele>499.3</ele>
        <time>2019-09-09T07:43:46Z</time>
      </trkpt>
      <trkpt lat="43.06418" lon="0.46635">
        <ele>499.2</ele>
        <time>2019-09-09T07:43:47Z</time>
      </trkpt>
      <trkpt lat="43.06418" lon="0.46633">
        <ele>499.2</ele>
        <time>2019-09-09T07:43:48Z</time>
      </trkpt>
      <trkpt lat="43.06418" lon="0.46631">
        <ele>499.18</ele>
        <time>2019-09-09T07:43:49Z</time>
      </trkpt>
      <trkpt lat="43.06418" lon="0.46629">
        <ele>499.14</ele>
        <time>2019-09-09T07:43:50Z</time>
      </trkpt>
      <trkpt lat="43.06413" lon="0.46592">
        <ele>499.17</ele>
        <time>2019-09-09T07:44:12Z</time>
      </trkpt>
      <trkpt lat="43.0641" lon="0.46559">
        <ele>499.41</ele>
        <time>2019-09-09T07:44:31Z</time>
      </trkpt>
      <trkpt lat="43.06407" lon="0.46528">
        <ele>499.35</ele>
        <time>2019-09-09T07:44:50Z</time>
      </trkpt>
      <trkpt lat="43.06401" lon="0.46509">
        <ele>498.38</ele>
        <time>2019-09-09T07:45:06Z</time>
      </trkpt>
      <trkpt lat="43.06384" lon="0.46489">
        <ele>497.51</ele>
        <time>2019-09-09T07:45:22Z</time>
      </trkpt>
      <trkpt lat="43.06371" lon="0.46475">
        <ele>496.11</ele>
        <time>2019-09-09T07:45:41Z</time>
      </trkpt>
      <trkpt lat="43.06365" lon="0.46441">
        <ele>495.78</ele>
        <time>2019-09-09T07:45:58Z</time>
      </trkpt>
      <trkpt lat="43.06368" lon="0.4643">
        <ele>496.06</ele>
        <time>2019-09-09T07:46:05Z</time>
      </trkpt>
      <trkpt lat="43.06377" lon="0.46406">
        <ele>497.4</ele>
        <time>2019-09-09T07:46:21Z</time>
      </trkpt>
      <trkpt lat="43.06383" lon="0.46383">
        <ele>498.02</ele>
        <time>2019-09-09T07:46:36Z</time>
      </trkpt>
      <trkpt lat="43.06385" lon="0.46368">
        <ele>498.26</ele>
        <time>2019-09-09T07:46:43Z</time>
      </trkpt>
      <trkpt lat="43.06391" lon="0.46341">
        <ele>498.59</ele>
        <time>2019-09-09T07:46:59Z</time>
      </trkpt>
      <trkpt lat="43.06395" lon="0.46322">
        <ele>499.22</ele>
        <time>2019-09-09T07:47:10Z</time>
      </trkpt>
      <trkpt lat="43.06397" lon="0.46318">
        <ele>499.26</ele>
        <time>2019-09-09T07:47:13Z</time>
      </trkpt>
      <trkpt lat="43.06398" lon="0.46302">
        <ele>499.42</ele>
        <time>2019-09-09T07:47:23Z</time>
      </trkpt>
      <trkpt lat="43.06401" lon="0.46284">
        <ele>499.48</ele>
        <time>2019-09-09T07:47:33Z</time>
      </trkpt>
      <trkpt lat="43.06402" lon="0.46254">
        <ele>499.91</ele>
        <time>2019-09-09T07:47:51Z</time>
      </trkpt>
      <trkpt lat="43.06401" lon="0.46224">
        <ele>500.19</ele>
        <time>2019-09-09T07:48:09Z</time>
      </trkpt>
      <trkpt lat="43.06401" lon="0.4622">
        <ele>500.19</ele>
        <time>2019-09-09T07:48:21Z</time>
      </trkpt>
      <trkpt lat="43.06401" lon="0.46217">
        <ele>500.2</ele>
        <time>2019-09-09T07:48:23Z</time>
      </trkpt>
      <trkpt lat="43.06401" lon="0.46216">
        <ele>500.2</ele>
        <time>2019-09-09T07:48:24Z</time>
      </trkpt>
      <trkpt lat="43.06399" lon="0.46181">
        <ele>500.26</ele>
        <time>2019-09-09T07:48:46Z</time>
      </trkpt>
      <trkpt lat="43.06399" lon="0.46176">
        <ele>500.28</ele>
        <time>2019-09-09T07:48:57Z</time>
      </trkpt>
      <trkpt lat="43.06399" lon="0.46173">
        <ele>500.28</ele>
        <time>2019-09-09T07:48:59Z</time>
      </trkpt>
      <trkpt lat="43.06401" lon="0.46148">
        <ele>500.27</ele>
        <time>2019-09-09T07:49:17Z</time>
      </trkpt>
      <trkpt lat="43.06402" lon="0.46122">
        <ele>500.3</ele>
        <time>2019-09-09T07:49:37Z</time>
      </trkpt>
      <trkpt lat="43.06402" lon="0.46118">
        <ele>500.32</ele>
        <time>2019-09-09T07:49:47Z</time>
      </trkpt>
      <trkpt lat="43.06402" lon="0.46115">
        <ele>500.32</ele>
        <time>2019-09-09T07:49:49Z</time>
      </trkpt>
      <trkpt lat="43.06404" lon="0.46088">
        <ele>500.56</ele>
        <time>2019-09-09T07:50:10Z</time>
      </trkpt>
      <trkpt lat="43.06404" lon="0.46082">
        <ele>500.62</ele>
        <time>2019-09-09T07:50:24Z</time>
      </trkpt>
      <trkpt lat="43.06404" lon="0.46081">
        <ele>500.62</ele>
        <time>2019-09-09T07:50:25Z</time>
      </trkpt>
      <trkpt lat="43.06404" lon="0.46079">
        <ele>500.62</ele>
        <time>2019-09-09T07:50:26Z</time>
      </trkpt>
      <trkpt lat="43.06404" lon="0.46078">
        <ele>500.62</ele>
        <time>2019-09-09T07:50:27Z</time>
      </trkpt>
      <trkpt lat="43.06404" lon="0.46077">
        <ele>500.62</ele>
        <time>2019-09-09T07:50:28Z</time>
      </trkpt>
      <trkpt lat="43.06405" lon="0.46075">
        <ele>500.62</ele>
        <time>2019-09-09T07:50:29Z</time>
      </trkpt>
      <trkpt lat="43.0641" lon="0.46042">
        <ele>500.9</ele>
        <time>2019-09-09T07:50:47Z</time>
      </trkpt>
      <trkpt lat="43.06411" lon="0.46031">
        <ele>501.15</ele>
        <time>2019-09-09T07:50:54Z</time>
      </trkpt>
      <trkpt lat="43.06411" lon="0.4603">
        <ele>501.17</ele>
        <time>2019-09-09T07:50:55Z</time>
      </trkpt>
      <trkpt lat="43.06414" lon="0.46015">
        <ele>501.7</ele>
        <time>2019-09-09T07:51:07Z</time>
      </trkpt>
      <trkpt lat="43.06415" lon="0.46007">
        <ele>501.96</ele>
        <time>2019-09-09T07:51:12Z</time>
      </trkpt>
      <trkpt lat="43.06415" lon="0.46004">
        <ele>502.07</ele>
        <time>2019-09-09T07:51:14Z</time>
      </trkpt>
      <trkpt lat="43.06409" lon="0.45996">
        <ele>503.58</ele>
        <time>2019-09-09T07:51:30Z</time>
      </trkpt>
      <trkpt lat="43.06399" lon="0.45994">
        <ele>506.17</ele>
        <time>2019-09-09T07:51:50Z</time>
      </trkpt>
      <trkpt lat="43.06375" lon="0.45993">
        <ele>508.51</ele>
        <time>2019-09-09T07:52:10Z</time>
      </trkpt>
      <trkpt lat="43.06364" lon="0.45994">
        <ele>509.94</ele>
        <time>2019-09-09T07:52:27Z</time>
      </trkpt>
      <trkpt lat="43.06339" lon="0.45989">
        <ele>511.89</ele>
        <time>2019-09-09T07:52:44Z</time>
      </trkpt>
      <trkpt lat="43.0632" lon="0.45986">
        <ele>514.59</ele>
        <time>2019-09-09T07:53:04Z</time>
      </trkpt>
      <trkpt lat="43.06299" lon="0.45984">
        <ele>517.24</ele>
        <time>2019-09-09T07:53:22Z</time>
      </trkpt>
      <trkpt lat="43.06286" lon="0.45975">
        <ele>519.95</ele>
        <time>2019-09-09T07:53:42Z</time>
      </trkpt>
      <trkpt lat="43.06275" lon="0.4597">
        <ele>521.38</ele>
        <time>2019-09-09T07:53:52Z</time>
      </trkpt>
      <trkpt lat="43.06272" lon="0.45968">
        <ele>521.63</ele>
        <time>2019-09-09T07:53:54Z</time>
      </trkpt>
      <trkpt lat="43.06271" lon="0.45966">
        <ele>521.72</ele>
        <time>2019-09-09T07:53:55Z</time>
      </trkpt>
      <trkpt lat="43.06269" lon="0.4596">
        <ele>521.99</ele>
        <time>2019-09-09T07:54:00Z</time>
      </trkpt>
      <trkpt lat="43.06267" lon="0.45955">
        <ele>522.03</ele>
        <time>2019-09-09T07:54:03Z</time>
      </trkpt>
      <trkpt lat="43.06261" lon="0.45917">
        <ele>521.67</ele>
        <time>2019-09-09T07:54:22Z</time>
      </trkpt>
      <trkpt lat="43.06253" lon="0.45882">
        <ele>520.29</ele>
        <time>2019-09-09T07:54:42Z</time>
      </trkpt>
      <trkpt lat="43.06248" lon="0.45868">
        <ele>519.68</ele>
        <time>2019-09-09T07:55:00Z</time>
      </trkpt>
      <trkpt lat="43.06235" lon="0.45849">
        <ele>519.69</ele>
        <time>2019-09-09T07:55:12Z</time>
      </trkpt>
      <trkpt lat="43.06234" lon="0.45847">
        <ele>519.69</ele>
        <time>2019-09-09T07:55:13Z</time>
      </trkpt>
      <trkpt lat="43.06227" lon="0.45827">
        <ele>521</ele>
        <time>2019-09-09T07:55:28Z</time>
      </trkpt>
      <trkpt lat="43.06225" lon="0.45802">
        <ele>521.89</ele>
        <time>2019-09-09T07:55:42Z</time>
      </trkpt>
      <trkpt lat="43.06233" lon="0.4578">
        <ele>524.45</ele>
        <time>2019-09-09T07:55:57Z</time>
      </trkpt>
      <trkpt lat="43.06245" lon="0.45754">
        <ele>526.07</ele>
        <time>2019-09-09T07:56:16Z</time>
      </trkpt>
      <trkpt lat="43.06257" lon="0.45729">
        <ele>528.25</ele>
        <time>2019-09-09T07:56:34Z</time>
      </trkpt>
      <trkpt lat="43.06269" lon="0.4571">
        <ele>530.06</ele>
        <time>2019-09-09T07:56:50Z</time>
      </trkpt>
      <trkpt lat="43.06273" lon="0.45688">
        <ele>531.74</ele>
        <time>2019-09-09T07:57:06Z</time>
      </trkpt>
      <trkpt lat="43.06268" lon="0.45669">
        <ele>534.94</ele>
        <time>2019-09-09T07:57:24Z</time>
      </trkpt>
      <trkpt lat="43.06263" lon="0.4564">
        <ele>537.04</ele>
        <time>2019-09-09T07:57:42Z</time>
      </trkpt>
      <trkpt lat="43.06264" lon="0.45612">
        <ele>538.99</ele>
        <time>2019-09-09T07:57:59Z</time>
      </trkpt>
      <trkpt lat="43.06262" lon="0.45586">
        <ele>539.84</ele>
        <time>2019-09-09T07:58:17Z</time>
      </trkpt>
      <trkpt lat="43.06259" lon="0.45563">
        <ele>542.3</ele>
        <time>2019-09-09T07:58:33Z</time>
      </trkpt>
      <trkpt lat="43.06252" lon="0.4554">
        <ele>544.48</ele>
        <time>2019-09-09T07:58:52Z</time>
      </trkpt>
      <trkpt lat="43.06244" lon="0.45523">
        <ele>546.06</ele>
        <time>2019-09-09T07:59:07Z</time>
      </trkpt>
      <trkpt lat="43.06229" lon="0.45495">
        <ele>547.99</ele>
        <time>2019-09-09T07:59:25Z</time>
      </trkpt>
      <trkpt lat="43.06211" lon="0.4547">
        <ele>549.57</ele>
        <time>2019-09-09T07:59:44Z</time>
      </trkpt>
      <trkpt lat="43.06208" lon="0.45465">
        <ele>550.09</ele>
        <time>2019-09-09T07:59:48Z</time>
      </trkpt>
      <trkpt lat="43.06203" lon="0.4546">
        <ele>551.95</ele>
        <time>2019-09-09T07:59:55Z</time>
      </trkpt>
      <trkpt lat="43.06189" lon="0.45441">
        <ele>552.95</ele>
        <time>2019-09-09T08:00:13Z</time>
      </trkpt>
      <trkpt lat="43.06176" lon="0.45414">
        <ele>553.46</ele>
        <time>2019-09-09T08:00:32Z</time>
      </trkpt>
      <trkpt lat="43.06167" lon="0.45392">
        <ele>553.72</ele>
        <time>2019-09-09T08:00:50Z</time>
      </trkpt>
      <trkpt lat="43.06157" lon="0.45362">
        <ele>552.58</ele>
        <time>2019-09-09T08:01:10Z</time>
      </trkpt>
      <trkpt lat="43.06149" lon="0.45338">
        <ele>551.1</ele>
        <time>2019-09-09T08:01:27Z</time>
      </trkpt>
      <trkpt lat="43.06141" lon="0.45312">
        <ele>548.57</ele>
        <time>2019-09-09T08:01:45Z</time>
      </trkpt>
      <trkpt lat="43.06127" lon="0.45278">
        <ele>545.77</ele>
        <time>2019-09-09T08:02:01Z</time>
      </trkpt>
      <trkpt lat="43.06117" lon="0.4526">
        <ele>543.78</ele>
        <time>2019-09-09T08:02:13Z</time>
      </trkpt>
      <trkpt lat="43.06102" lon="0.45238">
        <ele>541.74</ele>
        <time>2019-09-09T08:02:30Z</time>
      </trkpt>
      <trkpt lat="43.06085" lon="0.45224">
        <ele>539.87</ele>
        <time>2019-09-09T08:02:46Z</time>
      </trkpt>
      <trkpt lat="43.06069" lon="0.4521">
        <ele>538.45</ele>
        <time>2019-09-09T08:03:02Z</time>
      </trkpt>
      <trkpt lat="43.06057" lon="0.45199">
        <ele>536.66</ele>
        <time>2019-09-09T08:03:19Z</time>
      </trkpt>
      <trkpt lat="43.06034" lon="0.45182">
        <ele>534.75</ele>
        <time>2019-09-09T08:03:36Z</time>
      </trkpt>
      <trkpt lat="43.06012" lon="0.4517">
        <ele>532.25</ele>
        <time>2019-09-09T08:03:54Z</time>
      </trkpt>
      <trkpt lat="43.05988" lon="0.45171">
        <ele>531.99</ele>
        <time>2019-09-09T08:04:12Z</time>
      </trkpt>
      <trkpt lat="43.05967" lon="0.45177">
        <ele>532.48</ele>
        <time>2019-09-09T08:04:29Z</time>
      </trkpt>
      <trkpt lat="43.05953" lon="0.45182">
        <ele>533.1</ele>
        <time>2019-09-09T08:04:44Z</time>
      </trkpt>
      <trkpt lat="43.05936" lon="0.45187">
        <ele>534</ele>
        <time>2019-09-09T08:04:58Z</time>
      </trkpt>
      <trkpt lat="43.05918" lon="0.45203">
        <ele>535.26</ele>
        <time>2019-09-09T08:05:16Z</time>
      </trkpt>
      <trkpt lat="43.05903" lon="0.45215">
        <ele>536.96</ele>
        <time>2019-09-09T08:05:34Z</time>
      </trkpt>
      <trkpt lat="43.05885" lon="0.4523">
        <ele>538.97</ele>
        <time>2019-09-09T08:05:50Z</time>
      </trkpt>
      <trkpt lat="43.05869" lon="0.45243">
        <ele>540.59</ele>
        <time>2019-09-09T08:06:07Z</time>
      </trkpt>
      <trkpt lat="43.0586" lon="0.4525">
        <ele>541.17</ele>
        <time>2019-09-09T08:06:17Z</time>
      </trkpt>
      <trkpt lat="43.05851" lon="0.4526">
        <ele>541.53</ele>
        <time>2019-09-09T08:06:27Z</time>
      </trkpt>
      <trkpt lat="43.05834" lon="0.4528">
        <ele>542.97</ele>
        <time>2019-09-09T08:06:44Z</time>
      </trkpt>
      <trkpt lat="43.05826" lon="0.45293">
        <ele>543.81</ele>
        <time>2019-09-09T08:06:57Z</time>
      </trkpt>
      <trkpt lat="43.05816" lon="0.45304">
        <ele>544.58</ele>
        <time>2019-09-09T08:07:09Z</time>
      </trkpt>
      <trkpt lat="43.05802" lon="0.45321">
        <ele>545.38</ele>
        <time>2019-09-09T08:07:24Z</time>
      </trkpt>
      <trkpt lat="43.058" lon="0.45324">
        <ele>545.5</ele>
        <time>2019-09-09T08:07:26Z</time>
      </trkpt>
      <trkpt lat="43.05788" lon="0.45339">
        <ele>546.72</ele>
        <time>2019-09-09T08:07:40Z</time>
      </trkpt>
      <trkpt lat="43.05776" lon="0.45352">
        <ele>548.57</ele>
        <time>2019-09-09T08:07:58Z</time>
      </trkpt>
      <trkpt lat="43.0576" lon="0.45367">
        <ele>551.51</ele>
        <time>2019-09-09T08:08:18Z</time>
      </trkpt>
      <trkpt lat="43.05751" lon="0.45375">
        <ele>553.68</ele>
        <time>2019-09-09T08:08:35Z</time>
      </trkpt>
      <trkpt lat="43.05743" lon="0.45376">
        <ele>554.1</ele>
        <time>2019-09-09T08:08:59Z</time>
      </trkpt>
      <trkpt lat="43.05727" lon="0.45392">
        <ele>556.31</ele>
        <time>2019-09-09T08:09:17Z</time>
      </trkpt>
      <trkpt lat="43.05712" lon="0.45404">
        <ele>558.95</ele>
        <time>2019-09-09T08:09:36Z</time>
      </trkpt>
      <trkpt lat="43.05698" lon="0.45416">
        <ele>561.47</ele>
        <time>2019-09-09T08:09:55Z</time>
      </trkpt>
      <trkpt lat="43.05685" lon="0.45427">
        <ele>562.85</ele>
        <time>2019-09-09T08:10:09Z</time>
      </trkpt>
      <trkpt lat="43.05668" lon="0.45437">
        <ele>564.8</ele>
        <time>2019-09-09T08:10:27Z</time>
      </trkpt>
      <trkpt lat="43.05652" lon="0.45446">
        <ele>566.76</ele>
        <time>2019-09-09T08:10:42Z</time>
      </trkpt>
      <trkpt lat="43.05638" lon="0.45455">
        <ele>568.92</ele>
        <time>2019-09-09T08:10:59Z</time>
      </trkpt>
      <trkpt lat="43.05623" lon="0.45469">
        <ele>571.26</ele>
        <time>2019-09-09T08:11:16Z</time>
      </trkpt>
      <trkpt lat="43.05608" lon="0.45482">
        <ele>572.39</ele>
        <time>2019-09-09T08:11:33Z</time>
      </trkpt>
      <trkpt lat="43.05596" lon="0.45493">
        <ele>573.09</ele>
        <time>2019-09-09T08:11:44Z</time>
      </trkpt>
      <trkpt lat="43.05583" lon="0.45509">
        <ele>573.02</ele>
        <time>2019-09-09T08:11:59Z</time>
      </trkpt>
      <trkpt lat="43.0557" lon="0.4552">
        <ele>572.3</ele>
        <time>2019-09-09T08:12:14Z</time>
      </trkpt>
      <trkpt lat="43.05556" lon="0.45535">
        <ele>571.61</ele>
        <time>2019-09-09T08:12:28Z</time>
      </trkpt>
      <trkpt lat="43.05539" lon="0.45553">
        <ele>571.45</ele>
        <time>2019-09-09T08:12:43Z</time>
      </trkpt>
      <trkpt lat="43.05538" lon="0.45554">
        <ele>571.45</ele>
        <time>2019-09-09T08:12:44Z</time>
      </trkpt>
      <trkpt lat="43.05522" lon="0.45558">
        <ele>571.86</ele>
        <time>2019-09-09T08:12:58Z</time>
      </trkpt>
      <trkpt lat="43.05503" lon="0.45549">
        <ele>573.44</ele>
        <time>2019-09-09T08:13:16Z</time>
      </trkpt>
      <trkpt lat="43.05486" lon="0.45539">
        <ele>575.7</ele>
        <time>2019-09-09T08:13:36Z</time>
      </trkpt>
      <trkpt lat="43.05463" lon="0.45535">
        <ele>578.58</ele>
        <time>2019-09-09T08:13:55Z</time>
      </trkpt>
      <trkpt lat="43.05444" lon="0.45519">
        <ele>579.79</ele>
        <time>2019-09-09T08:14:12Z</time>
      </trkpt>
      <trkpt lat="43.05428" lon="0.455">
        <ele>580.44</ele>
        <time>2019-09-09T08:14:31Z</time>
      </trkpt>
      <trkpt lat="43.05415" lon="0.45487">
        <ele>580.42</ele>
        <time>2019-09-09T08:14:44Z</time>
      </trkpt>
      <trkpt lat="43.05415" lon="0.45485">
        <ele>580.45</ele>
        <time>2019-09-09T08:14:45Z</time>
      </trkpt>
      <trkpt lat="43.05414" lon="0.45484">
        <ele>580.48</ele>
        <time>2019-09-09T08:14:46Z</time>
      </trkpt>
      <trkpt lat="43.05412" lon="0.4548">
        <ele>580.54</ele>
        <time>2019-09-09T08:14:48Z</time>
      </trkpt>
      <trkpt lat="43.05404" lon="0.45463">
        <ele>581.22</ele>
        <time>2019-09-09T08:15:01Z</time>
      </trkpt>
      <trkpt lat="43.05404" lon="0.45459">
        <ele>581.32</ele>
        <time>2019-09-09T08:15:03Z</time>
      </trkpt>
      <trkpt lat="43.054" lon="0.45426">
        <ele>582.38</ele>
        <time>2019-09-09T08:15:21Z</time>
      </trkpt>
      <trkpt lat="43.05397" lon="0.45413">
        <ele>582.9</ele>
        <time>2019-09-09T08:15:32Z</time>
      </trkpt>
      <trkpt lat="43.05395" lon="0.45395">
        <ele>583.73</ele>
        <time>2019-09-09T08:15:45Z</time>
      </trkpt>
      <trkpt lat="43.05393" lon="0.4538">
        <ele>584.28</ele>
        <time>2019-09-09T08:15:54Z</time>
      </trkpt>
      <trkpt lat="43.05393" lon="0.45375">
        <ele>584.39</ele>
        <time>2019-09-09T08:15:56Z</time>
      </trkpt>
      <trkpt lat="43.0539" lon="0.45348">
        <ele>585.47</ele>
        <time>2019-09-09T08:16:13Z</time>
      </trkpt>
      <trkpt lat="43.05385" lon="0.45324">
        <ele>586.47</ele>
        <time>2019-09-09T08:16:30Z</time>
      </trkpt>
      <trkpt lat="43.05377" lon="0.45293">
        <ele>587.67</ele>
        <time>2019-09-09T08:16:49Z</time>
      </trkpt>
      <trkpt lat="43.05376" lon="0.45289">
        <ele>587.79</ele>
        <time>2019-09-09T08:16:51Z</time>
      </trkpt>
      <trkpt lat="43.05368" lon="0.45272">
        <ele>588.5</ele>
        <time>2019-09-09T08:17:01Z</time>
      </trkpt>
      <trkpt lat="43.05367" lon="0.45271">
        <ele>588.56</ele>
        <time>2019-09-09T08:17:02Z</time>
      </trkpt>
      <trkpt lat="43.05364" lon="0.45264">
        <ele>588.74</ele>
        <time>2019-09-09T08:17:07Z</time>
      </trkpt>
      <trkpt lat="43.05361" lon="0.45259">
        <ele>588.86</ele>
        <time>2019-09-09T08:17:10Z</time>
      </trkpt>
      <trkpt lat="43.05361" lon="0.45258">
        <ele>588.93</ele>
        <time>2019-09-09T08:17:11Z</time>
      </trkpt>
      <trkpt lat="43.0536" lon="0.45256">
        <ele>589</ele>
        <time>2019-09-09T08:17:12Z</time>
      </trkpt>
      <trkpt lat="43.05359" lon="0.45255">
        <ele>589.07</ele>
        <time>2019-09-09T08:17:13Z</time>
      </trkpt>
      <trkpt lat="43.05358" lon="0.45254">
        <ele>589.13</ele>
        <time>2019-09-09T08:17:14Z</time>
      </trkpt>
      <trkpt lat="43.05353" lon="0.45249">
        <ele>589.53</ele>
        <time>2019-09-09T08:17:19Z</time>
      </trkpt>
      <trkpt lat="43.0535" lon="0.45245">
        <ele>589.7</ele>
        <time>2019-09-09T08:17:22Z</time>
      </trkpt>
      <trkpt lat="43.05334" lon="0.4523">
        <ele>590.33</ele>
        <time>2019-09-09T08:17:38Z</time>
      </trkpt>
      <trkpt lat="43.05316" lon="0.45232">
        <ele>590.7</ele>
        <time>2019-09-09T08:17:54Z</time>
      </trkpt>
      <trkpt lat="43.05308" lon="0.45227">
        <ele>591.08</ele>
        <time>2019-09-09T08:18:05Z</time>
      </trkpt>
      <trkpt lat="43.05302" lon="0.45215">
        <ele>591.74</ele>
        <time>2019-09-09T08:18:17Z</time>
      </trkpt>
      <trkpt lat="43.05285" lon="0.45204">
        <ele>593.43</ele>
        <time>2019-09-09T08:18:34Z</time>
      </trkpt>
      <trkpt lat="43.05276" lon="0.45223">
        <ele>595.37</ele>
        <time>2019-09-09T08:18:49Z</time>
      </trkpt>
      <trkpt lat="43.05265" lon="0.4524">
        <ele>596.44</ele>
        <time>2019-09-09T08:19:05Z</time>
      </trkpt>
      <trkpt lat="43.05252" lon="0.45253">
        <ele>598.4</ele>
        <time>2019-09-09T08:19:21Z</time>
      </trkpt>
      <trkpt lat="43.05242" lon="0.45266">
        <ele>599.86</ele>
        <time>2019-09-09T08:19:37Z</time>
      </trkpt>
      <trkpt lat="43.05235" lon="0.45277">
        <ele>600.73</ele>
        <time>2019-09-09T08:19:48Z</time>
      </trkpt>
      <trkpt lat="43.05221" lon="0.45294">
        <ele>602.32</ele>
        <time>2019-09-09T08:20:03Z</time>
      </trkpt>
      <trkpt lat="43.05207" lon="0.45296">
        <ele>604.77</ele>
        <time>2019-09-09T08:20:21Z</time>
      </trkpt>
      <trkpt lat="43.05207" lon="0.45286">
        <ele>606.14</ele>
        <time>2019-09-09T08:20:35Z</time>
      </trkpt>
      <trkpt lat="43.05211" lon="0.45269">
        <ele>608.41</ele>
        <time>2019-09-09T08:20:50Z</time>
      </trkpt>
      <trkpt lat="43.05214" lon="0.45244">
        <ele>611.24</ele>
        <time>2019-09-09T08:21:09Z</time>
      </trkpt>
      <trkpt lat="43.05221" lon="0.45228">
        <ele>613.67</ele>
        <time>2019-09-09T08:21:24Z</time>
      </trkpt>
      <trkpt lat="43.05226" lon="0.45207">
        <ele>615.24</ele>
        <time>2019-09-09T08:21:41Z</time>
      </trkpt>
      <trkpt lat="43.05229" lon="0.45201">
        <ele>615.96</ele>
        <time>2019-09-09T08:21:46Z</time>
      </trkpt>
      <trkpt lat="43.05238" lon="0.45184">
        <ele>617.69</ele>
        <time>2019-09-09T08:22:02Z</time>
      </trkpt>
      <trkpt lat="43.0525" lon="0.45162">
        <ele>619.05</ele>
        <time>2019-09-09T08:22:19Z</time>
      </trkpt>
      <trkpt lat="43.05258" lon="0.45142">
        <ele>620.35</ele>
        <time>2019-09-09T08:22:34Z</time>
      </trkpt>
      <trkpt lat="43.05264" lon="0.45121">
        <ele>621.36</ele>
        <time>2019-09-09T08:22:49Z</time>
      </trkpt>
      <trkpt lat="43.05269" lon="0.45106">
        <ele>622.39</ele>
        <time>2019-09-09T08:22:59Z</time>
      </trkpt>
      <trkpt lat="43.05277" lon="0.45084">
        <ele>622.73</ele>
        <time>2019-09-09T08:23:14Z</time>
      </trkpt>
      <trkpt lat="43.05281" lon="0.45064">
        <ele>623.97</ele>
        <time>2019-09-09T08:23:29Z</time>
      </trkpt>
      <trkpt lat="43.05291" lon="0.45046">
        <ele>624.65</ele>
        <time>2019-09-09T08:23:45Z</time>
      </trkpt>
      <trkpt lat="43.0531" lon="0.45028">
        <ele>622.78</ele>
        <time>2019-09-09T08:24:04Z</time>
      </trkpt>
      <trkpt lat="43.05324" lon="0.45013">
        <ele>622.31</ele>
        <time>2019-09-09T08:24:19Z</time>
      </trkpt>
      <trkpt lat="43.05341" lon="0.44993">
        <ele>620.37</ele>
        <time>2019-09-09T08:24:38Z</time>
      </trkpt>
      <trkpt lat="43.05336" lon="0.44979">
        <ele>620.71</ele>
        <time>2019-09-09T08:24:59Z</time>
      </trkpt>
      <trkpt lat="43.0533" lon="0.44959">
        <ele>623.87</ele>
        <time>2019-09-09T08:25:19Z</time>
      </trkpt>
      <trkpt lat="43.05315" lon="0.44956">
        <ele>626.94</ele>
        <time>2019-09-09T08:25:39Z</time>
      </trkpt>
      <trkpt lat="43.05301" lon="0.44957">
        <ele>628.42</ele>
        <time>2019-09-09T08:26:00Z</time>
      </trkpt>
      <trkpt lat="43.053" lon="0.44958">
        <ele>628.51</ele>
        <time>2019-09-09T08:26:01Z</time>
      </trkpt>
      <trkpt lat="43.05285" lon="0.4497">
        <ele>630</ele>
        <time>2019-09-09T08:26:19Z</time>
      </trkpt>
      <trkpt lat="43.05281" lon="0.44972">
        <ele>629.69</ele>
        <time>2019-09-09T08:26:46Z</time>
      </trkpt>
      <trkpt lat="43.05277" lon="0.44976">
        <ele>629.67</ele>
        <time>2019-09-09T08:26:51Z</time>
      </trkpt>
      <trkpt lat="43.05271" lon="0.44982">
        <ele>629.74</ele>
        <time>2019-09-09T08:26:57Z</time>
      </trkpt>
      <trkpt lat="43.0527" lon="0.44983">
        <ele>629.79</ele>
        <time>2019-09-09T08:26:58Z</time>
      </trkpt>
      <trkpt lat="43.05269" lon="0.44984">
        <ele>629.84</ele>
        <time>2019-09-09T08:26:59Z</time>
      </trkpt>
      <trkpt lat="43.05268" lon="0.44985">
        <ele>629.9</ele>
        <time>2019-09-09T08:27:00Z</time>
      </trkpt>
      <trkpt lat="43.05267" lon="0.44986">
        <ele>629.98</ele>
        <time>2019-09-09T08:27:01Z</time>
      </trkpt>
      <trkpt lat="43.05266" lon="0.44987">
        <ele>630.04</ele>
        <time>2019-09-09T08:27:02Z</time>
      </trkpt>
      <trkpt lat="43.05265" lon="0.44988">
        <ele>630.13</ele>
        <time>2019-09-09T08:27:03Z</time>
      </trkpt>
      <trkpt lat="43.05249" lon="0.45002">
        <ele>631.68</ele>
        <time>2019-09-09T08:27:20Z</time>
      </trkpt>
      <trkpt lat="43.05229" lon="0.45012">
        <ele>633.07</ele>
        <time>2019-09-09T08:27:36Z</time>
      </trkpt>
      <trkpt lat="43.05201" lon="0.45025">
        <ele>634.43</ele>
        <time>2019-09-09T08:28:00Z</time>
      </trkpt>
      <trkpt lat="43.05186" lon="0.45031">
        <ele>635.5</ele>
        <time>2019-09-09T08:28:15Z</time>
      </trkpt>
      <trkpt lat="43.05169" lon="0.45036">
        <ele>636.27</ele>
        <time>2019-09-09T08:28:29Z</time>
      </trkpt>
      <trkpt lat="43.0516" lon="0.45037">
        <ele>636.55</ele>
        <time>2019-09-09T08:28:36Z</time>
      </trkpt>
      <trkpt lat="43.05144" lon="0.45042">
        <ele>637.45</ele>
        <time>2019-09-09T08:28:49Z</time>
      </trkpt>
      <trkpt lat="43.05139" lon="0.45043">
        <ele>637.57</ele>
        <time>2019-09-09T08:28:53Z</time>
      </trkpt>
      <trkpt lat="43.05127" lon="0.45041">
        <ele>639.75</ele>
        <time>2019-09-09T08:29:07Z</time>
      </trkpt>
      <trkpt lat="43.05112" lon="0.45026">
        <ele>641.81</ele>
        <time>2019-09-09T08:29:27Z</time>
      </trkpt>
      <trkpt lat="43.05111" lon="0.44993">
        <ele>644.09</ele>
        <time>2019-09-09T08:29:47Z</time>
      </trkpt>
      <trkpt lat="43.05112" lon="0.44988">
        <ele>644.12</ele>
        <time>2019-09-09T08:29:50Z</time>
      </trkpt>
      <trkpt lat="43.05117" lon="0.44968">
        <ele>643.7</ele>
        <time>2019-09-09T08:30:04Z</time>
      </trkpt>
      <trkpt lat="43.05126" lon="0.44945">
        <ele>641.34</ele>
        <time>2019-09-09T08:30:20Z</time>
      </trkpt>
      <trkpt lat="43.05133" lon="0.44925">
        <ele>638.32</ele>
        <time>2019-09-09T08:30:33Z</time>
      </trkpt>
      <trkpt lat="43.05142" lon="0.44897">
        <ele>635.28</ele>
        <time>2019-09-09T08:30:50Z</time>
      </trkpt>
      <trkpt lat="43.05145" lon="0.44859">
        <ele>632.89</ele>
        <time>2019-09-09T08:31:09Z</time>
      </trkpt>
      <trkpt lat="43.05144" lon="0.44837">
        <ele>632.28</ele>
        <time>2019-09-09T08:31:23Z</time>
      </trkpt>
      <trkpt lat="43.05143" lon="0.44807">
        <ele>630.9</ele>
        <time>2019-09-09T08:31:42Z</time>
      </trkpt>
      <trkpt lat="43.05145" lon="0.44781">
        <ele>628.42</ele>
        <time>2019-09-09T08:32:01Z</time>
      </trkpt>
      <trkpt lat="43.05148" lon="0.44749">
        <ele>626.94</ele>
        <time>2019-09-09T08:32:23Z</time>
      </trkpt>
      <trkpt lat="43.05144" lon="0.44712">
        <ele>625.99</ele>
        <time>2019-09-09T08:32:42Z</time>
      </trkpt>
      <trkpt lat="43.05136" lon="0.4468">
        <ele>625.38</ele>
        <time>2019-09-09T08:33:02Z</time>
      </trkpt>
      <trkpt lat="43.05124" lon="0.44635">
        <ele>623.49</ele>
        <time>2019-09-09T08:33:19Z</time>
      </trkpt>
      <trkpt lat="43.05121" lon="0.44603">
        <ele>621.4</ele>
        <time>2019-09-09T08:33:39Z</time>
      </trkpt>
      <trkpt lat="43.05115" lon="0.44568">
        <ele>619.22</ele>
        <time>2019-09-09T08:33:59Z</time>
      </trkpt>
      <trkpt lat="43.05116" lon="0.44537">
        <ele>616.11</ele>
        <time>2019-09-09T08:34:16Z</time>
      </trkpt>
      <trkpt lat="43.05116" lon="0.44525">
        <ele>613.03</ele>
        <time>2019-09-09T08:34:31Z</time>
      </trkpt>
      <trkpt lat="43.05112" lon="0.44519">
        <ele>612.31</ele>
        <time>2019-09-09T08:34:40Z</time>
      </trkpt>
      <trkpt lat="43.05094" lon="0.44504">
        <ele>612.32</ele>
        <time>2019-09-09T08:35:00Z</time>
      </trkpt>
      <trkpt lat="43.05094" lon="0.44501">
        <ele>612.34</ele>
        <time>2019-09-09T08:35:02Z</time>
      </trkpt>
      <trkpt lat="43.05091" lon="0.44489">
        <ele>613.11</ele>
        <time>2019-09-09T08:35:12Z</time>
      </trkpt>
      <trkpt lat="43.05082" lon="0.44446">
        <ele>615.33</ele>
        <time>2019-09-09T08:35:33Z</time>
      </trkpt>
      <trkpt lat="43.05077" lon="0.44421">
        <ele>615.87</ele>
        <time>2019-09-09T08:35:52Z</time>
      </trkpt>
      <trkpt lat="43.05075" lon="0.44417">
        <ele>616.1</ele>
        <time>2019-09-09T08:35:56Z</time>
      </trkpt>
      <trkpt lat="43.05071" lon="0.44403">
        <ele>616.51</ele>
        <time>2019-09-09T08:36:05Z</time>
      </trkpt>
      <trkpt lat="43.05067" lon="0.44375">
        <ele>616.75</ele>
        <time>2019-09-09T08:36:23Z</time>
      </trkpt>
      <trkpt lat="43.05062" lon="0.44347">
        <ele>617.34</ele>
        <time>2019-09-09T08:36:40Z</time>
      </trkpt>
      <trkpt lat="43.05055" lon="0.44306">
        <ele>617.35</ele>
        <time>2019-09-09T08:36:57Z</time>
      </trkpt>
      <trkpt lat="43.05042" lon="0.44273">
        <ele>617.13</ele>
        <time>2019-09-09T08:37:19Z</time>
      </trkpt>
      <trkpt lat="43.05032" lon="0.44252">
        <ele>617.3</ele>
        <time>2019-09-09T08:37:35Z</time>
      </trkpt>
      <trkpt lat="43.05022" lon="0.44233">
        <ele>614.41</ele>
        <time>2019-09-09T08:37:55Z</time>
      </trkpt>
      <trkpt lat="43.0501" lon="0.44202">
        <ele>613.91</ele>
        <time>2019-09-09T08:38:10Z</time>
      </trkpt>
      <trkpt lat="43.0499" lon="0.44161">
        <ele>611.58</ele>
        <time>2019-09-09T08:38:30Z</time>
      </trkpt>
      <trkpt lat="43.04974" lon="0.44136">
        <ele>609.76</ele>
        <time>2019-09-09T08:38:52Z</time>
      </trkpt>
      <trkpt lat="43.04968" lon="0.44114">
        <ele>609.74</ele>
        <time>2019-09-09T08:39:09Z</time>
      </trkpt>
      <trkpt lat="43.04961" lon="0.44072">
        <ele>609.75</ele>
        <time>2019-09-09T08:39:27Z</time>
      </trkpt>
      <trkpt lat="43.04951" lon="0.44034">
        <ele>611.2</ele>
        <time>2019-09-09T08:39:47Z</time>
      </trkpt>
      <trkpt lat="43.04935" lon="0.44006">
        <ele>612.43</ele>
        <time>2019-09-09T08:40:05Z</time>
      </trkpt>
      <trkpt lat="43.04918" lon="0.43988">
        <ele>614.07</ele>
        <time>2019-09-09T08:40:26Z</time>
      </trkpt>
      <trkpt lat="43.04903" lon="0.43973">
        <ele>613.62</ele>
        <time>2019-09-09T08:40:40Z</time>
      </trkpt>
      <trkpt lat="43.04887" lon="0.43951">
        <ele>612.99</ele>
        <time>2019-09-09T08:40:58Z</time>
      </trkpt>
      <trkpt lat="43.04872" lon="0.43924">
        <ele>612.98</ele>
        <time>2019-09-09T08:41:16Z</time>
      </trkpt>
      <trkpt lat="43.0486" lon="0.43905">
        <ele>613.4</ele>
        <time>2019-09-09T08:41:32Z</time>
      </trkpt>
      <trkpt lat="43.04844" lon="0.43887">
        <ele>614.15</ele>
        <time>2019-09-09T08:41:49Z</time>
      </trkpt>
      <trkpt lat="43.04826" lon="0.43869">
        <ele>614.77</ele>
        <time>2019-09-09T08:42:07Z</time>
      </trkpt>
      <trkpt lat="43.04809" lon="0.43843">
        <ele>614.27</ele>
        <time>2019-09-09T08:42:28Z</time>
      </trkpt>
      <trkpt lat="43.04797" lon="0.43814">
        <ele>614.5</ele>
        <time>2019-09-09T08:42:47Z</time>
      </trkpt>
      <trkpt lat="43.04785" lon="0.43793">
        <ele>613.91</ele>
        <time>2019-09-09T08:43:04Z</time>
      </trkpt>
      <trkpt lat="43.04779" lon="0.43787">
        <ele>606.56</ele>
        <time>2019-09-09T08:43:13Z</time>
      </trkpt>
      <trkpt lat="43.04778" lon="0.43785">
        <ele>610.18</ele>
        <time>2019-09-09T08:43:14Z</time>
      </trkpt>
      <trkpt lat="43.04774" lon="0.4378">
        <ele>613.43</ele>
        <time>2019-09-09T08:43:17Z</time>
      </trkpt>
      <trkpt lat="43.04773" lon="0.4378">
        <ele>613.67</ele>
        <time>2019-09-09T08:43:18Z</time>
      </trkpt>
      <trkpt lat="43.04755" lon="0.43763">
        <ele>613.91</ele>
        <time>2019-09-09T08:43:35Z</time>
      </trkpt>
      <trkpt lat="43.04737" lon="0.43749">
        <ele>613.91</ele>
        <time>2019-09-09T08:43:52Z</time>
      </trkpt>
      <trkpt lat="43.04721" lon="0.43732">
        <ele>613.91</ele>
        <time>2019-09-09T08:44:08Z</time>
      </trkpt>
      <trkpt lat="43.04703" lon="0.43715">
        <ele>613.91</ele>
        <time>2019-09-09T08:44:25Z</time>
      </trkpt>
      <trkpt lat="43.04688" lon="0.43698">
        <ele>613.91</ele>
        <time>2019-09-09T08:44:40Z</time>
      </trkpt>
      <trkpt lat="43.04671" lon="0.43688">
        <ele>613.91</ele>
        <time>2019-09-09T08:44:54Z</time>
      </trkpt>
      <trkpt lat="43.04652" lon="0.43675">
        <ele>613.91</ele>
        <time>2019-09-09T08:45:10Z</time>
      </trkpt>
      <trkpt lat="43.04645" lon="0.4367">
        <ele>602.92</ele>
        <time>2019-09-09T08:45:16Z</time>
      </trkpt>
      <trkpt lat="43.04645" lon="0.43669">
        <ele>603.23</ele>
        <time>2019-09-09T08:45:17Z</time>
      </trkpt>
      <trkpt lat="43.04647" lon="0.43649">
        <ele>600.05</ele>
        <time>2019-09-09T08:45:33Z</time>
      </trkpt>
      <trkpt lat="43.0466" lon="0.43644">
        <ele>597.3</ele>
        <time>2019-09-09T08:45:50Z</time>
      </trkpt>
      <trkpt lat="43.04679" lon="0.43645">
        <ele>593.97</ele>
        <time>2019-09-09T08:46:03Z</time>
      </trkpt>
      <trkpt lat="43.04681" lon="0.43647">
        <ele>593.37</ele>
        <time>2019-09-09T08:46:37Z</time>
      </trkpt>
      <trkpt lat="43.04683" lon="0.43637">
        <ele>593.14</ele>
        <time>2019-09-09T08:46:53Z</time>
      </trkpt>
      <trkpt lat="43.04691" lon="0.43637">
        <ele>591.94</ele>
        <time>2019-09-09T08:47:00Z</time>
      </trkpt>
      <trkpt lat="43.04692" lon="0.43637">
        <ele>591.64</ele>
        <time>2019-09-09T08:47:01Z</time>
      </trkpt>
      <trkpt lat="43.04693" lon="0.43638">
        <ele>591.44</ele>
        <time>2019-09-09T08:47:02Z</time>
      </trkpt>
      <trkpt lat="43.04695" lon="0.43638">
        <ele>591.28</ele>
        <time>2019-09-09T08:47:03Z</time>
      </trkpt>
      <trkpt lat="43.04696" lon="0.43638">
        <ele>591.1</ele>
        <time>2019-09-09T08:47:04Z</time>
      </trkpt>
      <trkpt lat="43.04701" lon="0.43634">
        <ele>589.67</ele>
        <time>2019-09-09T08:47:17Z</time>
      </trkpt>
      <trkpt lat="43.04707" lon="0.43633">
        <ele>588.86</ele>
        <time>2019-09-09T08:47:36Z</time>
      </trkpt>
      <trkpt lat="43.04708" lon="0.43634">
        <ele>588.82</ele>
        <time>2019-09-09T08:47:37Z</time>
      </trkpt>
      <trkpt lat="43.04722" lon="0.43632">
        <ele>586.76</ele>
        <time>2019-09-09T08:47:52Z</time>
      </trkpt>
      <trkpt lat="43.0474" lon="0.4363">
        <ele>585.07</ele>
        <time>2019-09-09T08:48:07Z</time>
      </trkpt>
      <trkpt lat="43.04742" lon="0.43628">
        <ele>584.32</ele>
        <time>2019-09-09T08:48:31Z</time>
      </trkpt>
      <trkpt lat="43.04754" lon="0.43629">
        <ele>583.58</ele>
        <time>2019-09-09T08:48:48Z</time>
      </trkpt>
      <trkpt lat="43.04764" lon="0.43621">
        <ele>581.73</ele>
        <time>2019-09-09T08:49:06Z</time>
      </trkpt>
      <trkpt lat="43.04768" lon="0.43614">
        <ele>580.33</ele>
        <time>2019-09-09T08:49:22Z</time>
      </trkpt>
      <trkpt lat="43.04768" lon="0.43609">
        <ele>579.58</ele>
        <time>2019-09-09T08:49:39Z</time>
      </trkpt>
      <trkpt lat="43.04769" lon="0.43608">
        <ele>579.16</ele>
        <time>2019-09-09T08:50:01Z</time>
      </trkpt>
      <trkpt lat="43.04769" lon="0.43613">
        <ele>575.47</ele>
        <time>2019-09-09T08:50:12Z</time>
      </trkpt>
      <trkpt lat="43.0477" lon="0.43615">
        <ele>578.65</ele>
        <time>2019-09-09T08:50:18Z</time>
      </trkpt>
      <trkpt lat="43.0477" lon="0.43615">
        <ele>579.38</ele>
        <time>2019-09-09T08:50:20Z</time>
      </trkpt>
      <trkpt lat="43.0477" lon="0.43615">
        <ele>582.02</ele>
        <time>2019-09-09T08:50:33Z</time>
      </trkpt>
      <trkpt lat="43.0477" lon="0.43613">
        <ele>578.82</ele>
        <time>2019-09-09T08:50:39Z</time>
      </trkpt>
      <trkpt lat="43.04772" lon="0.43616">
        <ele>578.4</ele>
        <time>2019-09-09T08:51:05Z</time>
      </trkpt>
      <trkpt lat="43.04773" lon="0.43618">
        <ele>578.22</ele>
        <time>2019-09-09T08:51:30Z</time>
      </trkpt>
      <trkpt lat="43.04773" lon="0.43616">
        <ele>577.7</ele>
        <time>2019-09-09T08:51:58Z</time>
      </trkpt>
      <trkpt lat="43.04771" lon="0.43615">
        <ele>577.86</ele>
        <time>2019-09-09T08:52:26Z</time>
      </trkpt>
      <trkpt lat="43.04763" lon="0.43615">
        <ele>578.12</ele>
        <time>2019-09-09T08:52:57Z</time>
      </trkpt>
      <trkpt lat="43.04768" lon="0.43618">
        <ele>578.12</ele>
        <time>2019-09-09T08:53:26Z</time>
      </trkpt>
      <trkpt lat="43.04767" lon="0.43617">
        <ele>578.12</ele>
        <time>2019-09-09T08:53:52Z</time>
      </trkpt>
      <trkpt lat="43.04766" lon="0.43615">
        <ele>578.12</ele>
        <time>2019-09-09T08:54:18Z</time>
      </trkpt>
      <trkpt lat="43.04763" lon="0.43619">
        <ele>578.12</ele>
        <time>2019-09-09T08:54:46Z</time>
      </trkpt>
      <trkpt lat="43.04763" lon="0.43618">
        <ele>578.12</ele>
        <time>2019-09-09T08:55:21Z</time>
      </trkpt>
      <trkpt lat="43.04766" lon="0.43618">
        <ele>578.12</ele>
        <time>2019-09-09T08:55:50Z</time>
      </trkpt>
      <trkpt lat="43.04762" lon="0.43617">
        <ele>578.12</ele>
        <time>2019-09-09T08:56:22Z</time>
      </trkpt>
      <trkpt lat="43.04763" lon="0.43616">
        <ele>578.12</ele>
        <time>2019-09-09T08:56:48Z</time>
      </trkpt>
      <trkpt lat="43.04764" lon="0.43617">
        <ele>578.12</ele>
        <time>2019-09-09T08:57:18Z</time>
      </trkpt>
      <trkpt lat="43.04766" lon="0.4362">
        <ele>578.12</ele>
        <time>2019-09-09T08:57:47Z</time>
      </trkpt>
      <trkpt lat="43.04765" lon="0.43618">
        <ele>578.12</ele>
        <time>2019-09-09T08:58:34Z</time>
      </trkpt>
      <trkpt lat="43.04758" lon="0.43619">
        <ele>578.12</ele>
        <time>2019-09-09T08:59:04Z</time>
      </trkpt>
      <trkpt lat="43.04756" lon="0.4362">
        <ele>578.12</ele>
        <time>2019-09-09T08:59:06Z</time>
      </trkpt>
      <trkpt lat="43.04754" lon="0.43621">
        <ele>577.49</ele>
        <time>2019-09-09T08:59:09Z</time>
      </trkpt>
      <trkpt lat="43.04759" lon="0.4362">
        <ele>577.21</ele>
        <time>2019-09-09T08:59:34Z</time>
      </trkpt>
      <trkpt lat="43.04769" lon="0.43609">
        <ele>576.88</ele>
        <time>2019-09-09T09:00:17Z</time>
      </trkpt>
      <trkpt lat="43.04766" lon="0.43622">
        <ele>576.75</ele>
        <time>2019-09-09T09:02:33Z</time>
      </trkpt>
      <trkpt lat="43.04767" lon="0.43623">
        <ele>576.76</ele>
        <time>2019-09-09T09:02:58Z</time>
      </trkpt>
      <trkpt lat="43.04774" lon="0.43618">
        <ele>576.76</ele>
        <time>2019-09-09T09:03:26Z</time>
      </trkpt>
      <trkpt lat="43.04768" lon="0.43617">
        <ele>576.76</ele>
        <time>2019-09-09T09:03:53Z</time>
      </trkpt>
      <trkpt lat="43.04765" lon="0.43618">
        <ele>576.76</ele>
        <time>2019-09-09T09:04:18Z</time>
      </trkpt>
      <trkpt lat="43.04768" lon="0.43617">
        <ele>576.76</ele>
        <time>2019-09-09T09:04:45Z</time>
      </trkpt>
      <trkpt lat="43.04773" lon="0.43618">
        <ele>576.76</ele>
        <time>2019-09-09T09:05:11Z</time>
      </trkpt>
      <trkpt lat="43.04769" lon="0.43618">
        <ele>576.76</ele>
        <time>2019-09-09T09:05:39Z</time>
      </trkpt>
      <trkpt lat="43.04771" lon="0.43617">
        <ele>576.76</ele>
        <time>2019-09-09T09:05:57Z</time>
      </trkpt>
      <trkpt lat="43.04762" lon="0.43619">
        <ele>576.76</ele>
        <time>2019-09-09T09:06:29Z</time>
      </trkpt>
      <trkpt lat="43.04767" lon="0.43621">
        <ele>576.76</ele>
        <time>2019-09-09T09:06:59Z</time>
      </trkpt>
      <trkpt lat="43.0477" lon="0.43618">
        <ele>576.76</ele>
        <time>2019-09-09T09:07:32Z</time>
      </trkpt>
      <trkpt lat="43.04775" lon="0.43615">
        <ele>576.76</ele>
        <time>2019-09-09T09:07:53Z</time>
      </trkpt>
      <trkpt lat="43.04782" lon="0.43612">
        <ele>577</ele>
        <time>2019-09-09T09:08:15Z</time>
      </trkpt>
      <trkpt lat="43.04778" lon="0.43615">
        <ele>576.86</ele>
        <time>2019-09-09T09:08:42Z</time>
      </trkpt>
      <trkpt lat="43.04779" lon="0.43616">
        <ele>576.45</ele>
        <time>2019-09-09T09:09:10Z</time>
      </trkpt>
      <trkpt lat="43.04776" lon="0.43616">
        <ele>577.18</ele>
        <time>2019-09-09T09:09:35Z</time>
      </trkpt>
      <trkpt lat="43.04771" lon="0.43617">
        <ele>577.18</ele>
        <time>2019-09-09T09:09:59Z</time>
      </trkpt>
      <trkpt lat="43.04771" lon="0.43619">
        <ele>577.18</ele>
        <time>2019-09-09T09:10:28Z</time>
      </trkpt>
      <trkpt lat="43.04772" lon="0.43616">
        <ele>577.18</ele>
        <time>2019-09-09T09:10:59Z</time>
      </trkpt>
      <trkpt lat="43.04771" lon="0.43615">
        <ele>577.18</ele>
        <time>2019-09-09T09:11:23Z</time>
      </trkpt>
      <trkpt lat="43.04774" lon="0.43617">
        <ele>577.18</ele>
        <time>2019-09-09T09:11:50Z</time>
      </trkpt>
      <trkpt lat="43.04771" lon="0.43618">
        <ele>577.18</ele>
        <time>2019-09-09T09:12:12Z</time>
      </trkpt>
      <trkpt lat="43.0477" lon="0.43618">
        <ele>577.18</ele>
        <time>2019-09-09T09:12:43Z</time>
      </trkpt>
      <trkpt lat="43.04771" lon="0.43621">
        <ele>577.18</ele>
        <time>2019-09-09T09:13:09Z</time>
      </trkpt>
      <trkpt lat="43.04772" lon="0.43618">
        <ele>577.18</ele>
        <time>2019-09-09T09:13:35Z</time>
      </trkpt>
      <trkpt lat="43.04779" lon="0.43617">
        <ele>577.18</ele>
        <time>2019-09-09T09:14:06Z</time>
      </trkpt>
      <trkpt lat="43.04772" lon="0.43618">
        <ele>577.18</ele>
        <time>2019-09-09T09:14:32Z</time>
      </trkpt>
      <trkpt lat="43.04772" lon="0.43617">
        <ele>577.18</ele>
        <time>2019-09-09T09:14:52Z</time>
      </trkpt>
      <trkpt lat="43.04771" lon="0.43618">
        <ele>577.18</ele>
        <time>2019-09-09T09:15:09Z</time>
      </trkpt>
      <trkpt lat="43.0477" lon="0.43617">
        <ele>577.18</ele>
        <time>2019-09-09T09:15:36Z</time>
      </trkpt>
      <trkpt lat="43.04771" lon="0.43616">
        <ele>577.18</ele>
        <time>2019-09-09T09:16:02Z</time>
      </trkpt>
      <trkpt lat="43.04771" lon="0.43618">
        <ele>577.18</ele>
        <time>2019-09-09T09:16:37Z</time>
      </trkpt>
      <trkpt lat="43.0476" lon="0.43621">
        <ele>577.18</ele>
        <time>2019-09-09T09:17:06Z</time>
      </trkpt>
      <trkpt lat="43.04763" lon="0.43621">
        <ele>577.18</ele>
        <time>2019-09-09T09:17:34Z</time>
      </trkpt>
      <trkpt lat="43.04766" lon="0.43619">
        <ele>577.18</ele>
        <time>2019-09-09T09:18:02Z</time>
      </trkpt>
      <trkpt lat="43.04765" lon="0.43618">
        <ele>577.18</ele>
        <time>2019-09-09T09:18:26Z</time>
      </trkpt>
      <trkpt lat="43.04767" lon="0.43616">
        <ele>577.18</ele>
        <time>2019-09-09T09:18:50Z</time>
      </trkpt>
      <trkpt lat="43.04767" lon="0.43615">
        <ele>577.18</ele>
        <time>2019-09-09T09:19:16Z</time>
      </trkpt>
      <trkpt lat="43.04767" lon="0.43615">
        <ele>577.18</ele>
        <time>2019-09-09T09:19:42Z</time>
      </trkpt>
      <trkpt lat="43.04767" lon="0.4361">
        <ele>577.18</ele>
        <time>2019-09-09T09:20:14Z</time>
      </trkpt>
      <trkpt lat="43.04766" lon="0.43615">
        <ele>577.18</ele>
        <time>2019-09-09T09:20:36Z</time>
      </trkpt>
      <trkpt lat="43.04768" lon="0.43631">
        <ele>577.18</ele>
        <time>2019-09-09T09:20:54Z</time>
      </trkpt>
      <trkpt lat="43.04782" lon="0.43636">
        <ele>577.18</ele>
        <time>2019-09-09T09:21:07Z</time>
      </trkpt>
      <trkpt lat="43.04791" lon="0.4364">
        <ele>574.05</ele>
        <time>2019-09-09T09:21:15Z</time>
      </trkpt>
      <trkpt lat="43.04798" lon="0.4364">
        <ele>573.1</ele>
        <time>2019-09-09T09:21:20Z</time>
      </trkpt>
      <trkpt lat="43.04799" lon="0.4364">
        <ele>573.05</ele>
        <time>2019-09-09T09:21:21Z</time>
      </trkpt>
      <trkpt lat="43.04824" lon="0.4363">
        <ele>572.02</ele>
        <time>2019-09-09T09:21:40Z</time>
      </trkpt>
      <trkpt lat="43.04847" lon="0.43616">
        <ele>570.22</ele>
        <time>2019-09-09T09:22:00Z</time>
      </trkpt>
      <trkpt lat="43.04865" lon="0.43608">
        <ele>567.43</ele>
        <time>2019-09-09T09:22:17Z</time>
      </trkpt>
      <trkpt lat="43.04868" lon="0.43607">
        <ele>567.04</ele>
        <time>2019-09-09T09:22:19Z</time>
      </trkpt>
      <trkpt lat="43.04887" lon="0.43602">
        <ele>564.15</ele>
        <time>2019-09-09T09:22:33Z</time>
      </trkpt>
      <trkpt lat="43.04907" lon="0.436">
        <ele>561.93</ele>
        <time>2019-09-09T09:22:48Z</time>
      </trkpt>
      <trkpt lat="43.04932" lon="0.43612">
        <ele>559.76</ele>
        <time>2019-09-09T09:23:06Z</time>
      </trkpt>
      <trkpt lat="43.04943" lon="0.43617">
        <ele>558.32</ele>
        <time>2019-09-09T09:23:16Z</time>
      </trkpt>
      <trkpt lat="43.04948" lon="0.43618">
        <ele>558.03</ele>
        <time>2019-09-09T09:23:19Z</time>
      </trkpt>
      <trkpt lat="43.0495" lon="0.43618">
        <ele>557.94</ele>
        <time>2019-09-09T09:23:20Z</time>
      </trkpt>
      <trkpt lat="43.04951" lon="0.43618">
        <ele>557.86</ele>
        <time>2019-09-09T09:23:21Z</time>
      </trkpt>
      <trkpt lat="43.04971" lon="0.43613">
        <ele>556.75</ele>
        <time>2019-09-09T09:23:37Z</time>
      </trkpt>
      <trkpt lat="43.04976" lon="0.43609">
        <ele>556.13</ele>
        <time>2019-09-09T09:23:47Z</time>
      </trkpt>
      <trkpt lat="43.04995" lon="0.43607">
        <ele>556.41</ele>
        <time>2019-09-09T09:24:04Z</time>
      </trkpt>
      <trkpt lat="43.05008" lon="0.43611">
        <ele>557.13</ele>
        <time>2019-09-09T09:24:20Z</time>
      </trkpt>
      <trkpt lat="43.05033" lon="0.43613">
        <ele>557.92</ele>
        <time>2019-09-09T09:24:39Z</time>
      </trkpt>
      <trkpt lat="43.05029" lon="0.43613">
        <ele>557.96</ele>
        <time>2019-09-09T09:25:00Z</time>
      </trkpt>
      <trkpt lat="43.05008" lon="0.43612">
        <ele>557.63</ele>
        <time>2019-09-09T09:25:17Z</time>
      </trkpt>
      <trkpt lat="43.05002" lon="0.43609">
        <ele>557.15</ele>
        <time>2019-09-09T09:25:22Z</time>
      </trkpt>
      <trkpt lat="43.05001" lon="0.43609">
        <ele>557.02</ele>
        <time>2019-09-09T09:25:23Z</time>
      </trkpt>
      <trkpt lat="43.04986" lon="0.43592">
        <ele>553.93</ele>
        <time>2019-09-09T09:25:38Z</time>
      </trkpt>
      <trkpt lat="43.04974" lon="0.43573">
        <ele>550.86</ele>
        <time>2019-09-09T09:25:52Z</time>
      </trkpt>
      <trkpt lat="43.04958" lon="0.43551">
        <ele>547.74</ele>
        <time>2019-09-09T09:26:09Z</time>
      </trkpt>
      <trkpt lat="43.04943" lon="0.43526">
        <ele>544.97</ele>
        <time>2019-09-09T09:26:27Z</time>
      </trkpt>
      <trkpt lat="43.04929" lon="0.43503">
        <ele>542.43</ele>
        <time>2019-09-09T09:26:46Z</time>
      </trkpt>
      <trkpt lat="43.04915" lon="0.43477">
        <ele>540.21</ele>
        <time>2019-09-09T09:27:04Z</time>
      </trkpt>
      <trkpt lat="43.04905" lon="0.43454">
        <ele>537.09</ele>
        <time>2019-09-09T09:27:22Z</time>
      </trkpt>
      <trkpt lat="43.04893" lon="0.4343">
        <ele>534.04</ele>
        <time>2019-09-09T09:27:38Z</time>
      </trkpt>
      <trkpt lat="43.04887" lon="0.43415">
        <ele>530.92</ele>
        <time>2019-09-09T09:27:54Z</time>
      </trkpt>
      <trkpt lat="43.04872" lon="0.43387">
        <ele>527.83</ele>
        <time>2019-09-09T09:28:09Z</time>
      </trkpt>
      <trkpt lat="43.04864" lon="0.43364">
        <ele>524.68</ele>
        <time>2019-09-09T09:28:22Z</time>
      </trkpt>
      <trkpt lat="43.04854" lon="0.43338">
        <ele>521.66</ele>
        <time>2019-09-09T09:28:38Z</time>
      </trkpt>
      <trkpt lat="43.04852" lon="0.43332">
        <ele>521.04</ele>
        <time>2019-09-09T09:28:42Z</time>
      </trkpt>
      <trkpt lat="43.04839" lon="0.43304">
        <ele>518</ele>
        <time>2019-09-09T09:29:01Z</time>
      </trkpt>
      <trkpt lat="43.04824" lon="0.43276">
        <ele>515.53</ele>
        <time>2019-09-09T09:29:19Z</time>
      </trkpt>
      <trkpt lat="43.04823" lon="0.43275">
        <ele>515.27</ele>
        <time>2019-09-09T09:29:20Z</time>
      </trkpt>
      <trkpt lat="43.04821" lon="0.43273">
        <ele>515.01</ele>
        <time>2019-09-09T09:29:21Z</time>
      </trkpt>
      <trkpt lat="43.0482" lon="0.43271">
        <ele>514.82</ele>
        <time>2019-09-09T09:29:22Z</time>
      </trkpt>
      <trkpt lat="43.04819" lon="0.43269">
        <ele>514.68</ele>
        <time>2019-09-09T09:29:23Z</time>
      </trkpt>
      <trkpt lat="43.04802" lon="0.4325">
        <ele>513.06</ele>
        <time>2019-09-09T09:29:39Z</time>
      </trkpt>
      <trkpt lat="43.04785" lon="0.4323">
        <ele>511.9</ele>
        <time>2019-09-09T09:29:56Z</time>
      </trkpt>
      <trkpt lat="43.04766" lon="0.43209">
        <ele>510.58</ele>
        <time>2019-09-09T09:30:17Z</time>
      </trkpt>
      <trkpt lat="43.04753" lon="0.43193">
        <ele>509.91</ele>
        <time>2019-09-09T09:30:27Z</time>
      </trkpt>
      <trkpt lat="43.04738" lon="0.43163">
        <ele>509.74</ele>
        <time>2019-09-09T09:30:45Z</time>
      </trkpt>
      <trkpt lat="43.0472" lon="0.4314">
        <ele>510.58</ele>
        <time>2019-09-09T09:31:04Z</time>
      </trkpt>
      <trkpt lat="43.04705" lon="0.43118">
        <ele>512.67</ele>
        <time>2019-09-09T09:31:26Z</time>
      </trkpt>
      <trkpt lat="43.04691" lon="0.43089">
        <ele>515.26</ele>
        <time>2019-09-09T09:31:50Z</time>
      </trkpt>
      <trkpt lat="43.04689" lon="0.43086">
        <ele>516.82</ele>
        <time>2019-09-09T09:31:53Z</time>
      </trkpt>
      <trkpt lat="43.0468" lon="0.43063">
        <ele>518.73</ele>
        <time>2019-09-09T09:32:12Z</time>
      </trkpt>
      <trkpt lat="43.04681" lon="0.43031">
        <ele>520.41</ele>
        <time>2019-09-09T09:32:30Z</time>
      </trkpt>
      <trkpt lat="43.04683" lon="0.43004">
        <ele>521.56</ele>
        <time>2019-09-09T09:32:47Z</time>
      </trkpt>
      <trkpt lat="43.04685" lon="0.42972">
        <ele>522.64</ele>
        <time>2019-09-09T09:33:06Z</time>
      </trkpt>
      <trkpt lat="43.04683" lon="0.42949">
        <ele>523.62</ele>
        <time>2019-09-09T09:33:22Z</time>
      </trkpt>
      <trkpt lat="43.04682" lon="0.42938">
        <ele>523.92</ele>
        <time>2019-09-09T09:33:28Z</time>
      </trkpt>
      <trkpt lat="43.04667" lon="0.4291">
        <ele>525.13</ele>
        <time>2019-09-09T09:33:47Z</time>
      </trkpt>
      <trkpt lat="43.04652" lon="0.42878">
        <ele>526.6</ele>
        <time>2019-09-09T09:34:08Z</time>
      </trkpt>
      <trkpt lat="43.04636" lon="0.4285">
        <ele>527.52</ele>
        <time>2019-09-09T09:34:28Z</time>
      </trkpt>
      <trkpt lat="43.04617" lon="0.42825">
        <ele>528.52</ele>
        <time>2019-09-09T09:34:49Z</time>
      </trkpt>
      <trkpt lat="43.04614" lon="0.4282">
        <ele>528.43</ele>
        <time>2019-09-09T09:34:53Z</time>
      </trkpt>
      <trkpt lat="43.04614" lon="0.42819">
        <ele>528.48</ele>
        <time>2019-09-09T09:34:54Z</time>
      </trkpt>
      <trkpt lat="43.04615" lon="0.42817">
        <ele>528.56</ele>
        <time>2019-09-09T09:34:55Z</time>
      </trkpt>
      <trkpt lat="43.04616" lon="0.42816">
        <ele>528.72</ele>
        <time>2019-09-09T09:34:56Z</time>
      </trkpt>
      <trkpt lat="43.04616" lon="0.42814">
        <ele>528.85</ele>
        <time>2019-09-09T09:34:57Z</time>
      </trkpt>
      <trkpt lat="43.04617" lon="0.42813">
        <ele>528.92</ele>
        <time>2019-09-09T09:34:58Z</time>
      </trkpt>
      <trkpt lat="43.04618" lon="0.42813">
        <ele>528.96</ele>
        <time>2019-09-09T09:34:59Z</time>
      </trkpt>
      <trkpt lat="43.04619" lon="0.42812">
        <ele>528.98</ele>
        <time>2019-09-09T09:35:00Z</time>
      </trkpt>
      <trkpt lat="43.04621" lon="0.42812">
        <ele>528.83</ele>
        <time>2019-09-09T09:35:01Z</time>
      </trkpt>
      <trkpt lat="43.04622" lon="0.42811">
        <ele>528.61</ele>
        <time>2019-09-09T09:35:02Z</time>
      </trkpt>
      <trkpt lat="43.04623" lon="0.42811">
        <ele>528.35</ele>
        <time>2019-09-09T09:35:03Z</time>
      </trkpt>
      <trkpt lat="43.04643" lon="0.42805">
        <ele>525.33</ele>
        <time>2019-09-09T09:35:19Z</time>
      </trkpt>
      <trkpt lat="43.04675" lon="0.42801">
        <ele>522.38</ele>
        <time>2019-09-09T09:35:44Z</time>
      </trkpt>
      <trkpt lat="43.0469" lon="0.42785">
        <ele>520.37</ele>
        <time>2019-09-09T09:36:01Z</time>
      </trkpt>
      <trkpt lat="43.0469" lon="0.42765">
        <ele>518.86</ele>
        <time>2019-09-09T09:36:14Z</time>
      </trkpt>
      <trkpt lat="43.04695" lon="0.42733">
        <ele>515.7</ele>
        <time>2019-09-09T09:36:32Z</time>
      </trkpt>
      <trkpt lat="43.04715" lon="0.42703">
        <ele>513.17</ele>
        <time>2019-09-09T09:36:52Z</time>
      </trkpt>
      <trkpt lat="43.04731" lon="0.42684">
        <ele>511.41</ele>
        <time>2019-09-09T09:37:10Z</time>
      </trkpt>
      <trkpt lat="43.04732" lon="0.42661">
        <ele>511.03</ele>
        <time>2019-09-09T09:37:27Z</time>
      </trkpt>
      <trkpt lat="43.04729" lon="0.42639">
        <ele>511.22</ele>
        <time>2019-09-09T09:37:43Z</time>
      </trkpt>
      <trkpt lat="43.0473" lon="0.42623">
        <ele>511.62</ele>
        <time>2019-09-09T09:37:51Z</time>
      </trkpt>
      <trkpt lat="43.0473" lon="0.4262">
        <ele>511.66</ele>
        <time>2019-09-09T09:37:52Z</time>
      </trkpt>
      <trkpt lat="43.04731" lon="0.42618">
        <ele>511.72</ele>
        <time>2019-09-09T09:37:53Z</time>
      </trkpt>
      <trkpt lat="43.04731" lon="0.42616">
        <ele>511.8</ele>
        <time>2019-09-09T09:37:54Z</time>
      </trkpt>
      <trkpt lat="43.04731" lon="0.42613">
        <ele>511.9</ele>
        <time>2019-09-09T09:37:55Z</time>
      </trkpt>
      <trkpt lat="43.04729" lon="0.42571">
        <ele>513.18</ele>
        <time>2019-09-09T09:38:18Z</time>
      </trkpt>
      <trkpt lat="43.04731" lon="0.42552">
        <ele>514.08</ele>
        <time>2019-09-09T09:38:32Z</time>
      </trkpt>
      <trkpt lat="43.04732" lon="0.42551">
        <ele>514.16</ele>
        <time>2019-09-09T09:38:33Z</time>
      </trkpt>
      <trkpt lat="43.04732" lon="0.42549">
        <ele>514.26</ele>
        <time>2019-09-09T09:38:34Z</time>
      </trkpt>
      <trkpt lat="43.04733" lon="0.42547">
        <ele>514.33</ele>
        <time>2019-09-09T09:38:35Z</time>
      </trkpt>
      <trkpt lat="43.04747" lon="0.42518">
        <ele>515.63</ele>
        <time>2019-09-09T09:38:54Z</time>
      </trkpt>
      <trkpt lat="43.04764" lon="0.42499">
        <ele>516.96</ele>
        <time>2019-09-09T09:39:11Z</time>
      </trkpt>
      <trkpt lat="43.04779" lon="0.4248">
        <ele>518.31</ele>
        <time>2019-09-09T09:39:30Z</time>
      </trkpt>
      <trkpt lat="43.04794" lon="0.42462">
        <ele>520.11</ele>
        <time>2019-09-09T09:39:47Z</time>
      </trkpt>
      <trkpt lat="43.0481" lon="0.42444">
        <ele>520.8</ele>
        <time>2019-09-09T09:40:03Z</time>
      </trkpt>
      <trkpt lat="43.04826" lon="0.42425">
        <ele>522.09</ele>
        <time>2019-09-09T09:40:22Z</time>
      </trkpt>
      <trkpt lat="43.04842" lon="0.42407">
        <ele>523.34</ele>
        <time>2019-09-09T09:40:40Z</time>
      </trkpt>
      <trkpt lat="43.04857" lon="0.42389">
        <ele>524.49</ele>
        <time>2019-09-09T09:40:57Z</time>
      </trkpt>
      <trkpt lat="43.04874" lon="0.4237">
        <ele>525.35</ele>
        <time>2019-09-09T09:41:15Z</time>
      </trkpt>
      <trkpt lat="43.04888" lon="0.42353">
        <ele>526.66</ele>
        <time>2019-09-09T09:41:32Z</time>
      </trkpt>
      <trkpt lat="43.04907" lon="0.42332">
        <ele>528.18</ele>
        <time>2019-09-09T09:41:52Z</time>
      </trkpt>
      <trkpt lat="43.04923" lon="0.42315">
        <ele>529.36</ele>
        <time>2019-09-09T09:42:10Z</time>
      </trkpt>
      <trkpt lat="43.04936" lon="0.42303">
        <ele>530.39</ele>
        <time>2019-09-09T09:42:26Z</time>
      </trkpt>
      <trkpt lat="43.04937" lon="0.42302">
        <ele>530.43</ele>
        <time>2019-09-09T09:42:27Z</time>
      </trkpt>
      <trkpt lat="43.04938" lon="0.42301">
        <ele>530.44</ele>
        <time>2019-09-09T09:42:28Z</time>
      </trkpt>
      <trkpt lat="43.04943" lon="0.42295">
        <ele>530.78</ele>
        <time>2019-09-09T09:42:43Z</time>
      </trkpt>
      <trkpt lat="43.04946" lon="0.42293">
        <ele>530.79</ele>
        <time>2019-09-09T09:42:46Z</time>
      </trkpt>
      <trkpt lat="43.04966" lon="0.42274">
        <ele>531.1</ele>
        <time>2019-09-09T09:43:05Z</time>
      </trkpt>
      <trkpt lat="43.0499" lon="0.4225">
        <ele>530.41</ele>
        <time>2019-09-09T09:43:27Z</time>
      </trkpt>
      <trkpt lat="43.05013" lon="0.42228">
        <ele>529.45</ele>
        <time>2019-09-09T09:43:48Z</time>
      </trkpt>
      <trkpt lat="43.05035" lon="0.42207">
        <ele>529.28</ele>
        <time>2019-09-09T09:44:09Z</time>
      </trkpt>
      <trkpt lat="43.05053" lon="0.42191">
        <ele>529.21</ele>
        <time>2019-09-09T09:44:27Z</time>
      </trkpt>
      <trkpt lat="43.05054" lon="0.4219">
        <ele>529.23</ele>
        <time>2019-09-09T09:44:28Z</time>
      </trkpt>
      <trkpt lat="43.05071" lon="0.42162">
        <ele>530.48</ele>
        <time>2019-09-09T09:44:48Z</time>
      </trkpt>
      <trkpt lat="43.05085" lon="0.42133">
        <ele>530.8</ele>
        <time>2019-09-09T09:45:09Z</time>
      </trkpt>
      <trkpt lat="43.05102" lon="0.42097">
        <ele>530.49</ele>
        <time>2019-09-09T09:45:32Z</time>
      </trkpt>
      <trkpt lat="43.05112" lon="0.42073">
        <ele>530.55</ele>
        <time>2019-09-09T09:45:48Z</time>
      </trkpt>
      <trkpt lat="43.05127" lon="0.42044">
        <ele>531.86</ele>
        <time>2019-09-09T09:46:10Z</time>
      </trkpt>
      <trkpt lat="43.0514" lon="0.42013">
        <ele>533.01</ele>
        <time>2019-09-09T09:46:31Z</time>
      </trkpt>
      <trkpt lat="43.05155" lon="0.41986">
        <ele>534.6</ele>
        <time>2019-09-09T09:46:52Z</time>
      </trkpt>
      <trkpt lat="43.05162" lon="0.41962">
        <ele>535.77</ele>
        <time>2019-09-09T09:47:09Z</time>
      </trkpt>
      <trkpt lat="43.05166" lon="0.41932">
        <ele>536.95</ele>
        <time>2019-09-09T09:47:28Z</time>
      </trkpt>
      <trkpt lat="43.05171" lon="0.41897">
        <ele>538.45</ele>
        <time>2019-09-09T09:47:50Z</time>
      </trkpt>
      <trkpt lat="43.05175" lon="0.4186">
        <ele>540.1</ele>
        <time>2019-09-09T09:48:11Z</time>
      </trkpt>
      <trkpt lat="43.0518" lon="0.4183">
        <ele>542.22</ele>
        <time>2019-09-09T09:48:30Z</time>
      </trkpt>
      <trkpt lat="43.05182" lon="0.41801">
        <ele>544.3</ele>
        <time>2019-09-09T09:48:48Z</time>
      </trkpt>
      <trkpt lat="43.05185" lon="0.4178">
        <ele>545.46</ele>
        <time>2019-09-09T09:49:01Z</time>
      </trkpt>
      <trkpt lat="43.05185" lon="0.41779">
        <ele>545.53</ele>
        <time>2019-09-09T09:49:02Z</time>
      </trkpt>
      <trkpt lat="43.05185" lon="0.41777">
        <ele>545.59</ele>
        <time>2019-09-09T09:49:03Z</time>
      </trkpt>
      <trkpt lat="43.05185" lon="0.41775">
        <ele>545.64</ele>
        <time>2019-09-09T09:49:04Z</time>
      </trkpt>
      <trkpt lat="43.05186" lon="0.41767">
        <ele>546.1</ele>
        <time>2019-09-09T09:49:10Z</time>
      </trkpt>
      <trkpt lat="43.05187" lon="0.41765">
        <ele>546.17</ele>
        <time>2019-09-09T09:49:11Z</time>
      </trkpt>
      <trkpt lat="43.05188" lon="0.41743">
        <ele>547.17</ele>
        <time>2019-09-09T09:49:27Z</time>
      </trkpt>
      <trkpt lat="43.05187" lon="0.41734">
        <ele>547.76</ele>
        <time>2019-09-09T09:49:43Z</time>
      </trkpt>
      <trkpt lat="43.05186" lon="0.41734">
        <ele>547.68</ele>
        <time>2019-09-09T09:50:25Z</time>
      </trkpt>
      <trkpt lat="43.05186" lon="0.41733">
        <ele>541.48</ele>
        <time>2019-09-09T09:50:37Z</time>
      </trkpt>
      <trkpt lat="43.05186" lon="0.41733">
        <ele>544.57</ele>
        <time>2019-09-09T09:50:38Z</time>
      </trkpt>
      <trkpt lat="43.05186" lon="0.41733">
        <ele>547.64</ele>
        <time>2019-09-09T09:50:43Z</time>
      </trkpt>
      <trkpt lat="43.05189" lon="0.41736">
        <ele>547.74</ele>
        <time>2019-09-09T09:51:15Z</time>
      </trkpt>
      <trkpt lat="43.05192" lon="0.4173">
        <ele>547.74</ele>
        <time>2019-09-09T09:51:30Z</time>
      </trkpt>
      <trkpt lat="43.05197" lon="0.41713">
        <ele>548.58</ele>
        <time>2019-09-09T09:51:45Z</time>
      </trkpt>
      <trkpt lat="43.05203" lon="0.41687">
        <ele>549.13</ele>
        <time>2019-09-09T09:52:01Z</time>
      </trkpt>
      <trkpt lat="43.0521" lon="0.41667">
        <ele>549.42</ele>
        <time>2019-09-09T09:52:14Z</time>
      </trkpt>
      <trkpt lat="43.0521" lon="0.41665">
        <ele>549.47</ele>
        <time>2019-09-09T09:52:15Z</time>
      </trkpt>
      <trkpt lat="43.05215" lon="0.41645">
        <ele>549.96</ele>
        <time>2019-09-09T09:52:28Z</time>
      </trkpt>
      <trkpt lat="43.05221" lon="0.41624">
        <ele>550.52</ele>
        <time>2019-09-09T09:52:42Z</time>
      </trkpt>
      <trkpt lat="43.05226" lon="0.41604">
        <ele>550.94</ele>
        <time>2019-09-09T09:52:56Z</time>
      </trkpt>
      <trkpt lat="43.05229" lon="0.41583">
        <ele>551.3</ele>
        <time>2019-09-09T09:53:08Z</time>
      </trkpt>
      <trkpt lat="43.05232" lon="0.41562">
        <ele>551.62</ele>
        <time>2019-09-09T09:53:21Z</time>
      </trkpt>
      <trkpt lat="43.05235" lon="0.41552">
        <ele>551.74</ele>
        <time>2019-09-09T09:53:27Z</time>
      </trkpt>
      <trkpt lat="43.05241" lon="0.4153">
        <ele>551.72</ele>
        <time>2019-09-09T09:53:40Z</time>
      </trkpt>
      <trkpt lat="43.05245" lon="0.41507">
        <ele>551.89</ele>
        <time>2019-09-09T09:53:56Z</time>
      </trkpt>
      <trkpt lat="43.05246" lon="0.41498">
        <ele>552.07</ele>
        <time>2019-09-09T09:54:01Z</time>
      </trkpt>
      <trkpt lat="43.0525" lon="0.4148">
        <ele>552.81</ele>
        <time>2019-09-09T09:54:14Z</time>
      </trkpt>
      <trkpt lat="43.05253" lon="0.41457">
        <ele>553.03</ele>
        <time>2019-09-09T09:54:27Z</time>
      </trkpt>
      <trkpt lat="43.05254" lon="0.41453">
        <ele>553.12</ele>
        <time>2019-09-09T09:54:30Z</time>
      </trkpt>
      <trkpt lat="43.05254" lon="0.41451">
        <ele>553.17</ele>
        <time>2019-09-09T09:54:31Z</time>
      </trkpt>
      <trkpt lat="43.05256" lon="0.41433">
        <ele>553.58</ele>
        <time>2019-09-09T09:54:43Z</time>
      </trkpt>
      <trkpt lat="43.05259" lon="0.41416">
        <ele>553.93</ele>
        <time>2019-09-09T09:54:55Z</time>
      </trkpt>
      <trkpt lat="43.05263" lon="0.4139">
        <ele>554.27</ele>
        <time>2019-09-09T09:55:13Z</time>
      </trkpt>
      <trkpt lat="43.05271" lon="0.41364">
        <ele>554.82</ele>
        <time>2019-09-09T09:55:29Z</time>
      </trkpt>
      <trkpt lat="43.05278" lon="0.41347">
        <ele>555.6</ele>
        <time>2019-09-09T09:55:41Z</time>
      </trkpt>
      <trkpt lat="43.05284" lon="0.41335">
        <ele>556.23</ele>
        <time>2019-09-09T09:55:50Z</time>
      </trkpt>
      <trkpt lat="43.05285" lon="0.41333">
        <ele>556.32</ele>
        <time>2019-09-09T09:55:51Z</time>
      </trkpt>
      <trkpt lat="43.05297" lon="0.41313">
        <ele>556.88</ele>
        <time>2019-09-09T09:56:05Z</time>
      </trkpt>
      <trkpt lat="43.05301" lon="0.41288">
        <ele>556.68</ele>
        <time>2019-09-09T09:56:22Z</time>
      </trkpt>
      <trkpt lat="43.05303" lon="0.41261">
        <ele>556.96</ele>
        <time>2019-09-09T09:56:39Z</time>
      </trkpt>
      <trkpt lat="43.05306" lon="0.41244">
        <ele>556.5</ele>
        <time>2019-09-09T09:56:52Z</time>
      </trkpt>
      <trkpt lat="43.05307" lon="0.41222">
        <ele>556</ele>
        <time>2019-09-09T09:57:06Z</time>
      </trkpt>
      <trkpt lat="43.05308" lon="0.41216">
        <ele>556</ele>
        <time>2019-09-09T09:57:10Z</time>
      </trkpt>
      <trkpt lat="43.05308" lon="0.41197">
        <ele>556.29</ele>
        <time>2019-09-09T09:57:21Z</time>
      </trkpt>
      <trkpt lat="43.0531" lon="0.41182">
        <ele>556.88</ele>
        <time>2019-09-09T09:57:33Z</time>
      </trkpt>
      <trkpt lat="43.05315" lon="0.41161">
        <ele>557.41</ele>
        <time>2019-09-09T09:57:48Z</time>
      </trkpt>
      <trkpt lat="43.05318" lon="0.41138">
        <ele>557.87</ele>
        <time>2019-09-09T09:58:00Z</time>
      </trkpt>
      <trkpt lat="43.05321" lon="0.41112">
        <ele>558.32</ele>
        <time>2019-09-09T09:58:16Z</time>
      </trkpt>
      <trkpt lat="43.05322" lon="0.41094">
        <ele>559.38</ele>
        <time>2019-09-09T09:58:33Z</time>
      </trkpt>
      <trkpt lat="43.05316" lon="0.41078">
        <ele>561.05</ele>
        <time>2019-09-09T09:58:50Z</time>
      </trkpt>
      <trkpt lat="43.05312" lon="0.41076">
        <ele>560.71</ele>
        <time>2019-09-09T09:59:12Z</time>
      </trkpt>
      <trkpt lat="43.0531" lon="0.41076">
        <ele>558.85</ele>
        <time>2019-09-09T09:59:29Z</time>
      </trkpt>
      <trkpt lat="43.0531" lon="0.41074">
        <ele>558.85</ele>
        <time>2019-09-09T09:59:56Z</time>
      </trkpt>
      <trkpt lat="43.05309" lon="0.41069">
        <ele>558.85</ele>
        <time>2019-09-09T10:00:33Z</time>
      </trkpt>
      <trkpt lat="43.05309" lon="0.41066">
        <ele>558.85</ele>
        <time>2019-09-09T10:01:02Z</time>
      </trkpt>
      <trkpt lat="43.05309" lon="0.41062">
        <ele>558.85</ele>
        <time>2019-09-09T10:01:32Z</time>
      </trkpt>
      <trkpt lat="43.0532" lon="0.4105">
        <ele>558.85</ele>
        <time>2019-09-09T10:01:51Z</time>
      </trkpt>
      <trkpt lat="43.05322" lon="0.41043">
        <ele>558.85</ele>
        <time>2019-09-09T10:02:11Z</time>
      </trkpt>
      <trkpt lat="43.05324" lon="0.41044">
        <ele>562.65</ele>
        <time>2019-09-09T10:02:31Z</time>
      </trkpt>
      <trkpt lat="43.05324" lon="0.41044">
        <ele>562.56</ele>
        <time>2019-09-09T10:02:32Z</time>
      </trkpt>
      <trkpt lat="43.05321" lon="0.41058">
        <ele>562.29</ele>
        <time>2019-09-09T10:02:41Z</time>
      </trkpt>
      <trkpt lat="43.05321" lon="0.4106">
        <ele>562.23</ele>
        <time>2019-09-09T10:02:42Z</time>
      </trkpt>
      <trkpt lat="43.05306" lon="0.41076">
        <ele>560.53</ele>
        <time>2019-09-09T10:02:57Z</time>
      </trkpt>
      <trkpt lat="43.05294" lon="0.41051">
        <ele>559.5</ele>
        <time>2019-09-09T10:03:16Z</time>
      </trkpt>
      <trkpt lat="43.05285" lon="0.41023">
        <ele>559.12</ele>
        <time>2019-09-09T10:03:34Z</time>
      </trkpt>
      <trkpt lat="43.05276" lon="0.40993">
        <ele>558.7</ele>
        <time>2019-09-09T10:03:55Z</time>
      </trkpt>
      <trkpt lat="43.05255" lon="0.40955">
        <ele>558.32</ele>
        <time>2019-09-09T10:04:21Z</time>
      </trkpt>
      <trkpt lat="43.05229" lon="0.40931">
        <ele>557.27</ele>
        <time>2019-09-09T10:04:45Z</time>
      </trkpt>
      <trkpt lat="43.05202" lon="0.40925">
        <ele>555.9</ele>
        <time>2019-09-09T10:05:06Z</time>
      </trkpt>
      <trkpt lat="43.05174" lon="0.40922">
        <ele>554.92</ele>
        <time>2019-09-09T10:05:29Z</time>
      </trkpt>
      <trkpt lat="43.05146" lon="0.40909">
        <ele>554.16</ele>
        <time>2019-09-09T10:05:53Z</time>
      </trkpt>
      <trkpt lat="43.05124" lon="0.40886">
        <ele>553.14</ele>
        <time>2019-09-09T10:06:16Z</time>
      </trkpt>
      <trkpt lat="43.05107" lon="0.40861">
        <ele>551.24</ele>
        <time>2019-09-09T10:06:36Z</time>
      </trkpt>
      <trkpt lat="43.05095" lon="0.40839">
        <ele>549.68</ele>
        <time>2019-09-09T10:06:54Z</time>
      </trkpt>
      <trkpt lat="43.05083" lon="0.40817">
        <ele>547.88</ele>
        <time>2019-09-09T10:07:11Z</time>
      </trkpt>
      <trkpt lat="43.05067" lon="0.40795">
        <ele>545.79</ele>
        <time>2019-09-09T10:07:27Z</time>
      </trkpt>
      <trkpt lat="43.05051" lon="0.40773">
        <ele>542.63</ele>
        <time>2019-09-09T10:07:46Z</time>
      </trkpt>
      <trkpt lat="43.05044" lon="0.40762">
        <ele>540.9</ele>
        <time>2019-09-09T10:07:56Z</time>
      </trkpt>
      <trkpt lat="43.05035" lon="0.40748">
        <ele>539.34</ele>
        <time>2019-09-09T10:08:06Z</time>
      </trkpt>
      <trkpt lat="43.05034" lon="0.40746">
        <ele>539.2</ele>
        <time>2019-09-09T10:08:07Z</time>
      </trkpt>
      <trkpt lat="43.05033" lon="0.40745">
        <ele>539.06</ele>
        <time>2019-09-09T10:08:08Z</time>
      </trkpt>
      <trkpt lat="43.05008" lon="0.40719">
        <ele>536.04</ele>
        <time>2019-09-09T10:08:28Z</time>
      </trkpt>
      <trkpt lat="43.04979" lon="0.40702">
        <ele>532.94</ele>
        <time>2019-09-09T10:08:50Z</time>
      </trkpt>
      <trkpt lat="43.0495" lon="0.4069">
        <ele>530.7</ele>
        <time>2019-09-09T10:09:15Z</time>
      </trkpt>
      <trkpt lat="43.04921" lon="0.40677">
        <ele>530.04</ele>
        <time>2019-09-09T10:09:38Z</time>
      </trkpt>
      <trkpt lat="43.04915" lon="0.40674">
        <ele>530.04</ele>
        <time>2019-09-09T10:09:47Z</time>
      </trkpt>
      <trkpt lat="43.04913" lon="0.40674">
        <ele>530.04</ele>
        <time>2019-09-09T10:09:48Z</time>
      </trkpt>
      <trkpt lat="43.04912" lon="0.40673">
        <ele>530.04</ele>
        <time>2019-09-09T10:09:49Z</time>
      </trkpt>
      <trkpt lat="43.04911" lon="0.40673">
        <ele>530.04</ele>
        <time>2019-09-09T10:09:50Z</time>
      </trkpt>
      <trkpt lat="43.04909" lon="0.40672">
        <ele>530.04</ele>
        <time>2019-09-09T10:09:51Z</time>
      </trkpt>
      <trkpt lat="43.04882" lon="0.40658">
        <ele>530.04</ele>
        <time>2019-09-09T10:10:13Z</time>
      </trkpt>
      <trkpt lat="43.04858" lon="0.40641">
        <ele>529.55</ele>
        <time>2019-09-09T10:10:34Z</time>
      </trkpt>
      <trkpt lat="43.04834" lon="0.40621">
        <ele>529.33</ele>
        <time>2019-09-09T10:10:57Z</time>
      </trkpt>
      <trkpt lat="43.04812" lon="0.406">
        <ele>530.24</ele>
        <time>2019-09-09T10:11:19Z</time>
      </trkpt>
      <trkpt lat="43.04795" lon="0.40584">
        <ele>531.11</ele>
        <time>2019-09-09T10:11:37Z</time>
      </trkpt>
      <trkpt lat="43.04794" lon="0.40583">
        <ele>531.17</ele>
        <time>2019-09-09T10:11:38Z</time>
      </trkpt>
      <trkpt lat="43.04791" lon="0.40581">
        <ele>531.29</ele>
        <time>2019-09-09T10:11:40Z</time>
      </trkpt>
      <trkpt lat="43.04775" lon="0.40566">
        <ele>532.88</ele>
        <time>2019-09-09T10:11:58Z</time>
      </trkpt>
      <trkpt lat="43.04774" lon="0.40565">
        <ele>533</ele>
        <time>2019-09-09T10:11:59Z</time>
      </trkpt>
      <trkpt lat="43.04773" lon="0.40564">
        <ele>533.11</ele>
        <time>2019-09-09T10:12:00Z</time>
      </trkpt>
      <trkpt lat="43.04754" lon="0.40546">
        <ele>534.89</ele>
        <time>2019-09-09T10:12:19Z</time>
      </trkpt>
      <trkpt lat="43.04738" lon="0.4053">
        <ele>536.74</ele>
        <time>2019-09-09T10:12:38Z</time>
      </trkpt>
      <trkpt lat="43.04718" lon="0.4051">
        <ele>538.57</ele>
        <time>2019-09-09T10:12:58Z</time>
      </trkpt>
      <trkpt lat="43.04716" lon="0.40507">
        <ele>538.61</ele>
        <time>2019-09-09T10:13:00Z</time>
      </trkpt>
      <trkpt lat="43.04698" lon="0.40489">
        <ele>541.71</ele>
        <time>2019-09-09T10:13:20Z</time>
      </trkpt>
      <trkpt lat="43.04697" lon="0.40488">
        <ele>541.94</ele>
        <time>2019-09-09T10:13:21Z</time>
      </trkpt>
      <trkpt lat="43.04684" lon="0.40478">
        <ele>541.93</ele>
        <time>2019-09-09T10:13:43Z</time>
      </trkpt>
      <trkpt lat="43.04685" lon="0.40466">
        <ele>543.38</ele>
        <time>2019-09-09T10:14:01Z</time>
      </trkpt>
      <trkpt lat="43.04696" lon="0.40461">
        <ele>545.08</ele>
        <time>2019-09-09T10:14:14Z</time>
      </trkpt>
      <trkpt lat="43.04697" lon="0.4046">
        <ele>545.34</ele>
        <time>2019-09-09T10:14:16Z</time>
      </trkpt>
      <trkpt lat="43.04699" lon="0.40457">
        <ele>545.76</ele>
        <time>2019-09-09T10:14:19Z</time>
      </trkpt>
      <trkpt lat="43.04708" lon="0.40437">
        <ele>547.28</ele>
        <time>2019-09-09T10:14:34Z</time>
      </trkpt>
      <trkpt lat="43.04709" lon="0.40432">
        <ele>547.47</ele>
        <time>2019-09-09T10:14:37Z</time>
      </trkpt>
      <trkpt lat="43.04709" lon="0.40426">
        <ele>547.91</ele>
        <time>2019-09-09T10:14:42Z</time>
      </trkpt>
      <trkpt lat="43.04705" lon="0.40419">
        <ele>548.4</ele>
        <time>2019-09-09T10:14:48Z</time>
      </trkpt>
      <trkpt lat="43.04686" lon="0.40398">
        <ele>550.11</ele>
        <time>2019-09-09T10:15:09Z</time>
      </trkpt>
      <trkpt lat="43.04676" lon="0.40367">
        <ele>550.29</ele>
        <time>2019-09-09T10:15:30Z</time>
      </trkpt>
      <trkpt lat="43.04674" lon="0.40352">
        <ele>550.35</ele>
        <time>2019-09-09T10:15:49Z</time>
      </trkpt>
      <trkpt lat="43.0467" lon="0.40351">
        <ele>550.2</ele>
        <time>2019-09-09T10:16:43Z</time>
      </trkpt>
      <trkpt lat="43.04669" lon="0.40349">
        <ele>550.17</ele>
        <time>2019-09-09T10:16:44Z</time>
      </trkpt>
      <trkpt lat="43.04668" lon="0.40346">
        <ele>550.04</ele>
        <time>2019-09-09T10:16:46Z</time>
      </trkpt>
      <trkpt lat="43.04668" lon="0.40345">
        <ele>549.98</ele>
        <time>2019-09-09T10:16:47Z</time>
      </trkpt>
      <trkpt lat="43.04667" lon="0.40343">
        <ele>549.95</ele>
        <time>2019-09-09T10:16:48Z</time>
      </trkpt>
      <trkpt lat="43.04661" lon="0.40307">
        <ele>549.89</ele>
        <time>2019-09-09T10:17:10Z</time>
      </trkpt>
      <trkpt lat="43.04649" lon="0.40273">
        <ele>549.89</ele>
        <time>2019-09-09T10:17:30Z</time>
      </trkpt>
      <trkpt lat="43.04648" lon="0.40272">
        <ele>549.87</ele>
        <time>2019-09-09T10:17:31Z</time>
      </trkpt>
      <trkpt lat="43.04647" lon="0.40271">
        <ele>549.84</ele>
        <time>2019-09-09T10:17:32Z</time>
      </trkpt>
      <trkpt lat="43.04634" lon="0.40259">
        <ele>549.38</ele>
        <time>2019-09-09T10:17:46Z</time>
      </trkpt>
      <trkpt lat="43.04623" lon="0.40245">
        <ele>548.93</ele>
        <time>2019-09-09T10:18:02Z</time>
      </trkpt>
      <trkpt lat="43.0461" lon="0.40232">
        <ele>549.08</ele>
        <time>2019-09-09T10:18:19Z</time>
      </trkpt>
      <trkpt lat="43.04594" lon="0.40221">
        <ele>549.55</ele>
        <time>2019-09-09T10:18:33Z</time>
      </trkpt>
      <trkpt lat="43.04573" lon="0.40215">
        <ele>550.91</ele>
        <time>2019-09-09T10:18:52Z</time>
      </trkpt>
      <trkpt lat="43.0456" lon="0.40199">
        <ele>552.59</ele>
        <time>2019-09-09T10:19:08Z</time>
      </trkpt>
      <trkpt lat="43.04549" lon="0.40181">
        <ele>553.45</ele>
        <time>2019-09-09T10:19:23Z</time>
      </trkpt>
      <trkpt lat="43.04543" lon="0.40176">
        <ele>553.74</ele>
        <time>2019-09-09T10:19:29Z</time>
      </trkpt>
      <trkpt lat="43.04529" lon="0.4017">
        <ele>555.7</ele>
        <time>2019-09-09T10:19:47Z</time>
      </trkpt>
      <trkpt lat="43.04515" lon="0.40162">
        <ele>554.47</ele>
        <time>2019-09-09T10:19:56Z</time>
      </trkpt>
      <trkpt lat="43.04508" lon="0.40159">
        <ele>553.35</ele>
        <time>2019-09-09T10:20:01Z</time>
      </trkpt>
      <trkpt lat="43.04484" lon="0.40153">
        <ele>550.63</ele>
        <time>2019-09-09T10:20:21Z</time>
      </trkpt>
      <trkpt lat="43.04483" lon="0.40152">
        <ele>550.58</ele>
        <time>2019-09-09T10:20:22Z</time>
      </trkpt>
      <trkpt lat="43.04481" lon="0.40151">
        <ele>550.53</ele>
        <time>2019-09-09T10:20:23Z</time>
      </trkpt>
      <trkpt lat="43.04461" lon="0.40136">
        <ele>549.33</ele>
        <time>2019-09-09T10:20:43Z</time>
      </trkpt>
      <trkpt lat="43.04431" lon="0.40119">
        <ele>547.39</ele>
        <time>2019-09-09T10:21:06Z</time>
      </trkpt>
      <trkpt lat="43.0441" lon="0.40094">
        <ele>546.05</ele>
        <time>2019-09-09T10:21:29Z</time>
      </trkpt>
      <trkpt lat="43.04404" lon="0.40088">
        <ele>545.66</ele>
        <time>2019-09-09T10:21:36Z</time>
      </trkpt>
      <trkpt lat="43.04389" lon="0.40077">
        <ele>544.45</ele>
        <time>2019-09-09T10:21:52Z</time>
      </trkpt>
      <trkpt lat="43.04368" lon="0.40066">
        <ele>542.85</ele>
        <time>2019-09-09T10:22:12Z</time>
      </trkpt>
      <trkpt lat="43.04361" lon="0.4005">
        <ele>542.43</ele>
        <time>2019-09-09T10:22:23Z</time>
      </trkpt>
      <trkpt lat="43.04361" lon="0.40042">
        <ele>542.55</ele>
        <time>2019-09-09T10:22:26Z</time>
      </trkpt>
      <trkpt lat="43.04356" lon="0.40013">
        <ele>542.72</ele>
        <time>2019-09-09T10:22:42Z</time>
      </trkpt>
      <trkpt lat="43.04356" lon="0.40012">
        <ele>542.72</ele>
        <time>2019-09-09T10:22:43Z</time>
      </trkpt>
      <trkpt lat="43.04356" lon="0.4001">
        <ele>542.71</ele>
        <time>2019-09-09T10:22:44Z</time>
      </trkpt>
      <trkpt lat="43.04355" lon="0.40008">
        <ele>542.67</ele>
        <time>2019-09-09T10:22:45Z</time>
      </trkpt>
      <trkpt lat="43.04355" lon="0.40007">
        <ele>542.65</ele>
        <time>2019-09-09T10:22:46Z</time>
      </trkpt>
      <trkpt lat="43.04354" lon="0.40005">
        <ele>542.64</ele>
        <time>2019-09-09T10:22:47Z</time>
      </trkpt>
      <trkpt lat="43.04354" lon="0.40004">
        <ele>542.68</ele>
        <time>2019-09-09T10:22:48Z</time>
      </trkpt>
      <trkpt lat="43.04355" lon="0.40002">
        <ele>542.84</ele>
        <time>2019-09-09T10:22:49Z</time>
      </trkpt>
      <trkpt lat="43.04355" lon="0.40001">
        <ele>543.01</ele>
        <time>2019-09-09T10:22:50Z</time>
      </trkpt>
      <trkpt lat="43.04348" lon="0.39979">
        <ele>543.53</ele>
        <time>2019-09-09T10:23:05Z</time>
      </trkpt>
      <trkpt lat="43.04342" lon="0.3996">
        <ele>546.17</ele>
        <time>2019-09-09T10:23:22Z</time>
      </trkpt>
      <trkpt lat="43.04339" lon="0.39948">
        <ele>546.85</ele>
        <time>2019-09-09T10:23:32Z</time>
      </trkpt>
      <trkpt lat="43.04327" lon="0.39929">
        <ele>549.26</ele>
        <time>2019-09-09T10:23:49Z</time>
      </trkpt>
      <trkpt lat="43.04317" lon="0.39912">
        <ele>549.96</ele>
        <time>2019-09-09T10:24:05Z</time>
      </trkpt>
      <trkpt lat="43.04299" lon="0.39893">
        <ele>551.11</ele>
        <time>2019-09-09T10:24:25Z</time>
      </trkpt>
      <trkpt lat="43.04281" lon="0.39868">
        <ele>552.38</ele>
        <time>2019-09-09T10:24:44Z</time>
      </trkpt>
      <trkpt lat="43.04263" lon="0.39858">
        <ele>553.31</ele>
        <time>2019-09-09T10:25:02Z</time>
      </trkpt>
      <trkpt lat="43.04246" lon="0.39846">
        <ele>553.62</ele>
        <time>2019-09-09T10:25:26Z</time>
      </trkpt>
      <trkpt lat="43.04235" lon="0.39831">
        <ele>553.62</ele>
        <time>2019-09-09T10:25:42Z</time>
      </trkpt>
      <trkpt lat="43.0422" lon="0.39813">
        <ele>553.62</ele>
        <time>2019-09-09T10:26:01Z</time>
      </trkpt>
      <trkpt lat="43.04217" lon="0.39809">
        <ele>557.91</ele>
        <time>2019-09-09T10:26:04Z</time>
      </trkpt>
      <trkpt lat="43.04216" lon="0.39809">
        <ele>558.05</ele>
        <time>2019-09-09T10:26:05Z</time>
      </trkpt>
      <trkpt lat="43.04197" lon="0.398">
        <ele>559.3</ele>
        <time>2019-09-09T10:26:24Z</time>
      </trkpt>
      <trkpt lat="43.04193" lon="0.39799">
        <ele>559.56</ele>
        <time>2019-09-09T10:26:51Z</time>
      </trkpt>
      <trkpt lat="43.04174" lon="0.39797">
        <ele>560.88</ele>
        <time>2019-09-09T10:27:10Z</time>
      </trkpt>
      <trkpt lat="43.04147" lon="0.39795">
        <ele>563.49</ele>
        <time>2019-09-09T10:27:34Z</time>
      </trkpt>
      <trkpt lat="43.04125" lon="0.39789">
        <ele>565.81</ele>
        <time>2019-09-09T10:27:58Z</time>
      </trkpt>
      <trkpt lat="43.04102" lon="0.39768">
        <ele>567.8</ele>
        <time>2019-09-09T10:28:17Z</time>
      </trkpt>
      <trkpt lat="43.04085" lon="0.3975">
        <ele>569.44</ele>
        <time>2019-09-09T10:28:35Z</time>
      </trkpt>
      <trkpt lat="43.0407" lon="0.39729">
        <ele>570.61</ele>
        <time>2019-09-09T10:28:53Z</time>
      </trkpt>
      <trkpt lat="43.0406" lon="0.3971">
        <ele>572.49</ele>
        <time>2019-09-09T10:29:10Z</time>
      </trkpt>
      <trkpt lat="43.04043" lon="0.3969">
        <ele>574.43</ele>
        <time>2019-09-09T10:29:27Z</time>
      </trkpt>
      <trkpt lat="43.04033" lon="0.39664">
        <ele>575.78</ele>
        <time>2019-09-09T10:29:43Z</time>
      </trkpt>
      <trkpt lat="43.04022" lon="0.39645">
        <ele>577.25</ele>
        <time>2019-09-09T10:30:00Z</time>
      </trkpt>
      <trkpt lat="43.0401" lon="0.39626">
        <ele>579.58</ele>
        <time>2019-09-09T10:30:20Z</time>
      </trkpt>
      <trkpt lat="43.04009" lon="0.39625">
        <ele>579.68</ele>
        <time>2019-09-09T10:30:21Z</time>
      </trkpt>
      <trkpt lat="43.03994" lon="0.39601">
        <ele>582.02</ele>
        <time>2019-09-09T10:30:41Z</time>
      </trkpt>
      <trkpt lat="43.03978" lon="0.39579">
        <ele>584.66</ele>
        <time>2019-09-09T10:31:03Z</time>
      </trkpt>
      <trkpt lat="43.03963" lon="0.39559">
        <ele>587.18</ele>
        <time>2019-09-09T10:31:24Z</time>
      </trkpt>
      <trkpt lat="43.03954" lon="0.39534">
        <ele>590.09</ele>
        <time>2019-09-09T10:31:47Z</time>
      </trkpt>
      <trkpt lat="43.03946" lon="0.39511">
        <ele>592.15</ele>
        <time>2019-09-09T10:32:05Z</time>
      </trkpt>
      <trkpt lat="43.03942" lon="0.39482">
        <ele>594.13</ele>
        <time>2019-09-09T10:32:26Z</time>
      </trkpt>
      <trkpt lat="43.03947" lon="0.39448">
        <ele>595.57</ele>
        <time>2019-09-09T10:32:48Z</time>
      </trkpt>
      <trkpt lat="43.0395" lon="0.39441">
        <ele>595.82</ele>
        <time>2019-09-09T10:32:53Z</time>
      </trkpt>
      <trkpt lat="43.03951" lon="0.39438">
        <ele>596.06</ele>
        <time>2019-09-09T10:33:13Z</time>
      </trkpt>
      <trkpt lat="43.03957" lon="0.39428">
        <ele>596.87</ele>
        <time>2019-09-09T10:33:25Z</time>
      </trkpt>
      <trkpt lat="43.0397" lon="0.39405">
        <ele>598.56</ele>
        <time>2019-09-09T10:33:42Z</time>
      </trkpt>
      <trkpt lat="43.03977" lon="0.39379">
        <ele>601.06</ele>
        <time>2019-09-09T10:34:01Z</time>
      </trkpt>
      <trkpt lat="43.03967" lon="0.3935">
        <ele>603.42</ele>
        <time>2019-09-09T10:34:21Z</time>
      </trkpt>
      <trkpt lat="43.03959" lon="0.3933">
        <ele>606.48</ele>
        <time>2019-09-09T10:34:39Z</time>
      </trkpt>
      <trkpt lat="43.03949" lon="0.39304">
        <ele>609.49</ele>
        <time>2019-09-09T10:34:59Z</time>
      </trkpt>
      <trkpt lat="43.03941" lon="0.3928">
        <ele>612.63</ele>
        <time>2019-09-09T10:35:19Z</time>
      </trkpt>
      <trkpt lat="43.03938" lon="0.39254">
        <ele>615.73</ele>
        <time>2019-09-09T10:35:39Z</time>
      </trkpt>
      <trkpt lat="43.03941" lon="0.39224">
        <ele>618.34</ele>
        <time>2019-09-09T10:36:01Z</time>
      </trkpt>
      <trkpt lat="43.03943" lon="0.3919">
        <ele>619.91</ele>
        <time>2019-09-09T10:36:20Z</time>
      </trkpt>
      <trkpt lat="43.03939" lon="0.39161">
        <ele>621.2</ele>
        <time>2019-09-09T10:36:38Z</time>
      </trkpt>
      <trkpt lat="43.03936" lon="0.39132">
        <ele>624.24</ele>
        <time>2019-09-09T10:37:00Z</time>
      </trkpt>
      <trkpt lat="43.03936" lon="0.391">
        <ele>627.09</ele>
        <time>2019-09-09T10:37:21Z</time>
      </trkpt>
      <trkpt lat="43.03935" lon="0.39093">
        <ele>627.52</ele>
        <time>2019-09-09T10:37:24Z</time>
      </trkpt>
      <trkpt lat="43.03932" lon="0.39063">
        <ele>629.68</ele>
        <time>2019-09-09T10:37:43Z</time>
      </trkpt>
      <trkpt lat="43.03924" lon="0.39041">
        <ele>631.78</ele>
        <time>2019-09-09T10:38:02Z</time>
      </trkpt>
      <trkpt lat="43.03907" lon="0.39017">
        <ele>633.74</ele>
        <time>2019-09-09T10:38:22Z</time>
      </trkpt>
      <trkpt lat="43.03906" lon="0.39016">
        <ele>633.77</ele>
        <time>2019-09-09T10:38:23Z</time>
      </trkpt>
      <trkpt lat="43.03893" lon="0.39005">
        <ele>634.57</ele>
        <time>2019-09-09T10:38:35Z</time>
      </trkpt>
      <trkpt lat="43.03874" lon="0.39007">
        <ele>635.98</ele>
        <time>2019-09-09T10:38:51Z</time>
      </trkpt>
      <trkpt lat="43.03866" lon="0.39013">
        <ele>637.14</ele>
        <time>2019-09-09T10:38:59Z</time>
      </trkpt>
      <trkpt lat="43.03851" lon="0.39006">
        <ele>639.97</ele>
        <time>2019-09-09T10:39:19Z</time>
      </trkpt>
      <trkpt lat="43.03853" lon="0.38972">
        <ele>641.33</ele>
        <time>2019-09-09T10:39:40Z</time>
      </trkpt>
      <trkpt lat="43.03855" lon="0.38951">
        <ele>642.66</ele>
        <time>2019-09-09T10:39:57Z</time>
      </trkpt>
      <trkpt lat="43.03852" lon="0.38949">
        <ele>643.52</ele>
        <time>2019-09-09T10:40:14Z</time>
      </trkpt>
      <trkpt lat="43.03852" lon="0.3895">
        <ele>643.41</ele>
        <time>2019-09-09T10:40:37Z</time>
      </trkpt>
      <trkpt lat="43.03851" lon="0.38936">
        <ele>643.78</ele>
        <time>2019-09-09T10:40:56Z</time>
      </trkpt>
      <trkpt lat="43.03843" lon="0.38912">
        <ele>643.92</ele>
        <time>2019-09-09T10:41:15Z</time>
      </trkpt>
      <trkpt lat="43.03837" lon="0.38896">
        <ele>642.8</ele>
        <time>2019-09-09T10:41:31Z</time>
      </trkpt>
      <trkpt lat="43.03827" lon="0.38871">
        <ele>640.56</ele>
        <time>2019-09-09T10:41:53Z</time>
      </trkpt>
      <trkpt lat="43.03817" lon="0.38845">
        <ele>637.51</ele>
        <time>2019-09-09T10:42:10Z</time>
      </trkpt>
      <trkpt lat="43.0381" lon="0.38824">
        <ele>634.33</ele>
        <time>2019-09-09T10:42:26Z</time>
      </trkpt>
      <trkpt lat="43.038" lon="0.38804">
        <ele>631.27</ele>
        <time>2019-09-09T10:42:43Z</time>
      </trkpt>
      <trkpt lat="43.03784" lon="0.38782">
        <ele>628.93</ele>
        <time>2019-09-09T10:43:02Z</time>
      </trkpt>
      <trkpt lat="43.03782" lon="0.38773">
        <ele>628.68</ele>
        <time>2019-09-09T10:43:28Z</time>
      </trkpt>
      <trkpt lat="43.03783" lon="0.38767">
        <ele>628.55</ele>
        <time>2019-09-09T10:43:53Z</time>
      </trkpt>
      <trkpt lat="43.03783" lon="0.38766">
        <ele>628.57</ele>
        <time>2019-09-09T10:43:55Z</time>
      </trkpt>
      <trkpt lat="43.03775" lon="0.38768">
        <ele>628.43</ele>
        <time>2019-09-09T10:44:09Z</time>
      </trkpt>
      <trkpt lat="43.03764" lon="0.38765">
        <ele>627.47</ele>
        <time>2019-09-09T10:44:29Z</time>
      </trkpt>
      <trkpt lat="43.03754" lon="0.38749">
        <ele>625.34</ele>
        <time>2019-09-09T10:44:50Z</time>
      </trkpt>
      <trkpt lat="43.03736" lon="0.38721">
        <ele>622.6</ele>
        <time>2019-09-09T10:45:11Z</time>
      </trkpt>
      <trkpt lat="43.03724" lon="0.38702">
        <ele>619.46</ele>
        <time>2019-09-09T10:45:29Z</time>
      </trkpt>
      <trkpt lat="43.03727" lon="0.38697">
        <ele>618.06</ele>
        <time>2019-09-09T10:45:44Z</time>
      </trkpt>
      <trkpt lat="43.03742" lon="0.38701">
        <ele>619.15</ele>
        <time>2019-09-09T10:46:01Z</time>
      </trkpt>
      <trkpt lat="43.03743" lon="0.38701">
        <ele>619.06</ele>
        <time>2019-09-09T10:46:25Z</time>
      </trkpt>
      <trkpt lat="43.03735" lon="0.38708">
        <ele>620.08</ele>
        <time>2019-09-09T10:46:46Z</time>
      </trkpt>
      <trkpt lat="43.03737" lon="0.38703">
        <ele>619.9</ele>
        <time>2019-09-09T10:47:10Z</time>
      </trkpt>
      <trkpt lat="43.03741" lon="0.38702">
        <ele>616.88</ele>
        <time>2019-09-09T10:47:21Z</time>
      </trkpt>
      <trkpt lat="43.03741" lon="0.38702">
        <ele>616.67</ele>
        <time>2019-09-09T10:47:22Z</time>
      </trkpt>
      <trkpt lat="43.03738" lon="0.38702">
        <ele>619.92</ele>
        <time>2019-09-09T10:47:34Z</time>
      </trkpt>
      <trkpt lat="43.03738" lon="0.38702">
        <ele>620.2</ele>
        <time>2019-09-09T10:47:35Z</time>
      </trkpt>
      <trkpt lat="43.03739" lon="0.38704">
        <ele>620.07</ele>
        <time>2019-09-09T10:47:57Z</time>
      </trkpt>
      <trkpt lat="43.03741" lon="0.38706">
        <ele>620.07</ele>
        <time>2019-09-09T10:49:01Z</time>
      </trkpt>
      <trkpt lat="43.03744" lon="0.38706">
        <ele>620.07</ele>
        <time>2019-09-09T10:49:59Z</time>
      </trkpt>
      <trkpt lat="43.03743" lon="0.38707">
        <ele>620.07</ele>
        <time>2019-09-09T10:50:37Z</time>
      </trkpt>
      <trkpt lat="43.03744" lon="0.38706">
        <ele>620.07</ele>
        <time>2019-09-09T10:51:21Z</time>
      </trkpt>
      <trkpt lat="43.03744" lon="0.38705">
        <ele>620.07</ele>
        <time>2019-09-09T10:52:24Z</time>
      </trkpt>
      <trkpt lat="43.03744" lon="0.38703">
        <ele>620.07</ele>
        <time>2019-09-09T10:53:32Z</time>
      </trkpt>
      <trkpt lat="43.03742" lon="0.38706">
        <ele>620.07</ele>
        <time>2019-09-09T10:54:38Z</time>
      </trkpt>
      <trkpt lat="43.03741" lon="0.38707">
        <ele>620.07</ele>
        <time>2019-09-09T10:56:16Z</time>
      </trkpt>
      <trkpt lat="43.03742" lon="0.38708">
        <ele>620.07</ele>
        <time>2019-09-09T10:57:07Z</time>
      </trkpt>
      <trkpt lat="43.03742" lon="0.38708">
        <ele>620.07</ele>
        <time>2019-09-09T10:57:50Z</time>
      </trkpt>
      <trkpt lat="43.03742" lon="0.38708">
        <ele>620.07</ele>
        <time>2019-09-09T10:58:52Z</time>
      </trkpt>
      <trkpt lat="43.03741" lon="0.38707">
        <ele>620.07</ele>
        <time>2019-09-09T11:00:41Z</time>
      </trkpt>
      <trkpt lat="43.03741" lon="0.38706">
        <ele>620.07</ele>
        <time>2019-09-09T11:02:21Z</time>
      </trkpt>
      <trkpt lat="43.03742" lon="0.38707">
        <ele>620.07</ele>
        <time>2019-09-09T11:03:29Z</time>
      </trkpt>
      <trkpt lat="43.03741" lon="0.38705">
        <ele>620.07</ele>
        <time>2019-09-09T11:04:51Z</time>
      </trkpt>
      <trkpt lat="43.03741" lon="0.38707">
        <ele>620.07</ele>
        <time>2019-09-09T11:06:13Z</time>
      </trkpt>
      <trkpt lat="43.03742" lon="0.38709">
        <ele>620.07</ele>
        <time>2019-09-09T11:06:57Z</time>
      </trkpt>
      <trkpt lat="43.03743" lon="0.38708">
        <ele>620.07</ele>
        <time>2019-09-09T11:07:37Z</time>
      </trkpt>
      <trkpt lat="43.03741" lon="0.38706">
        <ele>620.07</ele>
        <time>2019-09-09T11:08:47Z</time>
      </trkpt>
      <trkpt lat="43.0374" lon="0.38708">
        <ele>620.07</ele>
        <time>2019-09-09T11:09:53Z</time>
      </trkpt>
      <trkpt lat="43.03738" lon="0.38706">
        <ele>620.07</ele>
        <time>2019-09-09T11:11:16Z</time>
      </trkpt>
      <trkpt lat="43.03741" lon="0.38708">
        <ele>620.07</ele>
        <time>2019-09-09T11:12:45Z</time>
      </trkpt>
      <trkpt lat="43.03742" lon="0.38708">
        <ele>620.07</ele>
        <time>2019-09-09T11:14:16Z</time>
      </trkpt>
      <trkpt lat="43.03743" lon="0.38709">
        <ele>620.07</ele>
        <time>2019-09-09T11:15:10Z</time>
      </trkpt>
      <trkpt lat="43.03742" lon="0.38706">
        <ele>620.07</ele>
        <time>2019-09-09T11:16:48Z</time>
      </trkpt>
      <trkpt lat="43.03742" lon="0.38707">
        <ele>620.07</ele>
        <time>2019-09-09T11:18:03Z</time>
      </trkpt>
      <trkpt lat="43.03743" lon="0.38709">
        <ele>620.07</ele>
        <time>2019-09-09T11:19:32Z</time>
      </trkpt>
      <trkpt lat="43.0374" lon="0.38708">
        <ele>620.07</ele>
        <time>2019-09-09T11:20:58Z</time>
      </trkpt>
      <trkpt lat="43.03741" lon="0.38706">
        <ele>620.07</ele>
        <time>2019-09-09T11:22:03Z</time>
      </trkpt>
      <trkpt lat="43.03741" lon="0.38707">
        <ele>620.07</ele>
        <time>2019-09-09T11:23:27Z</time>
      </trkpt>
      <trkpt lat="43.03742" lon="0.38707">
        <ele>620.07</ele>
        <time>2019-09-09T11:25:03Z</time>
      </trkpt>
      <trkpt lat="43.03741" lon="0.38706">
        <ele>620.07</ele>
        <time>2019-09-09T11:25:25Z</time>
      </trkpt>
      <trkpt lat="43.03741" lon="0.38709">
        <ele>620.07</ele>
        <time>2019-09-09T11:25:51Z</time>
      </trkpt>
      <trkpt lat="43.03742" lon="0.38707">
        <ele>620.07</ele>
        <time>2019-09-09T11:26:21Z</time>
      </trkpt>
      <trkpt lat="43.03741" lon="0.38703">
        <ele>620.07</ele>
        <time>2019-09-09T11:26:51Z</time>
      </trkpt>
      <trkpt lat="43.0374" lon="0.38703">
        <ele>620.07</ele>
        <time>2019-09-09T11:26:52Z</time>
      </trkpt>
      <trkpt lat="43.03736" lon="0.38697">
        <ele>620.07</ele>
        <time>2019-09-09T11:27:07Z</time>
      </trkpt>
      <trkpt lat="43.03733" lon="0.38695">
        <ele>624.16</ele>
        <time>2019-09-09T11:27:11Z</time>
      </trkpt>
      <trkpt lat="43.03731" lon="0.38693">
        <ele>628.15</ele>
        <time>2019-09-09T11:27:13Z</time>
      </trkpt>
      <trkpt lat="43.03729" lon="0.38692">
        <ele>629.11</ele>
        <time>2019-09-09T11:27:15Z</time>
      </trkpt>
      <trkpt lat="43.03719" lon="0.38685">
        <ele>628.17</ele>
        <time>2019-09-09T11:27:31Z</time>
      </trkpt>
      <trkpt lat="43.03716" lon="0.38669">
        <ele>626.45</ele>
        <time>2019-09-09T11:27:44Z</time>
      </trkpt>
      <trkpt lat="43.03713" lon="0.38642">
        <ele>623.09</ele>
        <time>2019-09-09T11:28:01Z</time>
      </trkpt>
      <trkpt lat="43.03711" lon="0.38617">
        <ele>619.92</ele>
        <time>2019-09-09T11:28:16Z</time>
      </trkpt>
      <trkpt lat="43.0371" lon="0.38603">
        <ele>616.7</ele>
        <time>2019-09-09T11:28:31Z</time>
      </trkpt>
      <trkpt lat="43.03704" lon="0.38583">
        <ele>613.64</ele>
        <time>2019-09-09T11:28:44Z</time>
      </trkpt>
      <trkpt lat="43.03696" lon="0.38555">
        <ele>610.59</ele>
        <time>2019-09-09T11:29:01Z</time>
      </trkpt>
      <trkpt lat="43.03691" lon="0.38525">
        <ele>608.32</ele>
        <time>2019-09-09T11:29:17Z</time>
      </trkpt>
      <trkpt lat="43.03685" lon="0.38492">
        <ele>605.68</ele>
        <time>2019-09-09T11:29:38Z</time>
      </trkpt>
      <trkpt lat="43.03679" lon="0.38465">
        <ele>603.58</ele>
        <time>2019-09-09T11:29:54Z</time>
      </trkpt>
      <trkpt lat="43.03672" lon="0.38443">
        <ele>601.94</ele>
        <time>2019-09-09T11:30:09Z</time>
      </trkpt>
      <trkpt lat="43.03667" lon="0.38434">
        <ele>601.42</ele>
        <time>2019-09-09T11:30:15Z</time>
      </trkpt>
      <trkpt lat="43.03652" lon="0.38406">
        <ele>600.51</ele>
        <time>2019-09-09T11:30:33Z</time>
      </trkpt>
      <trkpt lat="43.03638" lon="0.38376">
        <ele>599.45</ele>
        <time>2019-09-09T11:30:50Z</time>
      </trkpt>
      <trkpt lat="43.03634" lon="0.38355">
        <ele>599.04</ele>
        <time>2019-09-09T11:31:05Z</time>
      </trkpt>
      <trkpt lat="43.03644" lon="0.38328">
        <ele>596.78</ele>
        <time>2019-09-09T11:31:22Z</time>
      </trkpt>
      <trkpt lat="43.03646" lon="0.38318">
        <ele>596.24</ele>
        <time>2019-09-09T11:31:28Z</time>
      </trkpt>
      <trkpt lat="43.03646" lon="0.38307">
        <ele>595.81</ele>
        <time>2019-09-09T11:31:33Z</time>
      </trkpt>
      <trkpt lat="43.03642" lon="0.38294">
        <ele>594.52</ele>
        <time>2019-09-09T11:31:46Z</time>
      </trkpt>
      <trkpt lat="43.0364" lon="0.38292">
        <ele>594.4</ele>
        <time>2019-09-09T11:31:48Z</time>
      </trkpt>
      <trkpt lat="43.03639" lon="0.38291">
        <ele>594.33</ele>
        <time>2019-09-09T11:31:49Z</time>
      </trkpt>
      <trkpt lat="43.03631" lon="0.38259">
        <ele>592.38</ele>
        <time>2019-09-09T11:32:08Z</time>
      </trkpt>
      <trkpt lat="43.03628" lon="0.38226">
        <ele>591.65</ele>
        <time>2019-09-09T11:32:27Z</time>
      </trkpt>
      <trkpt lat="43.03624" lon="0.38195">
        <ele>589.59</ele>
        <time>2019-09-09T11:32:47Z</time>
      </trkpt>
      <trkpt lat="43.03628" lon="0.38171">
        <ele>588.71</ele>
        <time>2019-09-09T11:33:04Z</time>
      </trkpt>
      <trkpt lat="43.03632" lon="0.38162">
        <ele>588.46</ele>
        <time>2019-09-09T11:33:10Z</time>
      </trkpt>
      <trkpt lat="43.03633" lon="0.3816">
        <ele>588.43</ele>
        <time>2019-09-09T11:33:11Z</time>
      </trkpt>
      <trkpt lat="43.03634" lon="0.38158">
        <ele>588.38</ele>
        <time>2019-09-09T11:33:12Z</time>
      </trkpt>
      <trkpt lat="43.03649" lon="0.38129">
        <ele>587.33</ele>
        <time>2019-09-09T11:33:32Z</time>
      </trkpt>
      <trkpt lat="43.03668" lon="0.38108">
        <ele>587.2</ele>
        <time>2019-09-09T11:33:49Z</time>
      </trkpt>
      <trkpt lat="43.03671" lon="0.38108">
        <ele>587.27</ele>
        <time>2019-09-09T11:33:51Z</time>
      </trkpt>
      <trkpt lat="43.03673" lon="0.38107">
        <ele>587.31</ele>
        <time>2019-09-09T11:33:52Z</time>
      </trkpt>
      <trkpt lat="43.03691" lon="0.38097">
        <ele>587.59</ele>
        <time>2019-09-09T11:34:08Z</time>
      </trkpt>
      <trkpt lat="43.03694" lon="0.38096">
        <ele>587.61</ele>
        <time>2019-09-09T11:34:10Z</time>
      </trkpt>
      <trkpt lat="43.03695" lon="0.38095">
        <ele>587.67</ele>
        <time>2019-09-09T11:34:11Z</time>
      </trkpt>
      <trkpt lat="43.03715" lon="0.38092">
        <ele>588.15</ele>
        <time>2019-09-09T11:34:26Z</time>
      </trkpt>
      <trkpt lat="43.03743" lon="0.38081">
        <ele>587.77</ele>
        <time>2019-09-09T11:34:46Z</time>
      </trkpt>
      <trkpt lat="43.0377" lon="0.38075">
        <ele>588.24</ele>
        <time>2019-09-09T11:35:06Z</time>
      </trkpt>
      <trkpt lat="43.03798" lon="0.38075">
        <ele>587.92</ele>
        <time>2019-09-09T11:35:27Z</time>
      </trkpt>
      <trkpt lat="43.03828" lon="0.38075">
        <ele>587.75</ele>
        <time>2019-09-09T11:35:49Z</time>
      </trkpt>
      <trkpt lat="43.03852" lon="0.38075">
        <ele>587.56</ele>
        <time>2019-09-09T11:36:07Z</time>
      </trkpt>
      <trkpt lat="43.03879" lon="0.38061">
        <ele>586.34</ele>
        <time>2019-09-09T11:36:27Z</time>
      </trkpt>
      <trkpt lat="43.03884" lon="0.38057">
        <ele>585.91</ele>
        <time>2019-09-09T11:36:32Z</time>
      </trkpt>
      <trkpt lat="43.03885" lon="0.38056">
        <ele>585.82</ele>
        <time>2019-09-09T11:36:33Z</time>
      </trkpt>
      <trkpt lat="43.03895" lon="0.38047">
        <ele>584.73</ele>
        <time>2019-09-09T11:36:42Z</time>
      </trkpt>
      <trkpt lat="43.03896" lon="0.38046">
        <ele>584.58</ele>
        <time>2019-09-09T11:36:43Z</time>
      </trkpt>
      <trkpt lat="43.03897" lon="0.38045">
        <ele>584.44</ele>
        <time>2019-09-09T11:36:44Z</time>
      </trkpt>
      <trkpt lat="43.039" lon="0.38041">
        <ele>584.05</ele>
        <time>2019-09-09T11:36:47Z</time>
      </trkpt>
      <trkpt lat="43.03911" lon="0.38021">
        <ele>582.56</ele>
        <time>2019-09-09T11:37:00Z</time>
      </trkpt>
      <trkpt lat="43.03923" lon="0.38002">
        <ele>580.84</ele>
        <time>2019-09-09T11:37:15Z</time>
      </trkpt>
      <trkpt lat="43.03939" lon="0.37982">
        <ele>578.57</ele>
        <time>2019-09-09T11:37:32Z</time>
      </trkpt>
      <trkpt lat="43.03947" lon="0.37973">
        <ele>577.79</ele>
        <time>2019-09-09T11:37:38Z</time>
      </trkpt>
      <trkpt lat="43.03964" lon="0.37954">
        <ele>575.66</ele>
        <time>2019-09-09T11:37:52Z</time>
      </trkpt>
      <trkpt lat="43.03966" lon="0.37953">
        <ele>575.54</ele>
        <time>2019-09-09T11:37:53Z</time>
      </trkpt>
      <trkpt lat="43.03967" lon="0.37951">
        <ele>575.41</ele>
        <time>2019-09-09T11:37:54Z</time>
      </trkpt>
      <trkpt lat="43.03986" lon="0.3793">
        <ele>572.64</ele>
        <time>2019-09-09T11:38:13Z</time>
      </trkpt>
      <trkpt lat="43.04005" lon="0.37925">
        <ele>571.21</ele>
        <time>2019-09-09T11:38:28Z</time>
      </trkpt>
      <trkpt lat="43.04031" lon="0.37925">
        <ele>569.11</ele>
        <time>2019-09-09T11:38:47Z</time>
      </trkpt>
      <trkpt lat="43.04048" lon="0.37928">
        <ele>567.74</ele>
        <time>2019-09-09T11:39:01Z</time>
      </trkpt>
      <trkpt lat="43.04066" lon="0.37939">
        <ele>566.09</ele>
        <time>2019-09-09T11:39:16Z</time>
      </trkpt>
      <trkpt lat="43.04091" lon="0.37949">
        <ele>564.74</ele>
        <time>2019-09-09T11:39:33Z</time>
      </trkpt>
      <trkpt lat="43.04105" lon="0.37949">
        <ele>563.9</ele>
        <time>2019-09-09T11:39:43Z</time>
      </trkpt>
      <trkpt lat="43.04125" lon="0.37944">
        <ele>562.34</ele>
        <time>2019-09-09T11:39:59Z</time>
      </trkpt>
      <trkpt lat="43.04131" lon="0.37942">
        <ele>561.83</ele>
        <time>2019-09-09T11:40:03Z</time>
      </trkpt>
      <trkpt lat="43.04148" lon="0.37948">
        <ele>560.23</ele>
        <time>2019-09-09T11:40:18Z</time>
      </trkpt>
      <trkpt lat="43.04171" lon="0.37974">
        <ele>558.87</ele>
        <time>2019-09-09T11:40:36Z</time>
      </trkpt>
      <trkpt lat="43.04199" lon="0.37992">
        <ele>557.5</ele>
        <time>2019-09-09T11:40:56Z</time>
      </trkpt>
      <trkpt lat="43.04213" lon="0.37996">
        <ele>557.2</ele>
        <time>2019-09-09T11:41:07Z</time>
      </trkpt>
      <trkpt lat="43.04215" lon="0.37996">
        <ele>557.16</ele>
        <time>2019-09-09T11:41:08Z</time>
      </trkpt>
      <trkpt lat="43.04216" lon="0.37996">
        <ele>557.07</ele>
        <time>2019-09-09T11:41:09Z</time>
      </trkpt>
      <trkpt lat="43.04243" lon="0.37992">
        <ele>555.77</ele>
        <time>2019-09-09T11:41:29Z</time>
      </trkpt>
      <trkpt lat="43.04248" lon="0.3798">
        <ele>555.82</ele>
        <time>2019-09-09T11:41:37Z</time>
      </trkpt>
      <trkpt lat="43.04252" lon="0.37955">
        <ele>554.89</ele>
        <time>2019-09-09T11:41:54Z</time>
      </trkpt>
      <trkpt lat="43.04253" lon="0.37943">
        <ele>554.56</ele>
        <time>2019-09-09T11:42:00Z</time>
      </trkpt>
      <trkpt lat="43.04256" lon="0.37922">
        <ele>552.86</ele>
        <time>2019-09-09T11:42:15Z</time>
      </trkpt>
      <trkpt lat="43.0426" lon="0.37894">
        <ele>553.39</ele>
        <time>2019-09-09T11:42:31Z</time>
      </trkpt>
      <trkpt lat="43.0426" lon="0.37862">
        <ele>553.38</ele>
        <time>2019-09-09T11:42:49Z</time>
      </trkpt>
      <trkpt lat="43.0426" lon="0.3785">
        <ele>553.74</ele>
        <time>2019-09-09T11:42:56Z</time>
      </trkpt>
      <trkpt lat="43.0426" lon="0.37848">
        <ele>553.79</ele>
        <time>2019-09-09T11:42:57Z</time>
      </trkpt>
      <trkpt lat="43.04259" lon="0.37846">
        <ele>553.82</ele>
        <time>2019-09-09T11:42:58Z</time>
      </trkpt>
      <trkpt lat="43.04259" lon="0.37844">
        <ele>553.83</ele>
        <time>2019-09-09T11:42:59Z</time>
      </trkpt>
      <trkpt lat="43.04258" lon="0.37842">
        <ele>553.82</ele>
        <time>2019-09-09T11:43:00Z</time>
      </trkpt>
      <trkpt lat="43.04258" lon="0.3784">
        <ele>553.82</ele>
        <time>2019-09-09T11:43:01Z</time>
      </trkpt>
      <trkpt lat="43.04258" lon="0.37838">
        <ele>553.82</ele>
        <time>2019-09-09T11:43:02Z</time>
      </trkpt>
      <trkpt lat="43.04258" lon="0.37836">
        <ele>553.93</ele>
        <time>2019-09-09T11:43:03Z</time>
      </trkpt>
      <trkpt lat="43.04258" lon="0.37834">
        <ele>553.99</ele>
        <time>2019-09-09T11:43:04Z</time>
      </trkpt>
      <trkpt lat="43.04257" lon="0.37807">
        <ele>554.84</ele>
        <time>2019-09-09T11:43:18Z</time>
      </trkpt>
      <trkpt lat="43.04254" lon="0.37774">
        <ele>555.51</ele>
        <time>2019-09-09T11:43:36Z</time>
      </trkpt>
      <trkpt lat="43.04251" lon="0.3774">
        <ele>556.39</ele>
        <time>2019-09-09T11:43:55Z</time>
      </trkpt>
      <trkpt lat="43.04248" lon="0.37711">
        <ele>558.6</ele>
        <time>2019-09-09T11:44:15Z</time>
      </trkpt>
      <trkpt lat="43.04245" lon="0.37684">
        <ele>560.62</ele>
        <time>2019-09-09T11:44:35Z</time>
      </trkpt>
      <trkpt lat="43.04237" lon="0.37658">
        <ele>563.55</ele>
        <time>2019-09-09T11:44:55Z</time>
      </trkpt>
      <trkpt lat="43.04227" lon="0.37648">
        <ele>565.26</ele>
        <time>2019-09-09T11:45:08Z</time>
      </trkpt>
      <trkpt lat="43.04213" lon="0.37636">
        <ele>567.24</ele>
        <time>2019-09-09T11:45:23Z</time>
      </trkpt>
      <trkpt lat="43.04196" lon="0.37627">
        <ele>569.74</ele>
        <time>2019-09-09T11:45:41Z</time>
      </trkpt>
      <trkpt lat="43.04183" lon="0.37608">
        <ele>572.82</ele>
        <time>2019-09-09T11:46:01Z</time>
      </trkpt>
      <trkpt lat="43.04185" lon="0.37594">
        <ele>574.3</ele>
        <time>2019-09-09T11:46:11Z</time>
      </trkpt>
      <trkpt lat="43.04194" lon="0.37572">
        <ele>576.64</ele>
        <time>2019-09-09T11:46:27Z</time>
      </trkpt>
      <trkpt lat="43.042" lon="0.37544">
        <ele>578.83</ele>
        <time>2019-09-09T11:46:46Z</time>
      </trkpt>
      <trkpt lat="43.04207" lon="0.37516">
        <ele>580.89</ele>
        <time>2019-09-09T11:47:05Z</time>
      </trkpt>
      <trkpt lat="43.04209" lon="0.37497">
        <ele>582.14</ele>
        <time>2019-09-09T11:47:19Z</time>
      </trkpt>
      <trkpt lat="43.0421" lon="0.37469">
        <ele>584.16</ele>
        <time>2019-09-09T11:47:37Z</time>
      </trkpt>
      <trkpt lat="43.0421" lon="0.37444">
        <ele>586.7</ele>
        <time>2019-09-09T11:47:56Z</time>
      </trkpt>
      <trkpt lat="43.04205" lon="0.37413">
        <ele>589.54</ele>
        <time>2019-09-09T11:48:17Z</time>
      </trkpt>
      <trkpt lat="43.04194" lon="0.37384">
        <ele>592.4</ele>
        <time>2019-09-09T11:48:37Z</time>
      </trkpt>
      <trkpt lat="43.04184" lon="0.37365">
        <ele>594.78</ele>
        <time>2019-09-09T11:48:56Z</time>
      </trkpt>
      <trkpt lat="43.04181" lon="0.37353">
        <ele>597.71</ele>
        <time>2019-09-09T11:49:06Z</time>
      </trkpt>
      <trkpt lat="43.0418" lon="0.37349">
        <ele>597.88</ele>
        <time>2019-09-09T11:49:09Z</time>
      </trkpt>
      <trkpt lat="43.04174" lon="0.37324">
        <ele>599.77</ele>
        <time>2019-09-09T11:49:28Z</time>
      </trkpt>
      <trkpt lat="43.04167" lon="0.37298">
        <ele>602.11</ele>
        <time>2019-09-09T11:49:47Z</time>
      </trkpt>
      <trkpt lat="43.04164" lon="0.37271">
        <ele>604.41</ele>
        <time>2019-09-09T11:50:05Z</time>
      </trkpt>
      <trkpt lat="43.04167" lon="0.37242">
        <ele>606.7</ele>
        <time>2019-09-09T11:50:25Z</time>
      </trkpt>
      <trkpt lat="43.04171" lon="0.37211">
        <ele>609.61</ele>
        <time>2019-09-09T11:50:46Z</time>
      </trkpt>
      <trkpt lat="43.04173" lon="0.37177">
        <ele>611.47</ele>
        <time>2019-09-09T11:51:06Z</time>
      </trkpt>
      <trkpt lat="43.04175" lon="0.3713">
        <ele>612.64</ele>
        <time>2019-09-09T11:51:33Z</time>
      </trkpt>
      <trkpt lat="43.04176" lon="0.37088">
        <ele>613.1</ele>
        <time>2019-09-09T11:51:56Z</time>
      </trkpt>
      <trkpt lat="43.04181" lon="0.37052">
        <ele>613.93</ele>
        <time>2019-09-09T11:52:16Z</time>
      </trkpt>
      <trkpt lat="43.04186" lon="0.37037">
        <ele>614.5</ele>
        <time>2019-09-09T11:52:28Z</time>
      </trkpt>
      <trkpt lat="43.04189" lon="0.37033">
        <ele>614.73</ele>
        <time>2019-09-09T11:52:31Z</time>
      </trkpt>
      <trkpt lat="43.04199" lon="0.37001">
        <ele>615.14</ele>
        <time>2019-09-09T11:52:50Z</time>
      </trkpt>
      <trkpt lat="43.04201" lon="0.3697">
        <ele>615.69</ele>
        <time>2019-09-09T11:53:07Z</time>
      </trkpt>
      <trkpt lat="43.04201" lon="0.36926">
        <ele>616.54</ele>
        <time>2019-09-09T11:53:32Z</time>
      </trkpt>
      <trkpt lat="43.04201" lon="0.36886">
        <ele>617.71</ele>
        <time>2019-09-09T11:53:54Z</time>
      </trkpt>
      <trkpt lat="43.04202" lon="0.36856">
        <ele>619.43</ele>
        <time>2019-09-09T11:54:13Z</time>
      </trkpt>
      <trkpt lat="43.04203" lon="0.36817">
        <ele>621.76</ele>
        <time>2019-09-09T11:54:36Z</time>
      </trkpt>
      <trkpt lat="43.04203" lon="0.36807">
        <ele>622.48</ele>
        <time>2019-09-09T11:54:42Z</time>
      </trkpt>
      <trkpt lat="43.04205" lon="0.36778">
        <ele>623.44</ele>
        <time>2019-09-09T11:55:01Z</time>
      </trkpt>
      <trkpt lat="43.04205" lon="0.36744">
        <ele>624.67</ele>
        <time>2019-09-09T11:55:19Z</time>
      </trkpt>
      <trkpt lat="43.04206" lon="0.36721">
        <ele>625.61</ele>
        <time>2019-09-09T11:55:33Z</time>
      </trkpt>
      <trkpt lat="43.04197" lon="0.36695">
        <ele>628.64</ele>
        <time>2019-09-09T11:55:54Z</time>
      </trkpt>
      <trkpt lat="43.04172" lon="0.36682">
        <ele>631.54</ele>
        <time>2019-09-09T11:56:14Z</time>
      </trkpt>
      <trkpt lat="43.04158" lon="0.36677">
        <ele>633.54</ele>
        <time>2019-09-09T11:56:27Z</time>
      </trkpt>
      <trkpt lat="43.04135" lon="0.36673">
        <ele>636</ele>
        <time>2019-09-09T11:56:47Z</time>
      </trkpt>
      <trkpt lat="43.04107" lon="0.36667">
        <ele>638.36</ele>
        <time>2019-09-09T11:57:11Z</time>
      </trkpt>
      <trkpt lat="43.04084" lon="0.36659">
        <ele>640.87</ele>
        <time>2019-09-09T11:57:32Z</time>
      </trkpt>
      <trkpt lat="43.04061" lon="0.36653">
        <ele>643.88</ele>
        <time>2019-09-09T11:57:53Z</time>
      </trkpt>
      <trkpt lat="43.04037" lon="0.36648">
        <ele>646.96</ele>
        <time>2019-09-09T11:58:13Z</time>
      </trkpt>
      <trkpt lat="43.04016" lon="0.3664">
        <ele>649.67</ele>
        <time>2019-09-09T11:58:32Z</time>
      </trkpt>
      <trkpt lat="43.03991" lon="0.36636">
        <ele>652.43</ele>
        <time>2019-09-09T11:58:55Z</time>
      </trkpt>
      <trkpt lat="43.03961" lon="0.36631">
        <ele>655.32</ele>
        <time>2019-09-09T11:59:20Z</time>
      </trkpt>
      <trkpt lat="43.03936" lon="0.36627">
        <ele>658.14</ele>
        <time>2019-09-09T11:59:41Z</time>
      </trkpt>
      <trkpt lat="43.03931" lon="0.36623">
        <ele>658.81</ele>
        <time>2019-09-09T11:59:46Z</time>
      </trkpt>
      <trkpt lat="43.03929" lon="0.36622">
        <ele>658.88</ele>
        <time>2019-09-09T11:59:47Z</time>
      </trkpt>
      <trkpt lat="43.03927" lon="0.3662">
        <ele>658.98</ele>
        <time>2019-09-09T11:59:49Z</time>
      </trkpt>
      <trkpt lat="43.03924" lon="0.36617">
        <ele>659.03</ele>
        <time>2019-09-09T11:59:52Z</time>
      </trkpt>
      <trkpt lat="43.03918" lon="0.36607">
        <ele>660.27</ele>
        <time>2019-09-09T12:00:00Z</time>
      </trkpt>
      <trkpt lat="43.03905" lon="0.36579">
        <ele>661.61</ele>
        <time>2019-09-09T12:00:18Z</time>
      </trkpt>
      <trkpt lat="43.03895" lon="0.36557">
        <ele>664.04</ele>
        <time>2019-09-09T12:00:34Z</time>
      </trkpt>
      <trkpt lat="43.03882" lon="0.36526">
        <ele>664.95</ele>
        <time>2019-09-09T12:00:55Z</time>
      </trkpt>
      <trkpt lat="43.03862" lon="0.36494">
        <ele>666.15</ele>
        <time>2019-09-09T12:01:18Z</time>
      </trkpt>
      <trkpt lat="43.03849" lon="0.36463">
        <ele>667.52</ele>
        <time>2019-09-09T12:01:38Z</time>
      </trkpt>
      <trkpt lat="43.03846" lon="0.36453">
        <ele>667.76</ele>
        <time>2019-09-09T12:01:43Z</time>
      </trkpt>
      <trkpt lat="43.03843" lon="0.36419">
        <ele>669.2</ele>
        <time>2019-09-09T12:02:08Z</time>
      </trkpt>
      <trkpt lat="43.03839" lon="0.36408">
        <ele>669.41</ele>
        <time>2019-09-09T12:02:12Z</time>
      </trkpt>
      <trkpt lat="43.03824" lon="0.36389">
        <ele>670.28</ele>
        <time>2019-09-09T12:02:24Z</time>
      </trkpt>
      <trkpt lat="43.0381" lon="0.36373">
        <ele>671.94</ele>
        <time>2019-09-09T12:02:41Z</time>
      </trkpt>
      <trkpt lat="43.03807" lon="0.36371">
        <ele>672.48</ele>
        <time>2019-09-09T12:02:44Z</time>
      </trkpt>
      <trkpt lat="43.03798" lon="0.36356">
        <ele>675.54</ele>
        <time>2019-09-09T12:02:59Z</time>
      </trkpt>
      <trkpt lat="43.03798" lon="0.36353">
        <ele>676.24</ele>
        <time>2019-09-09T12:03:01Z</time>
      </trkpt>
      <trkpt lat="43.03794" lon="0.36341">
        <ele>676.29</ele>
        <time>2019-09-09T12:03:10Z</time>
      </trkpt>
      <trkpt lat="43.0379" lon="0.36319">
        <ele>676.18</ele>
        <time>2019-09-09T12:03:25Z</time>
      </trkpt>
      <trkpt lat="43.03781" lon="0.36287">
        <ele>675.51</ele>
        <time>2019-09-09T12:03:43Z</time>
      </trkpt>
      <trkpt lat="43.03788" lon="0.36269">
        <ele>675.16</ele>
        <time>2019-09-09T12:03:59Z</time>
      </trkpt>
      <trkpt lat="43.03793" lon="0.36266">
        <ele>675.54</ele>
        <time>2019-09-09T12:04:18Z</time>
      </trkpt>
      <trkpt lat="43.03793" lon="0.36262">
        <ele>675.32</ele>
        <time>2019-09-09T12:04:42Z</time>
      </trkpt>
      <trkpt lat="43.03794" lon="0.36259">
        <ele>681.57</ele>
        <time>2019-09-09T12:04:53Z</time>
      </trkpt>
      <trkpt lat="43.03794" lon="0.36259">
        <ele>678.49</ele>
        <time>2019-09-09T12:04:54Z</time>
      </trkpt>
      <trkpt lat="43.03794" lon="0.3626">
        <ele>675.43</ele>
        <time>2019-09-09T12:04:59Z</time>
      </trkpt>
      <trkpt lat="43.03803" lon="0.36263">
        <ele>675.32</ele>
        <time>2019-09-09T12:05:14Z</time>
      </trkpt>
      <trkpt lat="43.03799" lon="0.36262">
        <ele>675.32</ele>
        <time>2019-09-09T12:05:32Z</time>
      </trkpt>
      <trkpt lat="43.038" lon="0.36259">
        <ele>675.39</ele>
        <time>2019-09-09T12:05:43Z</time>
      </trkpt>
    </trkseg>
  </trk>
</gpx>